<?xml version="1.0" encoding="UTF-8" standalone="no" ?>
<gpx xmlns="http://www.topografix.com/GPX/1/1" xmlns:xsi="http://www.w3.org/2001/XMLSchema-instance" xsi:schemaLocation="http://www.topografix.com/GPX/1/1 http://www.topografix.com/GPX/1/1/gpx.xsd" version="1.1" creator="VisuGPX - https://www.visugpx.com">
  <metadata>
    <name>83-D-St Antonin</name>
    <desc><![CDATA[83-D-St Antonin : le grand huit des cinq paires]]></desc>
  </metadata>
  <trk>
    <name><![CDATA[2019-01-20-D-St Antonin]]></name>
    <trkseg>
      <trkpt lat="43.51609" lon="6.29844">
        <ele>254.1</ele>
        <time>2019-01-20T08:21:43Z</time>
      </trkpt>
      <trkpt lat="43.51609" lon="6.29844">
        <ele>254.1</ele>
        <time>2019-01-20T08:21:44Z</time>
      </trkpt>
      <trkpt lat="43.51607" lon="6.29831">
        <ele>256</ele>
        <time>2019-01-20T08:23:13Z</time>
      </trkpt>
      <trkpt lat="43.51603" lon="6.29843">
        <ele>255.7</ele>
        <time>2019-01-20T08:23:35Z</time>
      </trkpt>
      <trkpt lat="43.51599" lon="6.29832">
        <ele>255.5</ele>
        <time>2019-01-20T08:24:13Z</time>
      </trkpt>
      <trkpt lat="43.51607" lon="6.29824">
        <ele>254.3</ele>
        <time>2019-01-20T08:25:40Z</time>
      </trkpt>
      <trkpt lat="43.51612" lon="6.29813">
        <ele>254.3</ele>
        <time>2019-01-20T08:25:48Z</time>
      </trkpt>
      <trkpt lat="43.51616" lon="6.29801">
        <ele>254.2</ele>
        <time>2019-01-20T08:25:57Z</time>
      </trkpt>
      <trkpt lat="43.51622" lon="6.29791">
        <ele>254.2</ele>
        <time>2019-01-20T08:26:05Z</time>
      </trkpt>
      <trkpt lat="43.51624" lon="6.29778">
        <ele>254.2</ele>
        <time>2019-01-20T08:26:13Z</time>
      </trkpt>
      <trkpt lat="43.51628" lon="6.29765">
        <ele>254.1</ele>
        <time>2019-01-20T08:26:22Z</time>
      </trkpt>
      <trkpt lat="43.5163" lon="6.29753">
        <ele>254</ele>
        <time>2019-01-20T08:26:31Z</time>
      </trkpt>
      <trkpt lat="43.51634" lon="6.29741">
        <ele>254</ele>
        <time>2019-01-20T08:26:38Z</time>
      </trkpt>
      <trkpt lat="43.51636" lon="6.29728">
        <ele>254</ele>
        <time>2019-01-20T08:26:45Z</time>
      </trkpt>
      <trkpt lat="43.51638" lon="6.29715">
        <ele>254</ele>
        <time>2019-01-20T08:26:56Z</time>
      </trkpt>
      <trkpt lat="43.5164" lon="6.29701">
        <ele>254</ele>
        <time>2019-01-20T08:27:04Z</time>
      </trkpt>
      <trkpt lat="43.51645" lon="6.29691">
        <ele>254.1</ele>
        <time>2019-01-20T08:27:11Z</time>
      </trkpt>
      <trkpt lat="43.51649" lon="6.29679">
        <ele>254.2</ele>
        <time>2019-01-20T08:27:17Z</time>
      </trkpt>
      <trkpt lat="43.51653" lon="6.29667">
        <ele>254.3</ele>
        <time>2019-01-20T08:27:24Z</time>
      </trkpt>
      <trkpt lat="43.51656" lon="6.29654">
        <ele>254.4</ele>
        <time>2019-01-20T08:27:31Z</time>
      </trkpt>
      <trkpt lat="43.51659" lon="6.29642">
        <ele>254.4</ele>
        <time>2019-01-20T08:27:38Z</time>
      </trkpt>
      <trkpt lat="43.51662" lon="6.29629">
        <ele>254.3</ele>
        <time>2019-01-20T08:27:45Z</time>
      </trkpt>
      <trkpt lat="43.51664" lon="6.29614">
        <ele>254.3</ele>
        <time>2019-01-20T08:27:52Z</time>
      </trkpt>
      <trkpt lat="43.51663" lon="6.29602">
        <ele>254.3</ele>
        <time>2019-01-20T08:28:00Z</time>
      </trkpt>
      <trkpt lat="43.51665" lon="6.29589">
        <ele>254.2</ele>
        <time>2019-01-20T08:28:07Z</time>
      </trkpt>
      <trkpt lat="43.51667" lon="6.29577">
        <ele>254.1</ele>
        <time>2019-01-20T08:28:14Z</time>
      </trkpt>
      <trkpt lat="43.51669" lon="6.29563">
        <ele>253.9</ele>
        <time>2019-01-20T08:28:22Z</time>
      </trkpt>
      <trkpt lat="43.5167" lon="6.29549">
        <ele>253.8</ele>
        <time>2019-01-20T08:28:30Z</time>
      </trkpt>
      <trkpt lat="43.51671" lon="6.29536">
        <ele>253.6</ele>
        <time>2019-01-20T08:28:39Z</time>
      </trkpt>
      <trkpt lat="43.51673" lon="6.29524">
        <ele>253.5</ele>
        <time>2019-01-20T08:28:44Z</time>
      </trkpt>
      <trkpt lat="43.51678" lon="6.29511">
        <ele>253.4</ele>
        <time>2019-01-20T08:28:53Z</time>
      </trkpt>
      <trkpt lat="43.51684" lon="6.295">
        <ele>253.1</ele>
        <time>2019-01-20T08:28:59Z</time>
      </trkpt>
      <trkpt lat="43.51688" lon="6.29488">
        <ele>253</ele>
        <time>2019-01-20T08:29:05Z</time>
      </trkpt>
      <trkpt lat="43.51694" lon="6.29478">
        <ele>252.9</ele>
        <time>2019-01-20T08:29:12Z</time>
      </trkpt>
      <trkpt lat="43.51698" lon="6.29466">
        <ele>252.9</ele>
        <time>2019-01-20T08:29:19Z</time>
      </trkpt>
      <trkpt lat="43.517" lon="6.29454">
        <ele>252.8</ele>
        <time>2019-01-20T08:29:25Z</time>
      </trkpt>
      <trkpt lat="43.51706" lon="6.29443">
        <ele>252.8</ele>
        <time>2019-01-20T08:29:33Z</time>
      </trkpt>
      <trkpt lat="43.51708" lon="6.29431">
        <ele>252.7</ele>
        <time>2019-01-20T08:29:40Z</time>
      </trkpt>
      <trkpt lat="43.51714" lon="6.29419">
        <ele>252.6</ele>
        <time>2019-01-20T08:29:48Z</time>
      </trkpt>
      <trkpt lat="43.5172" lon="6.29409">
        <ele>252.5</ele>
        <time>2019-01-20T08:29:56Z</time>
      </trkpt>
      <trkpt lat="43.51725" lon="6.29398">
        <ele>252.5</ele>
        <time>2019-01-20T08:30:03Z</time>
      </trkpt>
      <trkpt lat="43.51731" lon="6.29387">
        <ele>252.3</ele>
        <time>2019-01-20T08:30:10Z</time>
      </trkpt>
      <trkpt lat="43.51733" lon="6.29374">
        <ele>252.3</ele>
        <time>2019-01-20T08:30:19Z</time>
      </trkpt>
      <trkpt lat="43.51736" lon="6.29361">
        <ele>252.3</ele>
        <time>2019-01-20T08:30:28Z</time>
      </trkpt>
      <trkpt lat="43.51742" lon="6.29349">
        <ele>252.1</ele>
        <time>2019-01-20T08:30:36Z</time>
      </trkpt>
      <trkpt lat="43.51747" lon="6.29339">
        <ele>251.9</ele>
        <time>2019-01-20T08:30:42Z</time>
      </trkpt>
      <trkpt lat="43.51752" lon="6.29328">
        <ele>251.8</ele>
        <time>2019-01-20T08:30:49Z</time>
      </trkpt>
      <trkpt lat="43.51757" lon="6.29316">
        <ele>251.6</ele>
        <time>2019-01-20T08:30:57Z</time>
      </trkpt>
      <trkpt lat="43.5176" lon="6.29302">
        <ele>251.6</ele>
        <time>2019-01-20T08:31:05Z</time>
      </trkpt>
      <trkpt lat="43.51765" lon="6.29292">
        <ele>251.5</ele>
        <time>2019-01-20T08:31:11Z</time>
      </trkpt>
      <trkpt lat="43.51767" lon="6.29279">
        <ele>251.5</ele>
        <time>2019-01-20T08:31:19Z</time>
      </trkpt>
      <trkpt lat="43.5177" lon="6.29266">
        <ele>251.5</ele>
        <time>2019-01-20T08:31:27Z</time>
      </trkpt>
      <trkpt lat="43.51774" lon="6.29255">
        <ele>251.4</ele>
        <time>2019-01-20T08:31:34Z</time>
      </trkpt>
      <trkpt lat="43.51779" lon="6.29244">
        <ele>251.3</ele>
        <time>2019-01-20T08:31:40Z</time>
      </trkpt>
      <trkpt lat="43.51783" lon="6.29231">
        <ele>251.4</ele>
        <time>2019-01-20T08:31:48Z</time>
      </trkpt>
      <trkpt lat="43.51789" lon="6.29221">
        <ele>251.3</ele>
        <time>2019-01-20T08:31:55Z</time>
      </trkpt>
      <trkpt lat="43.51795" lon="6.2921">
        <ele>251.2</ele>
        <time>2019-01-20T08:32:02Z</time>
      </trkpt>
      <trkpt lat="43.51798" lon="6.29198">
        <ele>251.2</ele>
        <time>2019-01-20T08:32:10Z</time>
      </trkpt>
      <trkpt lat="43.51801" lon="6.29185">
        <ele>251.1</ele>
        <time>2019-01-20T08:32:18Z</time>
      </trkpt>
      <trkpt lat="43.51806" lon="6.29174">
        <ele>251</ele>
        <time>2019-01-20T08:32:25Z</time>
      </trkpt>
      <trkpt lat="43.51811" lon="6.29163">
        <ele>251</ele>
        <time>2019-01-20T08:32:32Z</time>
      </trkpt>
      <trkpt lat="43.51816" lon="6.29151">
        <ele>250.9</ele>
        <time>2019-01-20T08:32:40Z</time>
      </trkpt>
      <trkpt lat="43.5182" lon="6.29139">
        <ele>250.6</ele>
        <time>2019-01-20T08:32:48Z</time>
      </trkpt>
      <trkpt lat="43.51826" lon="6.29129">
        <ele>250.6</ele>
        <time>2019-01-20T08:32:55Z</time>
      </trkpt>
      <trkpt lat="43.5183" lon="6.29117">
        <ele>250.5</ele>
        <time>2019-01-20T08:33:02Z</time>
      </trkpt>
      <trkpt lat="43.51836" lon="6.29107">
        <ele>250.4</ele>
        <time>2019-01-20T08:33:09Z</time>
      </trkpt>
      <trkpt lat="43.51841" lon="6.29095">
        <ele>250.3</ele>
        <time>2019-01-20T08:33:17Z</time>
      </trkpt>
      <trkpt lat="43.51848" lon="6.29086">
        <ele>250.1</ele>
        <time>2019-01-20T08:33:25Z</time>
      </trkpt>
      <trkpt lat="43.51854" lon="6.29075">
        <ele>250.1</ele>
        <time>2019-01-20T08:33:33Z</time>
      </trkpt>
      <trkpt lat="43.51861" lon="6.29066">
        <ele>250</ele>
        <time>2019-01-20T08:33:40Z</time>
      </trkpt>
      <trkpt lat="43.51866" lon="6.29054">
        <ele>249.8</ele>
        <time>2019-01-20T08:33:49Z</time>
      </trkpt>
      <trkpt lat="43.51873" lon="6.29045">
        <ele>249.7</ele>
        <time>2019-01-20T08:33:56Z</time>
      </trkpt>
      <trkpt lat="43.51879" lon="6.29034">
        <ele>249.6</ele>
        <time>2019-01-20T08:34:03Z</time>
      </trkpt>
      <trkpt lat="43.51886" lon="6.29025">
        <ele>249.5</ele>
        <time>2019-01-20T08:34:10Z</time>
      </trkpt>
      <trkpt lat="43.5189" lon="6.29013">
        <ele>249.3</ele>
        <time>2019-01-20T08:34:18Z</time>
      </trkpt>
      <trkpt lat="43.51898" lon="6.29004">
        <ele>249.2</ele>
        <time>2019-01-20T08:34:25Z</time>
      </trkpt>
      <trkpt lat="43.51903" lon="6.28993">
        <ele>249.1</ele>
        <time>2019-01-20T08:34:33Z</time>
      </trkpt>
      <trkpt lat="43.51908" lon="6.28981">
        <ele>249.1</ele>
        <time>2019-01-20T08:34:41Z</time>
      </trkpt>
      <trkpt lat="43.51913" lon="6.28969">
        <ele>249</ele>
        <time>2019-01-20T08:34:49Z</time>
      </trkpt>
      <trkpt lat="43.51918" lon="6.28957">
        <ele>249</ele>
        <time>2019-01-20T08:34:58Z</time>
      </trkpt>
      <trkpt lat="43.5192" lon="6.28943">
        <ele>248.9</ele>
        <time>2019-01-20T08:35:07Z</time>
      </trkpt>
      <trkpt lat="43.51921" lon="6.28931">
        <ele>248.9</ele>
        <time>2019-01-20T08:35:15Z</time>
      </trkpt>
      <trkpt lat="43.51923" lon="6.28918">
        <ele>247.1</ele>
        <time>2019-01-20T08:36:05Z</time>
      </trkpt>
      <trkpt lat="43.51929" lon="6.28928">
        <ele>247.6</ele>
        <time>2019-01-20T08:36:35Z</time>
      </trkpt>
      <trkpt lat="43.51934" lon="6.28939">
        <ele>247.4</ele>
        <time>2019-01-20T08:36:45Z</time>
      </trkpt>
      <trkpt lat="43.51944" lon="6.28941">
        <ele>247.3</ele>
        <time>2019-01-20T08:36:55Z</time>
      </trkpt>
      <trkpt lat="43.51953" lon="6.28943">
        <ele>247.9</ele>
        <time>2019-01-20T08:37:06Z</time>
      </trkpt>
      <trkpt lat="43.51962" lon="6.28943">
        <ele>248.4</ele>
        <time>2019-01-20T08:37:14Z</time>
      </trkpt>
      <trkpt lat="43.51971" lon="6.28941">
        <ele>248.8</ele>
        <time>2019-01-20T08:37:20Z</time>
      </trkpt>
      <trkpt lat="43.51981" lon="6.2894">
        <ele>249.2</ele>
        <time>2019-01-20T08:37:28Z</time>
      </trkpt>
      <trkpt lat="43.5199" lon="6.28941">
        <ele>249.8</ele>
        <time>2019-01-20T08:37:39Z</time>
      </trkpt>
      <trkpt lat="43.51999" lon="6.2894">
        <ele>250.3</ele>
        <time>2019-01-20T08:37:48Z</time>
      </trkpt>
      <trkpt lat="43.52008" lon="6.28938">
        <ele>250.5</ele>
        <time>2019-01-20T08:37:55Z</time>
      </trkpt>
      <trkpt lat="43.52016" lon="6.28931">
        <ele>250.8</ele>
        <time>2019-01-20T08:38:03Z</time>
      </trkpt>
      <trkpt lat="43.52025" lon="6.28927">
        <ele>251.2</ele>
        <time>2019-01-20T08:38:10Z</time>
      </trkpt>
      <trkpt lat="43.52035" lon="6.28924">
        <ele>251.8</ele>
        <time>2019-01-20T08:38:19Z</time>
      </trkpt>
      <trkpt lat="43.52044" lon="6.28923">
        <ele>252.4</ele>
        <time>2019-01-20T08:38:29Z</time>
      </trkpt>
      <trkpt lat="43.52053" lon="6.28924">
        <ele>253.4</ele>
        <time>2019-01-20T08:38:46Z</time>
      </trkpt>
      <trkpt lat="43.52058" lon="6.28935">
        <ele>254.2</ele>
        <time>2019-01-20T08:38:56Z</time>
      </trkpt>
      <trkpt lat="43.52066" lon="6.2894">
        <ele>255</ele>
        <time>2019-01-20T08:39:05Z</time>
      </trkpt>
      <trkpt lat="43.52073" lon="6.28949">
        <ele>255.8</ele>
        <time>2019-01-20T08:39:16Z</time>
      </trkpt>
      <trkpt lat="43.52082" lon="6.28955">
        <ele>256.3</ele>
        <time>2019-01-20T08:39:24Z</time>
      </trkpt>
      <trkpt lat="43.52091" lon="6.28958">
        <ele>256.8</ele>
        <time>2019-01-20T08:39:35Z</time>
      </trkpt>
      <trkpt lat="43.52101" lon="6.28962">
        <ele>257.3</ele>
        <time>2019-01-20T08:39:46Z</time>
      </trkpt>
      <trkpt lat="43.52107" lon="6.28971">
        <ele>257.7</ele>
        <time>2019-01-20T08:39:53Z</time>
      </trkpt>
      <trkpt lat="43.52116" lon="6.28978">
        <ele>258.3</ele>
        <time>2019-01-20T08:40:00Z</time>
      </trkpt>
      <trkpt lat="43.52124" lon="6.28984">
        <ele>258.7</ele>
        <time>2019-01-20T08:40:09Z</time>
      </trkpt>
      <trkpt lat="43.52132" lon="6.2899">
        <ele>259</ele>
        <time>2019-01-20T08:40:18Z</time>
      </trkpt>
      <trkpt lat="43.5214" lon="6.28996">
        <ele>259.2</ele>
        <time>2019-01-20T08:40:26Z</time>
      </trkpt>
      <trkpt lat="43.52147" lon="6.29006">
        <ele>259.8</ele>
        <time>2019-01-20T08:40:38Z</time>
      </trkpt>
      <trkpt lat="43.52153" lon="6.29016">
        <ele>260.2</ele>
        <time>2019-01-20T08:40:44Z</time>
      </trkpt>
      <trkpt lat="43.52157" lon="6.29028">
        <ele>260.7</ele>
        <time>2019-01-20T08:40:51Z</time>
      </trkpt>
      <trkpt lat="43.52162" lon="6.29039">
        <ele>261</ele>
        <time>2019-01-20T08:41:00Z</time>
      </trkpt>
      <trkpt lat="43.52169" lon="6.29049">
        <ele>261.3</ele>
        <time>2019-01-20T08:41:07Z</time>
      </trkpt>
      <trkpt lat="43.52174" lon="6.29059">
        <ele>261.7</ele>
        <time>2019-01-20T08:41:14Z</time>
      </trkpt>
      <trkpt lat="43.52179" lon="6.29069">
        <ele>262.2</ele>
        <time>2019-01-20T08:41:24Z</time>
      </trkpt>
      <trkpt lat="43.52184" lon="6.2908">
        <ele>262.9</ele>
        <time>2019-01-20T08:41:34Z</time>
      </trkpt>
      <trkpt lat="43.5219" lon="6.29091">
        <ele>263.6</ele>
        <time>2019-01-20T08:41:44Z</time>
      </trkpt>
      <trkpt lat="43.52194" lon="6.29103">
        <ele>264.2</ele>
        <time>2019-01-20T08:41:55Z</time>
      </trkpt>
      <trkpt lat="43.522" lon="6.29113">
        <ele>265</ele>
        <time>2019-01-20T08:42:05Z</time>
      </trkpt>
      <trkpt lat="43.52207" lon="6.29121">
        <ele>265.5</ele>
        <time>2019-01-20T08:42:13Z</time>
      </trkpt>
      <trkpt lat="43.52216" lon="6.29128">
        <ele>266.3</ele>
        <time>2019-01-20T08:42:21Z</time>
      </trkpt>
      <trkpt lat="43.52224" lon="6.29135">
        <ele>267.1</ele>
        <time>2019-01-20T08:42:31Z</time>
      </trkpt>
      <trkpt lat="43.52234" lon="6.29139">
        <ele>267.9</ele>
        <time>2019-01-20T08:42:45Z</time>
      </trkpt>
      <trkpt lat="43.52242" lon="6.29145">
        <ele>268.3</ele>
        <time>2019-01-20T08:42:58Z</time>
      </trkpt>
      <trkpt lat="43.52249" lon="6.29154">
        <ele>268.9</ele>
        <time>2019-01-20T08:43:14Z</time>
      </trkpt>
      <trkpt lat="43.52258" lon="6.2915">
        <ele>269.5</ele>
        <time>2019-01-20T08:43:33Z</time>
      </trkpt>
      <trkpt lat="43.52262" lon="6.29161">
        <ele>270.7</ele>
        <time>2019-01-20T08:44:28Z</time>
      </trkpt>
      <trkpt lat="43.52271" lon="6.29167">
        <ele>272</ele>
        <time>2019-01-20T08:44:42Z</time>
      </trkpt>
      <trkpt lat="43.52277" lon="6.29176">
        <ele>273.8</ele>
        <time>2019-01-20T08:44:58Z</time>
      </trkpt>
      <trkpt lat="43.52283" lon="6.29187">
        <ele>274.9</ele>
        <time>2019-01-20T08:45:08Z</time>
      </trkpt>
      <trkpt lat="43.52291" lon="6.29193">
        <ele>275.8</ele>
        <time>2019-01-20T08:45:19Z</time>
      </trkpt>
      <trkpt lat="43.523" lon="6.29199">
        <ele>276.6</ele>
        <time>2019-01-20T08:45:30Z</time>
      </trkpt>
      <trkpt lat="43.52309" lon="6.29203">
        <ele>277.8</ele>
        <time>2019-01-20T08:45:42Z</time>
      </trkpt>
      <trkpt lat="43.52319" lon="6.29207">
        <ele>279.2</ele>
        <time>2019-01-20T08:45:54Z</time>
      </trkpt>
      <trkpt lat="43.52328" lon="6.29209">
        <ele>280.8</ele>
        <time>2019-01-20T08:46:09Z</time>
      </trkpt>
      <trkpt lat="43.52338" lon="6.29213">
        <ele>281.8</ele>
        <time>2019-01-20T08:46:20Z</time>
      </trkpt>
      <trkpt lat="43.52347" lon="6.29216">
        <ele>282.9</ele>
        <time>2019-01-20T08:46:30Z</time>
      </trkpt>
      <trkpt lat="43.52355" lon="6.29222">
        <ele>283.8</ele>
        <time>2019-01-20T08:46:41Z</time>
      </trkpt>
      <trkpt lat="43.52362" lon="6.29231">
        <ele>284.3</ele>
        <time>2019-01-20T08:46:51Z</time>
      </trkpt>
      <trkpt lat="43.52369" lon="6.2924">
        <ele>284.8</ele>
        <time>2019-01-20T08:47:00Z</time>
      </trkpt>
      <trkpt lat="43.52375" lon="6.2925">
        <ele>285.3</ele>
        <time>2019-01-20T08:47:09Z</time>
      </trkpt>
      <trkpt lat="43.52378" lon="6.29261">
        <ele>285.9</ele>
        <time>2019-01-20T08:47:25Z</time>
      </trkpt>
      <trkpt lat="43.52383" lon="6.29273">
        <ele>286.4</ele>
        <time>2019-01-20T08:47:33Z</time>
      </trkpt>
      <trkpt lat="43.52388" lon="6.29284">
        <ele>287</ele>
        <time>2019-01-20T08:47:43Z</time>
      </trkpt>
      <trkpt lat="43.52392" lon="6.29295">
        <ele>287.5</ele>
        <time>2019-01-20T08:47:50Z</time>
      </trkpt>
      <trkpt lat="43.52398" lon="6.29305">
        <ele>288.7</ele>
        <time>2019-01-20T08:48:01Z</time>
      </trkpt>
      <trkpt lat="43.52404" lon="6.29315">
        <ele>289.2</ele>
        <time>2019-01-20T08:48:09Z</time>
      </trkpt>
      <trkpt lat="43.52412" lon="6.29325">
        <ele>290.2</ele>
        <time>2019-01-20T08:48:18Z</time>
      </trkpt>
      <trkpt lat="43.52417" lon="6.29335">
        <ele>291</ele>
        <time>2019-01-20T08:48:28Z</time>
      </trkpt>
      <trkpt lat="43.52416" lon="6.29348">
        <ele>291.9</ele>
        <time>2019-01-20T08:48:48Z</time>
      </trkpt>
      <trkpt lat="43.52407" lon="6.2935">
        <ele>291.9</ele>
        <time>2019-01-20T08:48:57Z</time>
      </trkpt>
      <trkpt lat="43.52405" lon="6.29363">
        <ele>292</ele>
        <time>2019-01-20T08:49:07Z</time>
      </trkpt>
      <trkpt lat="43.52409" lon="6.29376">
        <ele>292.5</ele>
        <time>2019-01-20T08:49:21Z</time>
      </trkpt>
      <trkpt lat="43.52411" lon="6.29389">
        <ele>293.2</ele>
        <time>2019-01-20T08:49:30Z</time>
      </trkpt>
      <trkpt lat="43.52412" lon="6.29401">
        <ele>293.6</ele>
        <time>2019-01-20T08:49:38Z</time>
      </trkpt>
      <trkpt lat="43.52417" lon="6.29413">
        <ele>293.9</ele>
        <time>2019-01-20T08:49:48Z</time>
      </trkpt>
      <trkpt lat="43.5242" lon="6.29425">
        <ele>294.5</ele>
        <time>2019-01-20T08:49:58Z</time>
      </trkpt>
      <trkpt lat="43.52425" lon="6.29437">
        <ele>294.8</ele>
        <time>2019-01-20T08:50:06Z</time>
      </trkpt>
      <trkpt lat="43.5243" lon="6.29447">
        <ele>295.4</ele>
        <time>2019-01-20T08:50:13Z</time>
      </trkpt>
      <trkpt lat="43.52432" lon="6.29459">
        <ele>296.3</ele>
        <time>2019-01-20T08:50:27Z</time>
      </trkpt>
      <trkpt lat="43.52431" lon="6.29472">
        <ele>297.2</ele>
        <time>2019-01-20T08:50:34Z</time>
      </trkpt>
      <trkpt lat="43.52428" lon="6.29485">
        <ele>298.1</ele>
        <time>2019-01-20T08:50:45Z</time>
      </trkpt>
      <trkpt lat="43.5243" lon="6.29498">
        <ele>299.2</ele>
        <time>2019-01-20T08:50:59Z</time>
      </trkpt>
      <trkpt lat="43.52432" lon="6.29511">
        <ele>300.1</ele>
        <time>2019-01-20T08:51:09Z</time>
      </trkpt>
      <trkpt lat="43.52435" lon="6.29524">
        <ele>301.2</ele>
        <time>2019-01-20T08:51:22Z</time>
      </trkpt>
      <trkpt lat="43.52437" lon="6.29536">
        <ele>302.2</ele>
        <time>2019-01-20T08:51:33Z</time>
      </trkpt>
      <trkpt lat="43.52438" lon="6.29548">
        <ele>303.8</ele>
        <time>2019-01-20T08:51:50Z</time>
      </trkpt>
      <trkpt lat="43.52437" lon="6.29561">
        <ele>305.2</ele>
        <time>2019-01-20T08:52:06Z</time>
      </trkpt>
      <trkpt lat="43.52435" lon="6.29574">
        <ele>307.2</ele>
        <time>2019-01-20T08:52:20Z</time>
      </trkpt>
      <trkpt lat="43.52436" lon="6.29587">
        <ele>308.1</ele>
        <time>2019-01-20T08:52:29Z</time>
      </trkpt>
      <trkpt lat="43.52434" lon="6.296">
        <ele>308.8</ele>
        <time>2019-01-20T08:52:37Z</time>
      </trkpt>
      <trkpt lat="43.52434" lon="6.29614">
        <ele>309.8</ele>
        <time>2019-01-20T08:52:48Z</time>
      </trkpt>
      <trkpt lat="43.5243" lon="6.29626">
        <ele>310.4</ele>
        <time>2019-01-20T08:52:55Z</time>
      </trkpt>
      <trkpt lat="43.52432" lon="6.29638">
        <ele>311</ele>
        <time>2019-01-20T08:53:04Z</time>
      </trkpt>
      <trkpt lat="43.5243" lon="6.29651">
        <ele>312.4</ele>
        <time>2019-01-20T08:53:18Z</time>
      </trkpt>
      <trkpt lat="43.5243" lon="6.29663">
        <ele>313.4</ele>
        <time>2019-01-20T08:53:29Z</time>
      </trkpt>
      <trkpt lat="43.5243" lon="6.29676">
        <ele>314.4</ele>
        <time>2019-01-20T08:53:39Z</time>
      </trkpt>
      <trkpt lat="43.5243" lon="6.29688">
        <ele>315.3</ele>
        <time>2019-01-20T08:53:50Z</time>
      </trkpt>
      <trkpt lat="43.52432" lon="6.297">
        <ele>316</ele>
        <time>2019-01-20T08:53:58Z</time>
      </trkpt>
      <trkpt lat="43.52437" lon="6.29711">
        <ele>316.5</ele>
        <time>2019-01-20T08:54:05Z</time>
      </trkpt>
      <trkpt lat="43.52443" lon="6.29721">
        <ele>317</ele>
        <time>2019-01-20T08:54:13Z</time>
      </trkpt>
      <trkpt lat="43.52444" lon="6.29734">
        <ele>317.7</ele>
        <time>2019-01-20T08:55:39Z</time>
      </trkpt>
      <trkpt lat="43.52453" lon="6.29738">
        <ele>316.8</ele>
        <time>2019-01-20T08:57:34Z</time>
      </trkpt>
      <trkpt lat="43.52463" lon="6.29736">
        <ele>316</ele>
        <time>2019-01-20T08:57:48Z</time>
      </trkpt>
      <trkpt lat="43.52471" lon="6.2974">
        <ele>315.7</ele>
        <time>2019-01-20T08:57:59Z</time>
      </trkpt>
      <trkpt lat="43.52481" lon="6.29741">
        <ele>315.5</ele>
        <time>2019-01-20T08:58:07Z</time>
      </trkpt>
      <trkpt lat="43.5249" lon="6.29743">
        <ele>315.3</ele>
        <time>2019-01-20T08:58:18Z</time>
      </trkpt>
      <trkpt lat="43.52499" lon="6.29743">
        <ele>315.8</ele>
        <time>2019-01-20T08:58:29Z</time>
      </trkpt>
      <trkpt lat="43.52508" lon="6.2974">
        <ele>316.3</ele>
        <time>2019-01-20T08:58:39Z</time>
      </trkpt>
      <trkpt lat="43.52517" lon="6.29734">
        <ele>316.9</ele>
        <time>2019-01-20T08:58:48Z</time>
      </trkpt>
      <trkpt lat="43.52526" lon="6.29729">
        <ele>317.6</ele>
        <time>2019-01-20T08:58:59Z</time>
      </trkpt>
      <trkpt lat="43.52535" lon="6.29727">
        <ele>318.2</ele>
        <time>2019-01-20T08:59:13Z</time>
      </trkpt>
      <trkpt lat="43.52543" lon="6.2972">
        <ele>318.6</ele>
        <time>2019-01-20T08:59:22Z</time>
      </trkpt>
      <trkpt lat="43.52551" lon="6.29714">
        <ele>319</ele>
        <time>2019-01-20T08:59:32Z</time>
      </trkpt>
      <trkpt lat="43.5256" lon="6.29715">
        <ele>319.3</ele>
        <time>2019-01-20T08:59:44Z</time>
      </trkpt>
      <trkpt lat="43.52569" lon="6.29719">
        <ele>319.9</ele>
        <time>2019-01-20T08:59:55Z</time>
      </trkpt>
      <trkpt lat="43.52578" lon="6.29719">
        <ele>320.7</ele>
        <time>2019-01-20T09:00:05Z</time>
      </trkpt>
      <trkpt lat="43.52588" lon="6.29722">
        <ele>321.7</ele>
        <time>2019-01-20T09:00:16Z</time>
      </trkpt>
      <trkpt lat="43.52598" lon="6.29724">
        <ele>322.3</ele>
        <time>2019-01-20T09:00:25Z</time>
      </trkpt>
      <trkpt lat="43.52607" lon="6.29724">
        <ele>323.1</ele>
        <time>2019-01-20T09:00:37Z</time>
      </trkpt>
      <trkpt lat="43.52616" lon="6.29727">
        <ele>323.9</ele>
        <time>2019-01-20T09:00:48Z</time>
      </trkpt>
      <trkpt lat="43.52623" lon="6.29735">
        <ele>324.8</ele>
        <time>2019-01-20T09:00:58Z</time>
      </trkpt>
      <trkpt lat="43.52631" lon="6.29742">
        <ele>325.5</ele>
        <time>2019-01-20T09:01:10Z</time>
      </trkpt>
      <trkpt lat="43.52639" lon="6.29748">
        <ele>326.4</ele>
        <time>2019-01-20T09:01:21Z</time>
      </trkpt>
      <trkpt lat="43.52648" lon="6.29753">
        <ele>327.2</ele>
        <time>2019-01-20T09:01:32Z</time>
      </trkpt>
      <trkpt lat="43.52657" lon="6.29756">
        <ele>327.9</ele>
        <time>2019-01-20T09:01:42Z</time>
      </trkpt>
      <trkpt lat="43.52667" lon="6.29756">
        <ele>328.3</ele>
        <time>2019-01-20T09:01:52Z</time>
      </trkpt>
      <trkpt lat="43.52677" lon="6.29758">
        <ele>329</ele>
        <time>2019-01-20T09:02:05Z</time>
      </trkpt>
      <trkpt lat="43.52687" lon="6.29758">
        <ele>329.6</ele>
        <time>2019-01-20T09:02:15Z</time>
      </trkpt>
      <trkpt lat="43.52696" lon="6.2976">
        <ele>330.1</ele>
        <time>2019-01-20T09:02:27Z</time>
      </trkpt>
      <trkpt lat="43.52706" lon="6.29758">
        <ele>330.4</ele>
        <time>2019-01-20T09:02:37Z</time>
      </trkpt>
      <trkpt lat="43.52715" lon="6.29755">
        <ele>330.7</ele>
        <time>2019-01-20T09:02:46Z</time>
      </trkpt>
      <trkpt lat="43.52724" lon="6.29753">
        <ele>331.4</ele>
        <time>2019-01-20T09:03:00Z</time>
      </trkpt>
      <trkpt lat="43.52733" lon="6.29746">
        <ele>332</ele>
        <time>2019-01-20T09:03:09Z</time>
      </trkpt>
      <trkpt lat="43.52743" lon="6.29745">
        <ele>332.6</ele>
        <time>2019-01-20T09:03:21Z</time>
      </trkpt>
      <trkpt lat="43.52753" lon="6.29744">
        <ele>333.6</ele>
        <time>2019-01-20T09:03:34Z</time>
      </trkpt>
      <trkpt lat="43.52763" lon="6.29743">
        <ele>334.1</ele>
        <time>2019-01-20T09:03:43Z</time>
      </trkpt>
      <trkpt lat="43.52773" lon="6.29741">
        <ele>334.7</ele>
        <time>2019-01-20T09:03:52Z</time>
      </trkpt>
      <trkpt lat="43.52782" lon="6.2974">
        <ele>335.3</ele>
        <time>2019-01-20T09:04:01Z</time>
      </trkpt>
      <trkpt lat="43.52791" lon="6.2974">
        <ele>335.7</ele>
        <time>2019-01-20T09:04:11Z</time>
      </trkpt>
      <trkpt lat="43.528" lon="6.29742">
        <ele>336.4</ele>
        <time>2019-01-20T09:04:22Z</time>
      </trkpt>
      <trkpt lat="43.52807" lon="6.2975">
        <ele>336.6</ele>
        <time>2019-01-20T09:04:30Z</time>
      </trkpt>
      <trkpt lat="43.52816" lon="6.29752">
        <ele>336.6</ele>
        <time>2019-01-20T09:04:38Z</time>
      </trkpt>
      <trkpt lat="43.52826" lon="6.29752">
        <ele>336.2</ele>
        <time>2019-01-20T09:04:47Z</time>
      </trkpt>
      <trkpt lat="43.52834" lon="6.29759">
        <ele>335.7</ele>
        <time>2019-01-20T09:04:58Z</time>
      </trkpt>
      <trkpt lat="43.52842" lon="6.29764">
        <ele>335.1</ele>
        <time>2019-01-20T09:05:07Z</time>
      </trkpt>
      <trkpt lat="43.52851" lon="6.29768">
        <ele>334.6</ele>
        <time>2019-01-20T09:05:15Z</time>
      </trkpt>
      <trkpt lat="43.5286" lon="6.29773">
        <ele>333.5</ele>
        <time>2019-01-20T09:05:26Z</time>
      </trkpt>
      <trkpt lat="43.52868" lon="6.2978">
        <ele>332.4</ele>
        <time>2019-01-20T09:05:37Z</time>
      </trkpt>
      <trkpt lat="43.52878" lon="6.29784">
        <ele>331.3</ele>
        <time>2019-01-20T09:05:47Z</time>
      </trkpt>
      <trkpt lat="43.52886" lon="6.29788">
        <ele>330.1</ele>
        <time>2019-01-20T09:05:57Z</time>
      </trkpt>
      <trkpt lat="43.52893" lon="6.29796">
        <ele>329.2</ele>
        <time>2019-01-20T09:06:06Z</time>
      </trkpt>
      <trkpt lat="43.52901" lon="6.29803">
        <ele>328.2</ele>
        <time>2019-01-20T09:06:15Z</time>
      </trkpt>
      <trkpt lat="43.52911" lon="6.29799">
        <ele>327.1</ele>
        <time>2019-01-20T09:06:27Z</time>
      </trkpt>
      <trkpt lat="43.52911" lon="6.29786">
        <ele>325.6</ele>
        <time>2019-01-20T09:07:26Z</time>
      </trkpt>
      <trkpt lat="43.52919" lon="6.29782">
        <ele>325.5</ele>
        <time>2019-01-20T09:07:40Z</time>
      </trkpt>
      <trkpt lat="43.52928" lon="6.2978">
        <ele>325.2</ele>
        <time>2019-01-20T09:07:50Z</time>
      </trkpt>
      <trkpt lat="43.52938" lon="6.29786">
        <ele>324.6</ele>
        <time>2019-01-20T09:08:02Z</time>
      </trkpt>
      <trkpt lat="43.52946" lon="6.29793">
        <ele>324.4</ele>
        <time>2019-01-20T09:08:11Z</time>
      </trkpt>
      <trkpt lat="43.52951" lon="6.29804">
        <ele>324.2</ele>
        <time>2019-01-20T09:08:21Z</time>
      </trkpt>
      <trkpt lat="43.52958" lon="6.29812">
        <ele>324.2</ele>
        <time>2019-01-20T09:08:30Z</time>
      </trkpt>
      <trkpt lat="43.52967" lon="6.29816">
        <ele>324.3</ele>
        <time>2019-01-20T09:08:40Z</time>
      </trkpt>
      <trkpt lat="43.52975" lon="6.29822">
        <ele>324.5</ele>
        <time>2019-01-20T09:08:47Z</time>
      </trkpt>
      <trkpt lat="43.52984" lon="6.29828">
        <ele>324.7</ele>
        <time>2019-01-20T09:08:56Z</time>
      </trkpt>
      <trkpt lat="43.5299" lon="6.29838">
        <ele>324.9</ele>
        <time>2019-01-20T09:09:07Z</time>
      </trkpt>
      <trkpt lat="43.52996" lon="6.29847">
        <ele>325.3</ele>
        <time>2019-01-20T09:09:18Z</time>
      </trkpt>
      <trkpt lat="43.53001" lon="6.29858">
        <ele>326.1</ele>
        <time>2019-01-20T09:09:32Z</time>
      </trkpt>
      <trkpt lat="43.53008" lon="6.29868">
        <ele>326.8</ele>
        <time>2019-01-20T09:09:40Z</time>
      </trkpt>
      <trkpt lat="43.53013" lon="6.29878">
        <ele>327.5</ele>
        <time>2019-01-20T09:09:53Z</time>
      </trkpt>
      <trkpt lat="43.5302" lon="6.29887">
        <ele>327.9</ele>
        <time>2019-01-20T09:10:02Z</time>
      </trkpt>
      <trkpt lat="43.53028" lon="6.29893">
        <ele>328.6</ele>
        <time>2019-01-20T09:10:12Z</time>
      </trkpt>
      <trkpt lat="43.53036" lon="6.29902">
        <ele>329.3</ele>
        <time>2019-01-20T09:10:23Z</time>
      </trkpt>
      <trkpt lat="43.53045" lon="6.29907">
        <ele>330</ele>
        <time>2019-01-20T09:10:33Z</time>
      </trkpt>
      <trkpt lat="43.53053" lon="6.29914">
        <ele>331</ele>
        <time>2019-01-20T09:10:43Z</time>
      </trkpt>
      <trkpt lat="43.5306" lon="6.29924">
        <ele>331.8</ele>
        <time>2019-01-20T09:10:52Z</time>
      </trkpt>
      <trkpt lat="43.53066" lon="6.29933">
        <ele>332.3</ele>
        <time>2019-01-20T09:11:01Z</time>
      </trkpt>
      <trkpt lat="43.53072" lon="6.29942">
        <ele>333.6</ele>
        <time>2019-01-20T09:11:44Z</time>
      </trkpt>
      <trkpt lat="43.53071" lon="6.29956">
        <ele>334.8</ele>
        <time>2019-01-20T09:14:26Z</time>
      </trkpt>
      <trkpt lat="43.53066" lon="6.29966">
        <ele>335.4</ele>
        <time>2019-01-20T09:15:11Z</time>
      </trkpt>
      <trkpt lat="43.53059" lon="6.29976">
        <ele>335.8</ele>
        <time>2019-01-20T09:15:28Z</time>
      </trkpt>
      <trkpt lat="43.53061" lon="6.29989">
        <ele>335.7</ele>
        <time>2019-01-20T09:15:39Z</time>
      </trkpt>
      <trkpt lat="43.53065" lon="6.30001">
        <ele>335.3</ele>
        <time>2019-01-20T09:15:51Z</time>
      </trkpt>
      <trkpt lat="43.53071" lon="6.30012">
        <ele>334.2</ele>
        <time>2019-01-20T09:16:02Z</time>
      </trkpt>
      <trkpt lat="43.53078" lon="6.30022">
        <ele>333.2</ele>
        <time>2019-01-20T09:16:13Z</time>
      </trkpt>
      <trkpt lat="43.53084" lon="6.3003">
        <ele>332.3</ele>
        <time>2019-01-20T09:16:26Z</time>
      </trkpt>
      <trkpt lat="43.5309" lon="6.3004">
        <ele>331.5</ele>
        <time>2019-01-20T09:16:35Z</time>
      </trkpt>
      <trkpt lat="43.53094" lon="6.30052">
        <ele>330.9</ele>
        <time>2019-01-20T09:16:44Z</time>
      </trkpt>
      <trkpt lat="43.53101" lon="6.30062">
        <ele>330.2</ele>
        <time>2019-01-20T09:16:54Z</time>
      </trkpt>
      <trkpt lat="43.53109" lon="6.30068">
        <ele>329.8</ele>
        <time>2019-01-20T09:17:04Z</time>
      </trkpt>
      <trkpt lat="43.53113" lon="6.3008">
        <ele>329.2</ele>
        <time>2019-01-20T09:17:26Z</time>
      </trkpt>
      <trkpt lat="43.53118" lon="6.30091">
        <ele>328.1</ele>
        <time>2019-01-20T09:17:54Z</time>
      </trkpt>
      <trkpt lat="43.53127" lon="6.30093">
        <ele>328.6</ele>
        <time>2019-01-20T09:18:28Z</time>
      </trkpt>
      <trkpt lat="43.53132" lon="6.30105">
        <ele>329.3</ele>
        <time>2019-01-20T09:18:46Z</time>
      </trkpt>
      <trkpt lat="43.53134" lon="6.30117">
        <ele>331.5</ele>
        <time>2019-01-20T09:19:13Z</time>
      </trkpt>
      <trkpt lat="43.53136" lon="6.3013">
        <ele>332.4</ele>
        <time>2019-01-20T09:19:23Z</time>
      </trkpt>
      <trkpt lat="43.5314" lon="6.30142">
        <ele>333.1</ele>
        <time>2019-01-20T09:19:31Z</time>
      </trkpt>
      <trkpt lat="43.53138" lon="6.30154">
        <ele>334.3</ele>
        <time>2019-01-20T09:19:44Z</time>
      </trkpt>
      <trkpt lat="43.53132" lon="6.30164">
        <ele>336</ele>
        <time>2019-01-20T09:19:57Z</time>
      </trkpt>
      <trkpt lat="43.53125" lon="6.30172">
        <ele>337.8</ele>
        <time>2019-01-20T09:20:10Z</time>
      </trkpt>
      <trkpt lat="43.53117" lon="6.30179">
        <ele>339.6</ele>
        <time>2019-01-20T09:20:23Z</time>
      </trkpt>
      <trkpt lat="43.53114" lon="6.30191">
        <ele>340.9</ele>
        <time>2019-01-20T09:20:33Z</time>
      </trkpt>
      <trkpt lat="43.53111" lon="6.30203">
        <ele>342</ele>
        <time>2019-01-20T09:20:41Z</time>
      </trkpt>
      <trkpt lat="43.53106" lon="6.30214">
        <ele>343</ele>
        <time>2019-01-20T09:20:51Z</time>
      </trkpt>
      <trkpt lat="43.53097" lon="6.30218">
        <ele>344</ele>
        <time>2019-01-20T09:21:06Z</time>
      </trkpt>
      <trkpt lat="43.53087" lon="6.30218">
        <ele>344.7</ele>
        <time>2019-01-20T09:21:18Z</time>
      </trkpt>
      <trkpt lat="43.53085" lon="6.30231">
        <ele>346</ele>
        <time>2019-01-20T09:21:30Z</time>
      </trkpt>
      <trkpt lat="43.53081" lon="6.30243">
        <ele>347.2</ele>
        <time>2019-01-20T09:21:39Z</time>
      </trkpt>
      <trkpt lat="43.53075" lon="6.30253">
        <ele>349.7</ele>
        <time>2019-01-20T09:24:58Z</time>
      </trkpt>
      <trkpt lat="43.53066" lon="6.3025">
        <ele>349.8</ele>
        <time>2019-01-20T09:25:09Z</time>
      </trkpt>
      <trkpt lat="43.53056" lon="6.30247">
        <ele>349.9</ele>
        <time>2019-01-20T09:25:18Z</time>
      </trkpt>
      <trkpt lat="43.53048" lon="6.30243">
        <ele>350.3</ele>
        <time>2019-01-20T09:25:28Z</time>
      </trkpt>
      <trkpt lat="43.53039" lon="6.30247">
        <ele>350.5</ele>
        <time>2019-01-20T09:25:36Z</time>
      </trkpt>
      <trkpt lat="43.53029" lon="6.30252">
        <ele>350.9</ele>
        <time>2019-01-20T09:25:47Z</time>
      </trkpt>
      <trkpt lat="43.5302" lon="6.30253">
        <ele>351.2</ele>
        <time>2019-01-20T09:25:56Z</time>
      </trkpt>
      <trkpt lat="43.53012" lon="6.30247">
        <ele>351.3</ele>
        <time>2019-01-20T09:26:08Z</time>
      </trkpt>
      <trkpt lat="43.53003" lon="6.30241">
        <ele>351</ele>
        <time>2019-01-20T09:26:18Z</time>
      </trkpt>
      <trkpt lat="43.52994" lon="6.30243">
        <ele>350.6</ele>
        <time>2019-01-20T09:26:27Z</time>
      </trkpt>
      <trkpt lat="43.52985" lon="6.30244">
        <ele>349.9</ele>
        <time>2019-01-20T09:26:37Z</time>
      </trkpt>
      <trkpt lat="43.52975" lon="6.30246">
        <ele>349.5</ele>
        <time>2019-01-20T09:26:45Z</time>
      </trkpt>
      <trkpt lat="43.52967" lon="6.30252">
        <ele>349</ele>
        <time>2019-01-20T09:26:55Z</time>
      </trkpt>
      <trkpt lat="43.52958" lon="6.30253">
        <ele>348.7</ele>
        <time>2019-01-20T09:27:05Z</time>
      </trkpt>
      <trkpt lat="43.52949" lon="6.3025">
        <ele>348.3</ele>
        <time>2019-01-20T09:27:15Z</time>
      </trkpt>
      <trkpt lat="43.52943" lon="6.3024">
        <ele>348.1</ele>
        <time>2019-01-20T09:27:27Z</time>
      </trkpt>
      <trkpt lat="43.5294" lon="6.30228">
        <ele>348.2</ele>
        <time>2019-01-20T09:27:38Z</time>
      </trkpt>
      <trkpt lat="43.52939" lon="6.30216">
        <ele>348.3</ele>
        <time>2019-01-20T09:27:49Z</time>
      </trkpt>
      <trkpt lat="43.5294" lon="6.30203">
        <ele>348.2</ele>
        <time>2019-01-20T09:27:59Z</time>
      </trkpt>
      <trkpt lat="43.52935" lon="6.30191">
        <ele>347.8</ele>
        <time>2019-01-20T09:28:08Z</time>
      </trkpt>
      <trkpt lat="43.5293" lon="6.30181">
        <ele>347.3</ele>
        <time>2019-01-20T09:28:16Z</time>
      </trkpt>
      <trkpt lat="43.52924" lon="6.30172">
        <ele>346.6</ele>
        <time>2019-01-20T09:28:24Z</time>
      </trkpt>
      <trkpt lat="43.52915" lon="6.30165">
        <ele>345.6</ele>
        <time>2019-01-20T09:28:33Z</time>
      </trkpt>
      <trkpt lat="43.52907" lon="6.30158">
        <ele>344.8</ele>
        <time>2019-01-20T09:28:41Z</time>
      </trkpt>
      <trkpt lat="43.529" lon="6.3015">
        <ele>343.2</ele>
        <time>2019-01-20T09:28:53Z</time>
      </trkpt>
      <trkpt lat="43.52892" lon="6.30144">
        <ele>342.7</ele>
        <time>2019-01-20T09:29:01Z</time>
      </trkpt>
      <trkpt lat="43.52883" lon="6.30137">
        <ele>341.9</ele>
        <time>2019-01-20T09:29:10Z</time>
      </trkpt>
      <trkpt lat="43.52876" lon="6.30129">
        <ele>340.6</ele>
        <time>2019-01-20T09:29:48Z</time>
      </trkpt>
      <trkpt lat="43.52867" lon="6.30124">
        <ele>340</ele>
        <time>2019-01-20T09:29:57Z</time>
      </trkpt>
      <trkpt lat="43.52858" lon="6.30119">
        <ele>339.3</ele>
        <time>2019-01-20T09:30:06Z</time>
      </trkpt>
      <trkpt lat="43.5285" lon="6.30112">
        <ele>338.5</ele>
        <time>2019-01-20T09:30:15Z</time>
      </trkpt>
      <trkpt lat="43.52842" lon="6.30106">
        <ele>337.8</ele>
        <time>2019-01-20T09:30:24Z</time>
      </trkpt>
      <trkpt lat="43.52833" lon="6.30103">
        <ele>337.3</ele>
        <time>2019-01-20T09:30:33Z</time>
      </trkpt>
      <trkpt lat="43.52823" lon="6.30102">
        <ele>336.7</ele>
        <time>2019-01-20T09:30:42Z</time>
      </trkpt>
      <trkpt lat="43.52814" lon="6.301">
        <ele>335.6</ele>
        <time>2019-01-20T09:30:52Z</time>
      </trkpt>
      <trkpt lat="43.52805" lon="6.30098">
        <ele>334.3</ele>
        <time>2019-01-20T09:31:07Z</time>
      </trkpt>
      <trkpt lat="43.52795" lon="6.30096">
        <ele>332.2</ele>
        <time>2019-01-20T09:33:28Z</time>
      </trkpt>
      <trkpt lat="43.52787" lon="6.30089">
        <ele>331.8</ele>
        <time>2019-01-20T09:33:38Z</time>
      </trkpt>
      <trkpt lat="43.52782" lon="6.30079">
        <ele>331.5</ele>
        <time>2019-01-20T09:33:48Z</time>
      </trkpt>
      <trkpt lat="43.5278" lon="6.30066">
        <ele>331.3</ele>
        <time>2019-01-20T09:33:58Z</time>
      </trkpt>
      <trkpt lat="43.52777" lon="6.30054">
        <ele>331.1</ele>
        <time>2019-01-20T09:34:09Z</time>
      </trkpt>
      <trkpt lat="43.52772" lon="6.30042">
        <ele>330.8</ele>
        <time>2019-01-20T09:34:19Z</time>
      </trkpt>
      <trkpt lat="43.52765" lon="6.30033">
        <ele>330.3</ele>
        <time>2019-01-20T09:34:29Z</time>
      </trkpt>
      <trkpt lat="43.52756" lon="6.30027">
        <ele>329.4</ele>
        <time>2019-01-20T09:34:40Z</time>
      </trkpt>
      <trkpt lat="43.52747" lon="6.30022">
        <ele>328.7</ele>
        <time>2019-01-20T09:34:48Z</time>
      </trkpt>
      <trkpt lat="43.52738" lon="6.30019">
        <ele>328.2</ele>
        <time>2019-01-20T09:34:56Z</time>
      </trkpt>
      <trkpt lat="43.52731" lon="6.30012">
        <ele>327.8</ele>
        <time>2019-01-20T09:35:03Z</time>
      </trkpt>
      <trkpt lat="43.52722" lon="6.30007">
        <ele>327.3</ele>
        <time>2019-01-20T09:35:12Z</time>
      </trkpt>
      <trkpt lat="43.52714" lon="6.30001">
        <ele>327</ele>
        <time>2019-01-20T09:35:21Z</time>
      </trkpt>
      <trkpt lat="43.52706" lon="6.29994">
        <ele>326.3</ele>
        <time>2019-01-20T09:35:30Z</time>
      </trkpt>
      <trkpt lat="43.52697" lon="6.29986">
        <ele>325.7</ele>
        <time>2019-01-20T09:35:38Z</time>
      </trkpt>
      <trkpt lat="43.52688" lon="6.29981">
        <ele>324.9</ele>
        <time>2019-01-20T09:35:47Z</time>
      </trkpt>
      <trkpt lat="43.52678" lon="6.29977">
        <ele>324.2</ele>
        <time>2019-01-20T09:35:54Z</time>
      </trkpt>
      <trkpt lat="43.52668" lon="6.29975">
        <ele>323.7</ele>
        <time>2019-01-20T09:36:01Z</time>
      </trkpt>
      <trkpt lat="43.52659" lon="6.29975">
        <ele>322.8</ele>
        <time>2019-01-20T09:36:10Z</time>
      </trkpt>
      <trkpt lat="43.5265" lon="6.29973">
        <ele>321.6</ele>
        <time>2019-01-20T09:36:19Z</time>
      </trkpt>
      <trkpt lat="43.5264" lon="6.29969">
        <ele>320.5</ele>
        <time>2019-01-20T09:36:27Z</time>
      </trkpt>
      <trkpt lat="43.5263" lon="6.29967">
        <ele>319.4</ele>
        <time>2019-01-20T09:36:37Z</time>
      </trkpt>
      <trkpt lat="43.52621" lon="6.29966">
        <ele>318.6</ele>
        <time>2019-01-20T09:36:45Z</time>
      </trkpt>
      <trkpt lat="43.52612" lon="6.29964">
        <ele>317.1</ele>
        <time>2019-01-20T09:36:56Z</time>
      </trkpt>
      <trkpt lat="43.52603" lon="6.29966">
        <ele>316</ele>
        <time>2019-01-20T09:37:03Z</time>
      </trkpt>
      <trkpt lat="43.52593" lon="6.29964">
        <ele>315.1</ele>
        <time>2019-01-20T09:37:11Z</time>
      </trkpt>
      <trkpt lat="43.52584" lon="6.29961">
        <ele>314.1</ele>
        <time>2019-01-20T09:37:19Z</time>
      </trkpt>
      <trkpt lat="43.52574" lon="6.2996">
        <ele>313.2</ele>
        <time>2019-01-20T09:37:29Z</time>
      </trkpt>
      <trkpt lat="43.52565" lon="6.29964">
        <ele>312.4</ele>
        <time>2019-01-20T09:37:39Z</time>
      </trkpt>
      <trkpt lat="43.52556" lon="6.2997">
        <ele>311.9</ele>
        <time>2019-01-20T09:37:50Z</time>
      </trkpt>
      <trkpt lat="43.52548" lon="6.29978">
        <ele>311.8</ele>
        <time>2019-01-20T09:37:57Z</time>
      </trkpt>
      <trkpt lat="43.5254" lon="6.29985">
        <ele>311.6</ele>
        <time>2019-01-20T09:38:03Z</time>
      </trkpt>
      <trkpt lat="43.52532" lon="6.29994">
        <ele>311.6</ele>
        <time>2019-01-20T09:38:12Z</time>
      </trkpt>
      <trkpt lat="43.52526" lon="6.30005">
        <ele>311.5</ele>
        <time>2019-01-20T09:38:20Z</time>
      </trkpt>
      <trkpt lat="43.52519" lon="6.30013">
        <ele>311.3</ele>
        <time>2019-01-20T09:38:28Z</time>
      </trkpt>
      <trkpt lat="43.52515" lon="6.30026">
        <ele>311.4</ele>
        <time>2019-01-20T09:38:38Z</time>
      </trkpt>
      <trkpt lat="43.52512" lon="6.30039">
        <ele>311.9</ele>
        <time>2019-01-20T09:38:46Z</time>
      </trkpt>
      <trkpt lat="43.52512" lon="6.30051">
        <ele>312.6</ele>
        <time>2019-01-20T09:38:55Z</time>
      </trkpt>
      <trkpt lat="43.52513" lon="6.30065">
        <ele>313.3</ele>
        <time>2019-01-20T09:39:05Z</time>
      </trkpt>
      <trkpt lat="43.52515" lon="6.30079">
        <ele>314.1</ele>
        <time>2019-01-20T09:39:13Z</time>
      </trkpt>
      <trkpt lat="43.52519" lon="6.30092">
        <ele>315.2</ele>
        <time>2019-01-20T09:39:25Z</time>
      </trkpt>
      <trkpt lat="43.52522" lon="6.30105">
        <ele>317.1</ele>
        <time>2019-01-20T09:39:37Z</time>
      </trkpt>
      <trkpt lat="43.52527" lon="6.30115">
        <ele>318.5</ele>
        <time>2019-01-20T09:39:47Z</time>
      </trkpt>
      <trkpt lat="43.52529" lon="6.30127">
        <ele>319.5</ele>
        <time>2019-01-20T09:39:59Z</time>
      </trkpt>
      <trkpt lat="43.52528" lon="6.30141">
        <ele>319.3</ele>
        <time>2019-01-20T09:40:07Z</time>
      </trkpt>
      <trkpt lat="43.52527" lon="6.30153">
        <ele>318.6</ele>
        <time>2019-01-20T09:40:17Z</time>
      </trkpt>
      <trkpt lat="43.52526" lon="6.30166">
        <ele>318</ele>
        <time>2019-01-20T09:40:24Z</time>
      </trkpt>
      <trkpt lat="43.52529" lon="6.30179">
        <ele>317.7</ele>
        <time>2019-01-20T09:40:32Z</time>
      </trkpt>
      <trkpt lat="43.52533" lon="6.3019">
        <ele>317.7</ele>
        <time>2019-01-20T09:40:43Z</time>
      </trkpt>
      <trkpt lat="43.52539" lon="6.302">
        <ele>318.1</ele>
        <time>2019-01-20T09:40:52Z</time>
      </trkpt>
      <trkpt lat="43.52541" lon="6.30213">
        <ele>318.6</ele>
        <time>2019-01-20T09:41:03Z</time>
      </trkpt>
      <trkpt lat="43.52545" lon="6.30225">
        <ele>319</ele>
        <time>2019-01-20T09:41:12Z</time>
      </trkpt>
      <trkpt lat="43.52549" lon="6.30237">
        <ele>319.5</ele>
        <time>2019-01-20T09:41:21Z</time>
      </trkpt>
      <trkpt lat="43.52549" lon="6.3025">
        <ele>319.9</ele>
        <time>2019-01-20T09:41:37Z</time>
      </trkpt>
      <trkpt lat="43.52541" lon="6.30242">
        <ele>319.5</ele>
        <time>2019-01-20T09:41:52Z</time>
      </trkpt>
      <trkpt lat="43.52531" lon="6.30242">
        <ele>318.9</ele>
        <time>2019-01-20T09:42:03Z</time>
      </trkpt>
      <trkpt lat="43.52522" lon="6.30239">
        <ele>318.4</ele>
        <time>2019-01-20T09:42:11Z</time>
      </trkpt>
      <trkpt lat="43.52514" lon="6.30243">
        <ele>318</ele>
        <time>2019-01-20T09:42:19Z</time>
      </trkpt>
      <trkpt lat="43.52507" lon="6.30251">
        <ele>317.8</ele>
        <time>2019-01-20T09:42:28Z</time>
      </trkpt>
      <trkpt lat="43.52498" lon="6.30256">
        <ele>318.3</ele>
        <time>2019-01-20T09:42:38Z</time>
      </trkpt>
      <trkpt lat="43.52491" lon="6.30265">
        <ele>319.3</ele>
        <time>2019-01-20T09:42:50Z</time>
      </trkpt>
      <trkpt lat="43.52484" lon="6.30274">
        <ele>320.4</ele>
        <time>2019-01-20T09:43:01Z</time>
      </trkpt>
      <trkpt lat="43.52476" lon="6.30283">
        <ele>321.6</ele>
        <time>2019-01-20T09:43:14Z</time>
      </trkpt>
      <trkpt lat="43.52469" lon="6.30292">
        <ele>323.5</ele>
        <time>2019-01-20T09:43:28Z</time>
      </trkpt>
      <trkpt lat="43.52463" lon="6.30302">
        <ele>324.7</ele>
        <time>2019-01-20T09:43:37Z</time>
      </trkpt>
      <trkpt lat="43.52456" lon="6.30313">
        <ele>326.1</ele>
        <time>2019-01-20T09:43:49Z</time>
      </trkpt>
      <trkpt lat="43.52451" lon="6.30324">
        <ele>327</ele>
        <time>2019-01-20T09:43:58Z</time>
      </trkpt>
      <trkpt lat="43.52444" lon="6.30332">
        <ele>328.3</ele>
        <time>2019-01-20T09:44:11Z</time>
      </trkpt>
      <trkpt lat="43.5244" lon="6.30344">
        <ele>329.3</ele>
        <time>2019-01-20T09:44:46Z</time>
      </trkpt>
      <trkpt lat="43.52436" lon="6.30355">
        <ele>330.1</ele>
        <time>2019-01-20T09:45:46Z</time>
      </trkpt>
      <trkpt lat="43.52428" lon="6.30364">
        <ele>329.4</ele>
        <time>2019-01-20T09:46:43Z</time>
      </trkpt>
      <trkpt lat="43.52424" lon="6.30375">
        <ele>328.5</ele>
        <time>2019-01-20T09:46:52Z</time>
      </trkpt>
      <trkpt lat="43.52421" lon="6.30387">
        <ele>326.9</ele>
        <time>2019-01-20T09:47:05Z</time>
      </trkpt>
      <trkpt lat="43.52416" lon="6.30398">
        <ele>324.7</ele>
        <time>2019-01-20T09:47:18Z</time>
      </trkpt>
      <trkpt lat="43.52408" lon="6.30406">
        <ele>321.8</ele>
        <time>2019-01-20T09:47:36Z</time>
      </trkpt>
      <trkpt lat="43.52401" lon="6.30413">
        <ele>320.5</ele>
        <time>2019-01-20T09:47:46Z</time>
      </trkpt>
      <trkpt lat="43.52395" lon="6.30423">
        <ele>317.8</ele>
        <time>2019-01-20T09:48:00Z</time>
      </trkpt>
      <trkpt lat="43.52387" lon="6.30431">
        <ele>316</ele>
        <time>2019-01-20T09:48:10Z</time>
      </trkpt>
      <trkpt lat="43.52385" lon="6.30444">
        <ele>314.9</ele>
        <time>2019-01-20T09:48:18Z</time>
      </trkpt>
      <trkpt lat="43.52382" lon="6.30458">
        <ele>313.5</ele>
        <time>2019-01-20T09:48:30Z</time>
      </trkpt>
      <trkpt lat="43.5238" lon="6.3047">
        <ele>312.8</ele>
        <time>2019-01-20T09:48:37Z</time>
      </trkpt>
      <trkpt lat="43.52378" lon="6.30484">
        <ele>312.1</ele>
        <time>2019-01-20T09:48:45Z</time>
      </trkpt>
      <trkpt lat="43.5238" lon="6.30496">
        <ele>311.6</ele>
        <time>2019-01-20T09:48:55Z</time>
      </trkpt>
      <trkpt lat="43.5238" lon="6.30509">
        <ele>311.4</ele>
        <time>2019-01-20T09:49:03Z</time>
      </trkpt>
      <trkpt lat="43.52383" lon="6.30522">
        <ele>311.5</ele>
        <time>2019-01-20T09:49:11Z</time>
      </trkpt>
      <trkpt lat="43.52388" lon="6.30534">
        <ele>311.5</ele>
        <time>2019-01-20T09:49:19Z</time>
      </trkpt>
      <trkpt lat="43.52391" lon="6.30546">
        <ele>312.3</ele>
        <time>2019-01-20T09:49:31Z</time>
      </trkpt>
      <trkpt lat="43.52384" lon="6.30553">
        <ele>312.7</ele>
        <time>2019-01-20T09:49:41Z</time>
      </trkpt>
      <trkpt lat="43.52378" lon="6.30563">
        <ele>313</ele>
        <time>2019-01-20T09:49:53Z</time>
      </trkpt>
      <trkpt lat="43.52371" lon="6.30571">
        <ele>313.3</ele>
        <time>2019-01-20T09:50:01Z</time>
      </trkpt>
      <trkpt lat="43.52362" lon="6.30576">
        <ele>313.9</ele>
        <time>2019-01-20T09:50:12Z</time>
      </trkpt>
      <trkpt lat="43.52355" lon="6.30585">
        <ele>314.5</ele>
        <time>2019-01-20T09:50:23Z</time>
      </trkpt>
      <trkpt lat="43.52348" lon="6.30594">
        <ele>315.7</ele>
        <time>2019-01-20T09:50:33Z</time>
      </trkpt>
      <trkpt lat="43.52342" lon="6.30605">
        <ele>316.5</ele>
        <time>2019-01-20T09:50:45Z</time>
      </trkpt>
      <trkpt lat="43.52339" lon="6.30617">
        <ele>317.5</ele>
        <time>2019-01-20T09:50:56Z</time>
      </trkpt>
      <trkpt lat="43.52338" lon="6.3063">
        <ele>318</ele>
        <time>2019-01-20T09:51:04Z</time>
      </trkpt>
      <trkpt lat="43.52337" lon="6.30643">
        <ele>318.8</ele>
        <time>2019-01-20T09:51:14Z</time>
      </trkpt>
      <trkpt lat="43.52334" lon="6.30655">
        <ele>319.3</ele>
        <time>2019-01-20T09:51:21Z</time>
      </trkpt>
      <trkpt lat="43.52332" lon="6.30669">
        <ele>319.8</ele>
        <time>2019-01-20T09:51:28Z</time>
      </trkpt>
      <trkpt lat="43.52332" lon="6.30682">
        <ele>320.3</ele>
        <time>2019-01-20T09:51:36Z</time>
      </trkpt>
      <trkpt lat="43.52331" lon="6.30694">
        <ele>320.8</ele>
        <time>2019-01-20T09:51:47Z</time>
      </trkpt>
      <trkpt lat="43.52326" lon="6.30705">
        <ele>321</ele>
        <time>2019-01-20T09:51:58Z</time>
      </trkpt>
      <trkpt lat="43.52322" lon="6.30717">
        <ele>321</ele>
        <time>2019-01-20T09:52:08Z</time>
      </trkpt>
      <trkpt lat="43.52316" lon="6.30727">
        <ele>320.7</ele>
        <time>2019-01-20T09:52:16Z</time>
      </trkpt>
      <trkpt lat="43.5231" lon="6.30738">
        <ele>320.6</ele>
        <time>2019-01-20T09:52:25Z</time>
      </trkpt>
      <trkpt lat="43.52306" lon="6.30749">
        <ele>320.4</ele>
        <time>2019-01-20T09:52:33Z</time>
      </trkpt>
      <trkpt lat="43.52304" lon="6.30763">
        <ele>320.4</ele>
        <time>2019-01-20T09:52:44Z</time>
      </trkpt>
      <trkpt lat="43.52301" lon="6.30775">
        <ele>320.6</ele>
        <time>2019-01-20T09:52:53Z</time>
      </trkpt>
      <trkpt lat="43.52296" lon="6.30788">
        <ele>320.7</ele>
        <time>2019-01-20T09:53:02Z</time>
      </trkpt>
      <trkpt lat="43.52292" lon="6.30798">
        <ele>320.7</ele>
        <time>2019-01-20T09:53:10Z</time>
      </trkpt>
      <trkpt lat="43.52287" lon="6.3081">
        <ele>320.5</ele>
        <time>2019-01-20T09:53:20Z</time>
      </trkpt>
      <trkpt lat="43.5228" lon="6.30819">
        <ele>320.5</ele>
        <time>2019-01-20T09:53:29Z</time>
      </trkpt>
      <trkpt lat="43.52272" lon="6.30827">
        <ele>320.5</ele>
        <time>2019-01-20T09:53:39Z</time>
      </trkpt>
      <trkpt lat="43.52264" lon="6.30834">
        <ele>320.5</ele>
        <time>2019-01-20T09:53:49Z</time>
      </trkpt>
      <trkpt lat="43.52259" lon="6.30845">
        <ele>321.2</ele>
        <time>2019-01-20T09:53:57Z</time>
      </trkpt>
      <trkpt lat="43.52257" lon="6.30858">
        <ele>321.8</ele>
        <time>2019-01-20T09:54:08Z</time>
      </trkpt>
      <trkpt lat="43.52257" lon="6.30871">
        <ele>323.1</ele>
        <time>2019-01-20T09:55:56Z</time>
      </trkpt>
      <trkpt lat="43.52252" lon="6.30883">
        <ele>323.5</ele>
        <time>2019-01-20T09:56:06Z</time>
      </trkpt>
      <trkpt lat="43.52245" lon="6.30893">
        <ele>323.8</ele>
        <time>2019-01-20T09:56:15Z</time>
      </trkpt>
      <trkpt lat="43.5224" lon="6.30904">
        <ele>324.4</ele>
        <time>2019-01-20T09:56:24Z</time>
      </trkpt>
      <trkpt lat="43.52236" lon="6.30915">
        <ele>325.2</ele>
        <time>2019-01-20T09:56:32Z</time>
      </trkpt>
      <trkpt lat="43.52231" lon="6.30926">
        <ele>325.8</ele>
        <time>2019-01-20T09:56:41Z</time>
      </trkpt>
      <trkpt lat="43.52226" lon="6.30938">
        <ele>326.1</ele>
        <time>2019-01-20T09:56:50Z</time>
      </trkpt>
      <trkpt lat="43.52221" lon="6.3095">
        <ele>326.2</ele>
        <time>2019-01-20T09:56:59Z</time>
      </trkpt>
      <trkpt lat="43.52216" lon="6.30961">
        <ele>326.3</ele>
        <time>2019-01-20T09:57:07Z</time>
      </trkpt>
      <trkpt lat="43.5221" lon="6.30971">
        <ele>326.2</ele>
        <time>2019-01-20T09:57:26Z</time>
      </trkpt>
      <trkpt lat="43.52205" lon="6.30982">
        <ele>326.1</ele>
        <time>2019-01-20T09:58:23Z</time>
      </trkpt>
      <trkpt lat="43.52198" lon="6.30992">
        <ele>326.2</ele>
        <time>2019-01-20T09:58:33Z</time>
      </trkpt>
      <trkpt lat="43.52193" lon="6.31002">
        <ele>326.2</ele>
        <time>2019-01-20T09:58:46Z</time>
      </trkpt>
      <trkpt lat="43.52188" lon="6.31014">
        <ele>326</ele>
        <time>2019-01-20T09:58:54Z</time>
      </trkpt>
      <trkpt lat="43.52183" lon="6.31024">
        <ele>325.8</ele>
        <time>2019-01-20T09:59:02Z</time>
      </trkpt>
      <trkpt lat="43.52177" lon="6.31034">
        <ele>325.6</ele>
        <time>2019-01-20T09:59:09Z</time>
      </trkpt>
      <trkpt lat="43.52172" lon="6.31045">
        <ele>325.4</ele>
        <time>2019-01-20T09:59:17Z</time>
      </trkpt>
      <trkpt lat="43.52167" lon="6.31055">
        <ele>325.1</ele>
        <time>2019-01-20T09:59:26Z</time>
      </trkpt>
      <trkpt lat="43.5216" lon="6.31064">
        <ele>324.9</ele>
        <time>2019-01-20T09:59:35Z</time>
      </trkpt>
      <trkpt lat="43.52153" lon="6.31072">
        <ele>324.8</ele>
        <time>2019-01-20T09:59:46Z</time>
      </trkpt>
      <trkpt lat="43.52144" lon="6.31077">
        <ele>324.9</ele>
        <time>2019-01-20T09:59:57Z</time>
      </trkpt>
      <trkpt lat="43.52138" lon="6.31088">
        <ele>325.1</ele>
        <time>2019-01-20T10:00:04Z</time>
      </trkpt>
      <trkpt lat="43.52131" lon="6.31098">
        <ele>325.2</ele>
        <time>2019-01-20T10:00:13Z</time>
      </trkpt>
      <trkpt lat="43.52121" lon="6.31106">
        <ele>325.3</ele>
        <time>2019-01-20T10:00:21Z</time>
      </trkpt>
      <trkpt lat="43.52113" lon="6.31113">
        <ele>325.3</ele>
        <time>2019-01-20T10:00:27Z</time>
      </trkpt>
      <trkpt lat="43.52106" lon="6.31123">
        <ele>325.2</ele>
        <time>2019-01-20T10:00:35Z</time>
      </trkpt>
      <trkpt lat="43.52097" lon="6.31128">
        <ele>324.8</ele>
        <time>2019-01-20T10:00:42Z</time>
      </trkpt>
      <trkpt lat="43.52088" lon="6.31135">
        <ele>324.2</ele>
        <time>2019-01-20T10:00:50Z</time>
      </trkpt>
      <trkpt lat="43.5208" lon="6.3114">
        <ele>323.4</ele>
        <time>2019-01-20T10:01:01Z</time>
      </trkpt>
      <trkpt lat="43.52074" lon="6.3115">
        <ele>322.8</ele>
        <time>2019-01-20T10:01:08Z</time>
      </trkpt>
      <trkpt lat="43.52065" lon="6.31155">
        <ele>321.4</ele>
        <time>2019-01-20T10:01:30Z</time>
      </trkpt>
      <trkpt lat="43.52057" lon="6.31151">
        <ele>320.5</ele>
        <time>2019-01-20T10:01:57Z</time>
      </trkpt>
      <trkpt lat="43.52065" lon="6.31159">
        <ele>320.3</ele>
        <time>2019-01-20T10:02:23Z</time>
      </trkpt>
      <trkpt lat="43.52065" lon="6.31172">
        <ele>320.5</ele>
        <time>2019-01-20T10:02:40Z</time>
      </trkpt>
      <trkpt lat="43.52073" lon="6.31168">
        <ele>320.3</ele>
        <time>2019-01-20T10:04:19Z</time>
      </trkpt>
      <trkpt lat="43.52064" lon="6.31172">
        <ele>320.4</ele>
        <time>2019-01-20T10:04:55Z</time>
      </trkpt>
      <trkpt lat="43.52073" lon="6.31174">
        <ele>320.2</ele>
        <time>2019-01-20T10:09:33Z</time>
      </trkpt>
      <trkpt lat="43.52073" lon="6.31162">
        <ele>320.1</ele>
        <time>2019-01-20T10:10:09Z</time>
      </trkpt>
      <trkpt lat="43.52067" lon="6.31153">
        <ele>320.1</ele>
        <time>2019-01-20T10:10:26Z</time>
      </trkpt>
      <trkpt lat="43.52062" lon="6.31142">
        <ele>320.1</ele>
        <time>2019-01-20T10:10:49Z</time>
      </trkpt>
      <trkpt lat="43.52054" lon="6.31135">
        <ele>319.6</ele>
        <time>2019-01-20T10:11:16Z</time>
      </trkpt>
      <trkpt lat="43.52051" lon="6.31123">
        <ele>318.7</ele>
        <time>2019-01-20T10:11:54Z</time>
      </trkpt>
      <trkpt lat="43.52054" lon="6.31111">
        <ele>318.3</ele>
        <time>2019-01-20T10:12:02Z</time>
      </trkpt>
      <trkpt lat="43.52058" lon="6.311">
        <ele>317.6</ele>
        <time>2019-01-20T10:12:12Z</time>
      </trkpt>
      <trkpt lat="43.52065" lon="6.3109">
        <ele>316.7</ele>
        <time>2019-01-20T10:12:19Z</time>
      </trkpt>
      <trkpt lat="43.52073" lon="6.31085">
        <ele>316</ele>
        <time>2019-01-20T10:12:27Z</time>
      </trkpt>
      <trkpt lat="43.52081" lon="6.31077">
        <ele>315.5</ele>
        <time>2019-01-20T10:12:34Z</time>
      </trkpt>
      <trkpt lat="43.52085" lon="6.31064">
        <ele>315</ele>
        <time>2019-01-20T10:12:45Z</time>
      </trkpt>
      <trkpt lat="43.5208" lon="6.31054">
        <ele>314.7</ele>
        <time>2019-01-20T10:12:53Z</time>
      </trkpt>
      <trkpt lat="43.52071" lon="6.31051">
        <ele>314.6</ele>
        <time>2019-01-20T10:12:59Z</time>
      </trkpt>
      <trkpt lat="43.52063" lon="6.31043">
        <ele>313.8</ele>
        <time>2019-01-20T10:13:09Z</time>
      </trkpt>
      <trkpt lat="43.52055" lon="6.31037">
        <ele>313.1</ele>
        <time>2019-01-20T10:13:17Z</time>
      </trkpt>
      <trkpt lat="43.52047" lon="6.31031">
        <ele>312.3</ele>
        <time>2019-01-20T10:13:28Z</time>
      </trkpt>
      <trkpt lat="43.52038" lon="6.31027">
        <ele>311.8</ele>
        <time>2019-01-20T10:13:35Z</time>
      </trkpt>
      <trkpt lat="43.5203" lon="6.31019">
        <ele>310.7</ele>
        <time>2019-01-20T10:13:47Z</time>
      </trkpt>
      <trkpt lat="43.52022" lon="6.31011">
        <ele>309.5</ele>
        <time>2019-01-20T10:13:57Z</time>
      </trkpt>
      <trkpt lat="43.52014" lon="6.31006">
        <ele>308.5</ele>
        <time>2019-01-20T10:14:06Z</time>
      </trkpt>
      <trkpt lat="43.52004" lon="6.31005">
        <ele>307.6</ele>
        <time>2019-01-20T10:14:15Z</time>
      </trkpt>
      <trkpt lat="43.51994" lon="6.31003">
        <ele>306.8</ele>
        <time>2019-01-20T10:14:24Z</time>
      </trkpt>
      <trkpt lat="43.51986" lon="6.30998">
        <ele>305.4</ele>
        <time>2019-01-20T10:14:34Z</time>
      </trkpt>
      <trkpt lat="43.51976" lon="6.30994">
        <ele>304.6</ele>
        <time>2019-01-20T10:14:43Z</time>
      </trkpt>
      <trkpt lat="43.51966" lon="6.30992">
        <ele>304.1</ele>
        <time>2019-01-20T10:14:52Z</time>
      </trkpt>
      <trkpt lat="43.51956" lon="6.30992">
        <ele>303.3</ele>
        <time>2019-01-20T10:15:01Z</time>
      </trkpt>
      <trkpt lat="43.51948" lon="6.30987">
        <ele>302.4</ele>
        <time>2019-01-20T10:15:11Z</time>
      </trkpt>
      <trkpt lat="43.51938" lon="6.30985">
        <ele>301.6</ele>
        <time>2019-01-20T10:15:23Z</time>
      </trkpt>
      <trkpt lat="43.51929" lon="6.30988">
        <ele>301</ele>
        <time>2019-01-20T10:15:32Z</time>
      </trkpt>
      <trkpt lat="43.5192" lon="6.30989">
        <ele>300.6</ele>
        <time>2019-01-20T10:15:40Z</time>
      </trkpt>
      <trkpt lat="43.51911" lon="6.30991">
        <ele>300.1</ele>
        <time>2019-01-20T10:15:49Z</time>
      </trkpt>
      <trkpt lat="43.51901" lon="6.30994">
        <ele>299.7</ele>
        <time>2019-01-20T10:16:00Z</time>
      </trkpt>
      <trkpt lat="43.51892" lon="6.30998">
        <ele>299.7</ele>
        <time>2019-01-20T10:16:10Z</time>
      </trkpt>
      <trkpt lat="43.51883" lon="6.30997">
        <ele>299.7</ele>
        <time>2019-01-20T10:16:19Z</time>
      </trkpt>
      <trkpt lat="43.51874" lon="6.30999">
        <ele>299.6</ele>
        <time>2019-01-20T10:16:30Z</time>
      </trkpt>
      <trkpt lat="43.51865" lon="6.31004">
        <ele>298.8</ele>
        <time>2019-01-20T10:16:45Z</time>
      </trkpt>
      <trkpt lat="43.51855" lon="6.31003">
        <ele>298.3</ele>
        <time>2019-01-20T10:16:53Z</time>
      </trkpt>
      <trkpt lat="43.51846" lon="6.31002">
        <ele>297.7</ele>
        <time>2019-01-20T10:17:03Z</time>
      </trkpt>
      <trkpt lat="43.51839" lon="6.30992">
        <ele>297.1</ele>
        <time>2019-01-20T10:17:12Z</time>
      </trkpt>
      <trkpt lat="43.51833" lon="6.30983">
        <ele>296.4</ele>
        <time>2019-01-20T10:17:25Z</time>
      </trkpt>
      <trkpt lat="43.51826" lon="6.30973">
        <ele>296</ele>
        <time>2019-01-20T10:17:35Z</time>
      </trkpt>
      <trkpt lat="43.51819" lon="6.30964">
        <ele>295.4</ele>
        <time>2019-01-20T10:17:45Z</time>
      </trkpt>
      <trkpt lat="43.51811" lon="6.30956">
        <ele>294.5</ele>
        <time>2019-01-20T10:17:58Z</time>
      </trkpt>
      <trkpt lat="43.51802" lon="6.30957">
        <ele>294</ele>
        <time>2019-01-20T10:18:08Z</time>
      </trkpt>
      <trkpt lat="43.51793" lon="6.30955">
        <ele>293.5</ele>
        <time>2019-01-20T10:18:29Z</time>
      </trkpt>
      <trkpt lat="43.51786" lon="6.30946">
        <ele>293.8</ele>
        <time>2019-01-20T10:18:46Z</time>
      </trkpt>
      <trkpt lat="43.51781" lon="6.30935">
        <ele>294.9</ele>
        <time>2019-01-20T10:19:00Z</time>
      </trkpt>
      <trkpt lat="43.51775" lon="6.30925">
        <ele>295.3</ele>
        <time>2019-01-20T10:19:08Z</time>
      </trkpt>
      <trkpt lat="43.51771" lon="6.30912">
        <ele>295.9</ele>
        <time>2019-01-20T10:19:18Z</time>
      </trkpt>
      <trkpt lat="43.51767" lon="6.30901">
        <ele>296.1</ele>
        <time>2019-01-20T10:19:28Z</time>
      </trkpt>
      <trkpt lat="43.51768" lon="6.30888">
        <ele>295.8</ele>
        <time>2019-01-20T10:19:37Z</time>
      </trkpt>
      <trkpt lat="43.51762" lon="6.30877">
        <ele>295.7</ele>
        <time>2019-01-20T10:19:47Z</time>
      </trkpt>
      <trkpt lat="43.51764" lon="6.30864">
        <ele>295.6</ele>
        <time>2019-01-20T10:19:55Z</time>
      </trkpt>
      <trkpt lat="43.51762" lon="6.3085">
        <ele>295.6</ele>
        <time>2019-01-20T10:20:04Z</time>
      </trkpt>
      <trkpt lat="43.51759" lon="6.30838">
        <ele>296</ele>
        <time>2019-01-20T10:20:15Z</time>
      </trkpt>
      <trkpt lat="43.51755" lon="6.30827">
        <ele>296.2</ele>
        <time>2019-01-20T10:20:26Z</time>
      </trkpt>
      <trkpt lat="43.51753" lon="6.30813">
        <ele>296.2</ele>
        <time>2019-01-20T10:20:35Z</time>
      </trkpt>
      <trkpt lat="43.51754" lon="6.308">
        <ele>296.2</ele>
        <time>2019-01-20T10:20:44Z</time>
      </trkpt>
      <trkpt lat="43.51752" lon="6.30786">
        <ele>296.1</ele>
        <time>2019-01-20T10:20:53Z</time>
      </trkpt>
      <trkpt lat="43.5175" lon="6.30773">
        <ele>296</ele>
        <time>2019-01-20T10:21:02Z</time>
      </trkpt>
      <trkpt lat="43.51749" lon="6.3076">
        <ele>295.8</ele>
        <time>2019-01-20T10:21:12Z</time>
      </trkpt>
      <trkpt lat="43.51749" lon="6.30746">
        <ele>295.2</ele>
        <time>2019-01-20T10:21:24Z</time>
      </trkpt>
      <trkpt lat="43.51749" lon="6.30733">
        <ele>294.8</ele>
        <time>2019-01-20T10:21:33Z</time>
      </trkpt>
      <trkpt lat="43.5175" lon="6.3072">
        <ele>294.2</ele>
        <time>2019-01-20T10:21:41Z</time>
      </trkpt>
      <trkpt lat="43.51743" lon="6.30711">
        <ele>293.9</ele>
        <time>2019-01-20T10:21:48Z</time>
      </trkpt>
      <trkpt lat="43.51734" lon="6.30706">
        <ele>293.4</ele>
        <time>2019-01-20T10:21:57Z</time>
      </trkpt>
      <trkpt lat="43.51725" lon="6.30701">
        <ele>292.8</ele>
        <time>2019-01-20T10:22:05Z</time>
      </trkpt>
      <trkpt lat="43.51716" lon="6.30695">
        <ele>292.3</ele>
        <time>2019-01-20T10:22:13Z</time>
      </trkpt>
      <trkpt lat="43.51706" lon="6.30691">
        <ele>292.1</ele>
        <time>2019-01-20T10:22:22Z</time>
      </trkpt>
      <trkpt lat="43.51698" lon="6.30686">
        <ele>291.7</ele>
        <time>2019-01-20T10:22:32Z</time>
      </trkpt>
      <trkpt lat="43.51689" lon="6.3068">
        <ele>291.6</ele>
        <time>2019-01-20T10:22:43Z</time>
      </trkpt>
      <trkpt lat="43.51679" lon="6.30675">
        <ele>291.9</ele>
        <time>2019-01-20T10:22:54Z</time>
      </trkpt>
      <trkpt lat="43.5167" lon="6.30669">
        <ele>292</ele>
        <time>2019-01-20T10:23:02Z</time>
      </trkpt>
      <trkpt lat="43.51661" lon="6.30663">
        <ele>292.2</ele>
        <time>2019-01-20T10:23:12Z</time>
      </trkpt>
      <trkpt lat="43.51654" lon="6.30655">
        <ele>292.4</ele>
        <time>2019-01-20T10:23:23Z</time>
      </trkpt>
      <trkpt lat="43.51645" lon="6.3065">
        <ele>292.9</ele>
        <time>2019-01-20T10:23:31Z</time>
      </trkpt>
      <trkpt lat="43.51636" lon="6.30646">
        <ele>293.4</ele>
        <time>2019-01-20T10:23:41Z</time>
      </trkpt>
      <trkpt lat="43.51626" lon="6.30646">
        <ele>293.9</ele>
        <time>2019-01-20T10:23:51Z</time>
      </trkpt>
      <trkpt lat="43.51623" lon="6.30658">
        <ele>294.6</ele>
        <time>2019-01-20T10:24:00Z</time>
      </trkpt>
      <trkpt lat="43.51618" lon="6.30669">
        <ele>294</ele>
        <time>2019-01-20T10:28:05Z</time>
      </trkpt>
      <trkpt lat="43.51627" lon="6.30671">
        <ele>294.6</ele>
        <time>2019-01-20T10:31:01Z</time>
      </trkpt>
      <trkpt lat="43.51618" lon="6.30672">
        <ele>294.3</ele>
        <time>2019-01-20T10:32:29Z</time>
      </trkpt>
      <trkpt lat="43.51619" lon="6.30685">
        <ele>294.9</ele>
        <time>2019-01-20T10:34:43Z</time>
      </trkpt>
      <trkpt lat="43.51627" lon="6.30691">
        <ele>295</ele>
        <time>2019-01-20T10:35:30Z</time>
      </trkpt>
      <trkpt lat="43.51635" lon="6.30686">
        <ele>295</ele>
        <time>2019-01-20T10:35:40Z</time>
      </trkpt>
      <trkpt lat="43.51644" lon="6.30686">
        <ele>294.6</ele>
        <time>2019-01-20T10:35:51Z</time>
      </trkpt>
      <trkpt lat="43.51653" lon="6.30689">
        <ele>294.3</ele>
        <time>2019-01-20T10:36:07Z</time>
      </trkpt>
      <trkpt lat="43.51659" lon="6.30699">
        <ele>293.5</ele>
        <time>2019-01-20T10:36:51Z</time>
      </trkpt>
      <trkpt lat="43.51661" lon="6.30711">
        <ele>294</ele>
        <time>2019-01-20T10:37:02Z</time>
      </trkpt>
      <trkpt lat="43.51666" lon="6.30723">
        <ele>294.4</ele>
        <time>2019-01-20T10:37:13Z</time>
      </trkpt>
      <trkpt lat="43.5167" lon="6.30735">
        <ele>295</ele>
        <time>2019-01-20T10:37:23Z</time>
      </trkpt>
      <trkpt lat="43.51673" lon="6.30746">
        <ele>295.4</ele>
        <time>2019-01-20T10:37:32Z</time>
      </trkpt>
      <trkpt lat="43.51674" lon="6.30759">
        <ele>295.6</ele>
        <time>2019-01-20T10:37:42Z</time>
      </trkpt>
      <trkpt lat="43.51676" lon="6.30771">
        <ele>295.8</ele>
        <time>2019-01-20T10:37:52Z</time>
      </trkpt>
      <trkpt lat="43.51677" lon="6.30783">
        <ele>296.3</ele>
        <time>2019-01-20T10:38:02Z</time>
      </trkpt>
      <trkpt lat="43.51682" lon="6.30795">
        <ele>297</ele>
        <time>2019-01-20T10:38:11Z</time>
      </trkpt>
      <trkpt lat="43.51685" lon="6.30807">
        <ele>297.5</ele>
        <time>2019-01-20T10:38:21Z</time>
      </trkpt>
      <trkpt lat="43.51687" lon="6.30819">
        <ele>297.8</ele>
        <time>2019-01-20T10:38:30Z</time>
      </trkpt>
      <trkpt lat="43.51689" lon="6.30832">
        <ele>298.2</ele>
        <time>2019-01-20T10:38:38Z</time>
      </trkpt>
      <trkpt lat="43.5169" lon="6.30845">
        <ele>298.5</ele>
        <time>2019-01-20T10:38:46Z</time>
      </trkpt>
      <trkpt lat="43.51694" lon="6.30856">
        <ele>299</ele>
        <time>2019-01-20T10:38:55Z</time>
      </trkpt>
      <trkpt lat="43.517" lon="6.30866">
        <ele>299.3</ele>
        <time>2019-01-20T10:39:04Z</time>
      </trkpt>
      <trkpt lat="43.51698" lon="6.30879">
        <ele>299.4</ele>
        <time>2019-01-20T10:39:14Z</time>
      </trkpt>
      <trkpt lat="43.51694" lon="6.30891">
        <ele>299.3</ele>
        <time>2019-01-20T10:39:23Z</time>
      </trkpt>
      <trkpt lat="43.51691" lon="6.30904">
        <ele>299.5</ele>
        <time>2019-01-20T10:39:33Z</time>
      </trkpt>
      <trkpt lat="43.51689" lon="6.30918">
        <ele>299.6</ele>
        <time>2019-01-20T10:39:42Z</time>
      </trkpt>
      <trkpt lat="43.51686" lon="6.3093">
        <ele>299.7</ele>
        <time>2019-01-20T10:39:50Z</time>
      </trkpt>
      <trkpt lat="43.51684" lon="6.30944">
        <ele>299.9</ele>
        <time>2019-01-20T10:40:00Z</time>
      </trkpt>
      <trkpt lat="43.51685" lon="6.30957">
        <ele>299.9</ele>
        <time>2019-01-20T10:40:07Z</time>
      </trkpt>
      <trkpt lat="43.51687" lon="6.30969">
        <ele>299.9</ele>
        <time>2019-01-20T10:40:14Z</time>
      </trkpt>
      <trkpt lat="43.5169" lon="6.30982">
        <ele>299.9</ele>
        <time>2019-01-20T10:40:22Z</time>
      </trkpt>
      <trkpt lat="43.5169" lon="6.30995">
        <ele>299.8</ele>
        <time>2019-01-20T10:40:30Z</time>
      </trkpt>
      <trkpt lat="43.51692" lon="6.31008">
        <ele>299.7</ele>
        <time>2019-01-20T10:40:38Z</time>
      </trkpt>
      <trkpt lat="43.51695" lon="6.3102">
        <ele>299.7</ele>
        <time>2019-01-20T10:40:45Z</time>
      </trkpt>
      <trkpt lat="43.51697" lon="6.31033">
        <ele>299.4</ele>
        <time>2019-01-20T10:40:53Z</time>
      </trkpt>
      <trkpt lat="43.517" lon="6.31045">
        <ele>299.1</ele>
        <time>2019-01-20T10:41:03Z</time>
      </trkpt>
      <trkpt lat="43.51702" lon="6.31058">
        <ele>298.8</ele>
        <time>2019-01-20T10:41:11Z</time>
      </trkpt>
      <trkpt lat="43.51704" lon="6.31071">
        <ele>298.4</ele>
        <time>2019-01-20T10:41:18Z</time>
      </trkpt>
      <trkpt lat="43.51698" lon="6.3108">
        <ele>297.3</ele>
        <time>2019-01-20T10:41:30Z</time>
      </trkpt>
      <trkpt lat="43.51689" lon="6.31083">
        <ele>296.5</ele>
        <time>2019-01-20T10:41:40Z</time>
      </trkpt>
      <trkpt lat="43.51681" lon="6.3109">
        <ele>295.8</ele>
        <time>2019-01-20T10:41:51Z</time>
      </trkpt>
      <trkpt lat="43.51672" lon="6.31096">
        <ele>295.2</ele>
        <time>2019-01-20T10:42:01Z</time>
      </trkpt>
      <trkpt lat="43.51663" lon="6.31102">
        <ele>294.4</ele>
        <time>2019-01-20T10:42:10Z</time>
      </trkpt>
      <trkpt lat="43.51654" lon="6.31107">
        <ele>293.7</ele>
        <time>2019-01-20T10:42:18Z</time>
      </trkpt>
      <trkpt lat="43.51645" lon="6.31109">
        <ele>293.2</ele>
        <time>2019-01-20T10:42:26Z</time>
      </trkpt>
      <trkpt lat="43.51637" lon="6.31115">
        <ele>292.5</ele>
        <time>2019-01-20T10:42:35Z</time>
      </trkpt>
      <trkpt lat="43.51628" lon="6.31121">
        <ele>291.8</ele>
        <time>2019-01-20T10:42:44Z</time>
      </trkpt>
      <trkpt lat="43.5162" lon="6.31127">
        <ele>291.3</ele>
        <time>2019-01-20T10:42:53Z</time>
      </trkpt>
      <trkpt lat="43.51611" lon="6.31131">
        <ele>291</ele>
        <time>2019-01-20T10:43:01Z</time>
      </trkpt>
      <trkpt lat="43.51602" lon="6.31136">
        <ele>290.5</ele>
        <time>2019-01-20T10:43:12Z</time>
      </trkpt>
      <trkpt lat="43.51593" lon="6.31142">
        <ele>290.3</ele>
        <time>2019-01-20T10:43:20Z</time>
      </trkpt>
      <trkpt lat="43.51587" lon="6.31153">
        <ele>290.1</ele>
        <time>2019-01-20T10:43:30Z</time>
      </trkpt>
      <trkpt lat="43.51578" lon="6.31159">
        <ele>289.9</ele>
        <time>2019-01-20T10:43:39Z</time>
      </trkpt>
      <trkpt lat="43.51568" lon="6.31161">
        <ele>289.7</ele>
        <time>2019-01-20T10:43:47Z</time>
      </trkpt>
      <trkpt lat="43.5156" lon="6.31168">
        <ele>289.7</ele>
        <time>2019-01-20T10:43:56Z</time>
      </trkpt>
      <trkpt lat="43.51555" lon="6.3118">
        <ele>289.7</ele>
        <time>2019-01-20T10:44:05Z</time>
      </trkpt>
      <trkpt lat="43.51549" lon="6.31189">
        <ele>289.4</ele>
        <time>2019-01-20T10:44:12Z</time>
      </trkpt>
      <trkpt lat="43.51545" lon="6.31201">
        <ele>288.5</ele>
        <time>2019-01-20T10:44:21Z</time>
      </trkpt>
      <trkpt lat="43.51539" lon="6.31211">
        <ele>287.8</ele>
        <time>2019-01-20T10:44:29Z</time>
      </trkpt>
      <trkpt lat="43.51532" lon="6.31221">
        <ele>287.1</ele>
        <time>2019-01-20T10:44:39Z</time>
      </trkpt>
      <trkpt lat="43.51524" lon="6.3123">
        <ele>286.7</ele>
        <time>2019-01-20T10:44:46Z</time>
      </trkpt>
      <trkpt lat="43.51516" lon="6.31236">
        <ele>286</ele>
        <time>2019-01-20T10:44:54Z</time>
      </trkpt>
      <trkpt lat="43.51506" lon="6.31238">
        <ele>285.8</ele>
        <time>2019-01-20T10:45:00Z</time>
      </trkpt>
      <trkpt lat="43.51499" lon="6.31247">
        <ele>285.6</ele>
        <time>2019-01-20T10:45:09Z</time>
      </trkpt>
      <trkpt lat="43.5149" lon="6.31252">
        <ele>285.2</ele>
        <time>2019-01-20T10:45:19Z</time>
      </trkpt>
      <trkpt lat="43.51481" lon="6.31253">
        <ele>284.7</ele>
        <time>2019-01-20T10:45:27Z</time>
      </trkpt>
      <trkpt lat="43.51471" lon="6.31253">
        <ele>284.2</ele>
        <time>2019-01-20T10:45:36Z</time>
      </trkpt>
      <trkpt lat="43.51462" lon="6.31251">
        <ele>283.4</ele>
        <time>2019-01-20T10:45:57Z</time>
      </trkpt>
      <trkpt lat="43.51461" lon="6.31263">
        <ele>282.9</ele>
        <time>2019-01-20T10:46:17Z</time>
      </trkpt>
      <trkpt lat="43.51453" lon="6.31271">
        <ele>282.1</ele>
        <time>2019-01-20T10:47:49Z</time>
      </trkpt>
      <trkpt lat="43.51451" lon="6.31284">
        <ele>281.9</ele>
        <time>2019-01-20T10:47:56Z</time>
      </trkpt>
      <trkpt lat="43.51456" lon="6.31295">
        <ele>282</ele>
        <time>2019-01-20T10:48:08Z</time>
      </trkpt>
      <trkpt lat="43.51452" lon="6.31307">
        <ele>283</ele>
        <time>2019-01-20T10:48:28Z</time>
      </trkpt>
      <trkpt lat="43.51447" lon="6.31318">
        <ele>283.5</ele>
        <time>2019-01-20T10:48:37Z</time>
      </trkpt>
      <trkpt lat="43.51442" lon="6.3133">
        <ele>284.3</ele>
        <time>2019-01-20T10:48:49Z</time>
      </trkpt>
      <trkpt lat="43.51433" lon="6.3133">
        <ele>284.8</ele>
        <time>2019-01-20T10:48:59Z</time>
      </trkpt>
      <trkpt lat="43.51429" lon="6.31342">
        <ele>285.6</ele>
        <time>2019-01-20T10:49:13Z</time>
      </trkpt>
      <trkpt lat="43.5143" lon="6.31355">
        <ele>286.3</ele>
        <time>2019-01-20T10:49:23Z</time>
      </trkpt>
      <trkpt lat="43.51425" lon="6.31367">
        <ele>287.4</ele>
        <time>2019-01-20T10:49:38Z</time>
      </trkpt>
      <trkpt lat="43.51421" lon="6.31379">
        <ele>288.2</ele>
        <time>2019-01-20T10:49:45Z</time>
      </trkpt>
      <trkpt lat="43.51418" lon="6.31391">
        <ele>289.2</ele>
        <time>2019-01-20T10:49:57Z</time>
      </trkpt>
      <trkpt lat="43.51413" lon="6.31401">
        <ele>289.7</ele>
        <time>2019-01-20T10:50:08Z</time>
      </trkpt>
      <trkpt lat="43.51407" lon="6.31412">
        <ele>290.2</ele>
        <time>2019-01-20T10:50:20Z</time>
      </trkpt>
      <trkpt lat="43.51398" lon="6.31415">
        <ele>290.8</ele>
        <time>2019-01-20T10:50:28Z</time>
      </trkpt>
      <trkpt lat="43.51392" lon="6.31426">
        <ele>291.8</ele>
        <time>2019-01-20T10:50:40Z</time>
      </trkpt>
      <trkpt lat="43.51386" lon="6.31435">
        <ele>292.7</ele>
        <time>2019-01-20T10:50:50Z</time>
      </trkpt>
      <trkpt lat="43.51377" lon="6.31439">
        <ele>293.6</ele>
        <time>2019-01-20T10:51:01Z</time>
      </trkpt>
      <trkpt lat="43.51369" lon="6.31446">
        <ele>294.2</ele>
        <time>2019-01-20T10:51:13Z</time>
      </trkpt>
      <trkpt lat="43.51361" lon="6.31451">
        <ele>294.7</ele>
        <time>2019-01-20T10:51:22Z</time>
      </trkpt>
      <trkpt lat="43.51352" lon="6.31455">
        <ele>295.5</ele>
        <time>2019-01-20T10:51:33Z</time>
      </trkpt>
      <trkpt lat="43.51343" lon="6.31461">
        <ele>296.3</ele>
        <time>2019-01-20T10:51:47Z</time>
      </trkpt>
      <trkpt lat="43.51333" lon="6.31461">
        <ele>297.8</ele>
        <time>2019-01-20T10:52:06Z</time>
      </trkpt>
      <trkpt lat="43.51323" lon="6.31461">
        <ele>299.1</ele>
        <time>2019-01-20T10:52:30Z</time>
      </trkpt>
      <trkpt lat="43.51313" lon="6.31459">
        <ele>300.9</ele>
        <time>2019-01-20T10:52:49Z</time>
      </trkpt>
      <trkpt lat="43.51304" lon="6.31461">
        <ele>302.6</ele>
        <time>2019-01-20T10:53:04Z</time>
      </trkpt>
      <trkpt lat="43.51294" lon="6.31463">
        <ele>303.5</ele>
        <time>2019-01-20T10:53:11Z</time>
      </trkpt>
      <trkpt lat="43.51284" lon="6.31462">
        <ele>304.7</ele>
        <time>2019-01-20T10:53:21Z</time>
      </trkpt>
      <trkpt lat="43.51276" lon="6.31455">
        <ele>305.5</ele>
        <time>2019-01-20T10:53:34Z</time>
      </trkpt>
      <trkpt lat="43.51267" lon="6.31456">
        <ele>306</ele>
        <time>2019-01-20T10:53:46Z</time>
      </trkpt>
      <trkpt lat="43.51258" lon="6.31452">
        <ele>306.4</ele>
        <time>2019-01-20T10:54:21Z</time>
      </trkpt>
      <trkpt lat="43.51256" lon="6.31439">
        <ele>307.3</ele>
        <time>2019-01-20T10:55:16Z</time>
      </trkpt>
      <trkpt lat="43.51256" lon="6.31426">
        <ele>307.5</ele>
        <time>2019-01-20T10:55:28Z</time>
      </trkpt>
      <trkpt lat="43.51257" lon="6.31413">
        <ele>307.9</ele>
        <time>2019-01-20T10:55:40Z</time>
      </trkpt>
      <trkpt lat="43.5125" lon="6.31405">
        <ele>308.2</ele>
        <time>2019-01-20T10:55:50Z</time>
      </trkpt>
      <trkpt lat="43.51248" lon="6.31393">
        <ele>308.4</ele>
        <time>2019-01-20T10:56:07Z</time>
      </trkpt>
      <trkpt lat="43.51245" lon="6.31381">
        <ele>308.5</ele>
        <time>2019-01-20T10:56:16Z</time>
      </trkpt>
      <trkpt lat="43.5124" lon="6.31371">
        <ele>308.5</ele>
        <time>2019-01-20T10:56:27Z</time>
      </trkpt>
      <trkpt lat="43.51239" lon="6.31358">
        <ele>308.4</ele>
        <time>2019-01-20T10:56:37Z</time>
      </trkpt>
      <trkpt lat="43.51237" lon="6.31344">
        <ele>308.3</ele>
        <time>2019-01-20T10:56:47Z</time>
      </trkpt>
      <trkpt lat="43.51232" lon="6.31332">
        <ele>308</ele>
        <time>2019-01-20T10:56:55Z</time>
      </trkpt>
      <trkpt lat="43.51228" lon="6.3132">
        <ele>307.6</ele>
        <time>2019-01-20T10:57:05Z</time>
      </trkpt>
      <trkpt lat="43.51222" lon="6.31309">
        <ele>306.8</ele>
        <time>2019-01-20T10:57:17Z</time>
      </trkpt>
      <trkpt lat="43.5122" lon="6.31296">
        <ele>306</ele>
        <time>2019-01-20T10:57:27Z</time>
      </trkpt>
      <trkpt lat="43.51216" lon="6.31284">
        <ele>305.5</ele>
        <time>2019-01-20T10:57:36Z</time>
      </trkpt>
      <trkpt lat="43.5121" lon="6.31274">
        <ele>305</ele>
        <time>2019-01-20T10:57:48Z</time>
      </trkpt>
      <trkpt lat="43.51203" lon="6.31266">
        <ele>304.2</ele>
        <time>2019-01-20T10:57:59Z</time>
      </trkpt>
      <trkpt lat="43.51199" lon="6.31253">
        <ele>303.6</ele>
        <time>2019-01-20T10:58:07Z</time>
      </trkpt>
      <trkpt lat="43.51193" lon="6.31243">
        <ele>302.9</ele>
        <time>2019-01-20T10:58:17Z</time>
      </trkpt>
      <trkpt lat="43.51195" lon="6.3123">
        <ele>302.6</ele>
        <time>2019-01-20T10:58:25Z</time>
      </trkpt>
      <trkpt lat="43.51192" lon="6.31218">
        <ele>302.3</ele>
        <time>2019-01-20T10:58:38Z</time>
      </trkpt>
      <trkpt lat="43.51188" lon="6.31207">
        <ele>302</ele>
        <time>2019-01-20T10:58:51Z</time>
      </trkpt>
      <trkpt lat="43.51189" lon="6.31194">
        <ele>301.7</ele>
        <time>2019-01-20T10:59:11Z</time>
      </trkpt>
      <trkpt lat="43.51185" lon="6.31183">
        <ele>301.2</ele>
        <time>2019-01-20T10:59:28Z</time>
      </trkpt>
      <trkpt lat="43.51186" lon="6.31169">
        <ele>301.1</ele>
        <time>2019-01-20T10:59:35Z</time>
      </trkpt>
      <trkpt lat="43.51186" lon="6.31156">
        <ele>301</ele>
        <time>2019-01-20T10:59:44Z</time>
      </trkpt>
      <trkpt lat="43.51184" lon="6.31144">
        <ele>300.7</ele>
        <time>2019-01-20T10:59:55Z</time>
      </trkpt>
      <trkpt lat="43.51186" lon="6.31132">
        <ele>300.4</ele>
        <time>2019-01-20T11:00:10Z</time>
      </trkpt>
      <trkpt lat="43.51176" lon="6.31128">
        <ele>300.2</ele>
        <time>2019-01-20T11:00:30Z</time>
      </trkpt>
      <trkpt lat="43.51181" lon="6.31117">
        <ele>299.9</ele>
        <time>2019-01-20T11:02:29Z</time>
      </trkpt>
      <trkpt lat="43.51184" lon="6.31104">
        <ele>300.1</ele>
        <time>2019-01-20T11:02:40Z</time>
      </trkpt>
      <trkpt lat="43.51189" lon="6.31093">
        <ele>300.5</ele>
        <time>2019-01-20T11:02:51Z</time>
      </trkpt>
      <trkpt lat="43.51191" lon="6.3108">
        <ele>301.1</ele>
        <time>2019-01-20T11:03:07Z</time>
      </trkpt>
      <trkpt lat="43.51193" lon="6.31068">
        <ele>301.6</ele>
        <time>2019-01-20T11:03:17Z</time>
      </trkpt>
      <trkpt lat="43.51196" lon="6.31055">
        <ele>302.6</ele>
        <time>2019-01-20T11:03:32Z</time>
      </trkpt>
      <trkpt lat="43.51198" lon="6.31043">
        <ele>303.2</ele>
        <time>2019-01-20T11:03:41Z</time>
      </trkpt>
      <trkpt lat="43.51203" lon="6.3103">
        <ele>303.8</ele>
        <time>2019-01-20T11:03:51Z</time>
      </trkpt>
      <trkpt lat="43.51204" lon="6.31017">
        <ele>304.1</ele>
        <time>2019-01-20T11:03:59Z</time>
      </trkpt>
      <trkpt lat="43.51206" lon="6.31005">
        <ele>304.5</ele>
        <time>2019-01-20T11:04:08Z</time>
      </trkpt>
      <trkpt lat="43.51209" lon="6.30992">
        <ele>305</ele>
        <time>2019-01-20T11:04:18Z</time>
      </trkpt>
      <trkpt lat="43.51213" lon="6.3098">
        <ele>305.9</ele>
        <time>2019-01-20T11:04:31Z</time>
      </trkpt>
      <trkpt lat="43.51221" lon="6.30974">
        <ele>306.2</ele>
        <time>2019-01-20T11:04:41Z</time>
      </trkpt>
      <trkpt lat="43.51229" lon="6.30966">
        <ele>306.6</ele>
        <time>2019-01-20T11:04:48Z</time>
      </trkpt>
      <trkpt lat="43.51236" lon="6.30958">
        <ele>306.7</ele>
        <time>2019-01-20T11:04:53Z</time>
      </trkpt>
      <trkpt lat="43.51241" lon="6.30948">
        <ele>306.8</ele>
        <time>2019-01-20T11:05:00Z</time>
      </trkpt>
      <trkpt lat="43.51239" lon="6.30935">
        <ele>306.8</ele>
        <time>2019-01-20T11:05:08Z</time>
      </trkpt>
      <trkpt lat="43.51236" lon="6.30923">
        <ele>306.6</ele>
        <time>2019-01-20T11:05:15Z</time>
      </trkpt>
      <trkpt lat="43.51231" lon="6.30911">
        <ele>306.7</ele>
        <time>2019-01-20T11:05:22Z</time>
      </trkpt>
      <trkpt lat="43.51224" lon="6.309">
        <ele>306.6</ele>
        <time>2019-01-20T11:05:31Z</time>
      </trkpt>
      <trkpt lat="43.5122" lon="6.30888">
        <ele>306.5</ele>
        <time>2019-01-20T11:05:39Z</time>
      </trkpt>
      <trkpt lat="43.51217" lon="6.30875">
        <ele>306.2</ele>
        <time>2019-01-20T11:05:49Z</time>
      </trkpt>
      <trkpt lat="43.51209" lon="6.30866">
        <ele>306</ele>
        <time>2019-01-20T11:05:56Z</time>
      </trkpt>
      <trkpt lat="43.51203" lon="6.30855">
        <ele>305.9</ele>
        <time>2019-01-20T11:06:04Z</time>
      </trkpt>
      <trkpt lat="43.51198" lon="6.30844">
        <ele>305.6</ele>
        <time>2019-01-20T11:06:12Z</time>
      </trkpt>
      <trkpt lat="43.51193" lon="6.30833">
        <ele>305.3</ele>
        <time>2019-01-20T11:06:22Z</time>
      </trkpt>
      <trkpt lat="43.51188" lon="6.30821">
        <ele>305.2</ele>
        <time>2019-01-20T11:06:29Z</time>
      </trkpt>
      <trkpt lat="43.51185" lon="6.30809">
        <ele>305.1</ele>
        <time>2019-01-20T11:06:36Z</time>
      </trkpt>
      <trkpt lat="43.51185" lon="6.30797">
        <ele>304.7</ele>
        <time>2019-01-20T11:06:46Z</time>
      </trkpt>
      <trkpt lat="43.51185" lon="6.30784">
        <ele>304.4</ele>
        <time>2019-01-20T11:06:55Z</time>
      </trkpt>
      <trkpt lat="43.51186" lon="6.3077">
        <ele>303.5</ele>
        <time>2019-01-20T11:07:07Z</time>
      </trkpt>
      <trkpt lat="43.51183" lon="6.30758">
        <ele>302.5</ele>
        <time>2019-01-20T11:07:15Z</time>
      </trkpt>
      <trkpt lat="43.51175" lon="6.30748">
        <ele>301.6</ele>
        <time>2019-01-20T11:07:22Z</time>
      </trkpt>
      <trkpt lat="43.51169" lon="6.30737">
        <ele>299.8</ele>
        <time>2019-01-20T11:07:33Z</time>
      </trkpt>
      <trkpt lat="43.51161" lon="6.30731">
        <ele>298.6</ele>
        <time>2019-01-20T11:07:42Z</time>
      </trkpt>
      <trkpt lat="43.51152" lon="6.30728">
        <ele>297.8</ele>
        <time>2019-01-20T11:07:53Z</time>
      </trkpt>
      <trkpt lat="43.51143" lon="6.30725">
        <ele>297.5</ele>
        <time>2019-01-20T11:08:02Z</time>
      </trkpt>
      <trkpt lat="43.51133" lon="6.30722">
        <ele>297.5</ele>
        <time>2019-01-20T11:08:10Z</time>
      </trkpt>
      <trkpt lat="43.51125" lon="6.30719">
        <ele>297.4</ele>
        <time>2019-01-20T11:08:20Z</time>
      </trkpt>
      <trkpt lat="43.51116" lon="6.30714">
        <ele>297.2</ele>
        <time>2019-01-20T11:08:27Z</time>
      </trkpt>
      <trkpt lat="43.51108" lon="6.30708">
        <ele>296.3</ele>
        <time>2019-01-20T11:08:38Z</time>
      </trkpt>
      <trkpt lat="43.51104" lon="6.30696">
        <ele>295.3</ele>
        <time>2019-01-20T11:08:48Z</time>
      </trkpt>
      <trkpt lat="43.51105" lon="6.30683">
        <ele>294.3</ele>
        <time>2019-01-20T11:08:58Z</time>
      </trkpt>
      <trkpt lat="43.51101" lon="6.30671">
        <ele>293</ele>
        <time>2019-01-20T11:09:07Z</time>
      </trkpt>
      <trkpt lat="43.51092" lon="6.30665">
        <ele>291.9</ele>
        <time>2019-01-20T11:09:18Z</time>
      </trkpt>
      <trkpt lat="43.51085" lon="6.30657">
        <ele>290</ele>
        <time>2019-01-20T11:09:33Z</time>
      </trkpt>
      <trkpt lat="43.51076" lon="6.30651">
        <ele>288.2</ele>
        <time>2019-01-20T11:09:50Z</time>
      </trkpt>
      <trkpt lat="43.51068" lon="6.30646">
        <ele>287.7</ele>
        <time>2019-01-20T11:10:01Z</time>
      </trkpt>
      <trkpt lat="43.51059" lon="6.30641">
        <ele>286.6</ele>
        <time>2019-01-20T11:10:17Z</time>
      </trkpt>
      <trkpt lat="43.5105" lon="6.30638">
        <ele>285.2</ele>
        <time>2019-01-20T11:10:28Z</time>
      </trkpt>
      <trkpt lat="43.51041" lon="6.30634">
        <ele>282.7</ele>
        <time>2019-01-20T11:10:46Z</time>
      </trkpt>
      <trkpt lat="43.51032" lon="6.30629">
        <ele>280.5</ele>
        <time>2019-01-20T11:11:01Z</time>
      </trkpt>
      <trkpt lat="43.51023" lon="6.30631">
        <ele>278.2</ele>
        <time>2019-01-20T11:11:18Z</time>
      </trkpt>
      <trkpt lat="43.51014" lon="6.30638">
        <ele>277.4</ele>
        <time>2019-01-20T11:11:27Z</time>
      </trkpt>
      <trkpt lat="43.51007" lon="6.30647">
        <ele>276.8</ele>
        <time>2019-01-20T11:11:37Z</time>
      </trkpt>
      <trkpt lat="43.51002" lon="6.30658">
        <ele>276.3</ele>
        <time>2019-01-20T11:11:52Z</time>
      </trkpt>
      <trkpt lat="43.50993" lon="6.30664">
        <ele>276</ele>
        <time>2019-01-20T11:12:05Z</time>
      </trkpt>
      <trkpt lat="43.50985" lon="6.30673">
        <ele>275.5</ele>
        <time>2019-01-20T11:12:14Z</time>
      </trkpt>
      <trkpt lat="43.50978" lon="6.30683">
        <ele>275</ele>
        <time>2019-01-20T11:12:23Z</time>
      </trkpt>
      <trkpt lat="43.50977" lon="6.30695">
        <ele>274.5</ele>
        <time>2019-01-20T11:12:34Z</time>
      </trkpt>
      <trkpt lat="43.50972" lon="6.30706">
        <ele>274.3</ele>
        <time>2019-01-20T11:12:40Z</time>
      </trkpt>
      <trkpt lat="43.50966" lon="6.30717">
        <ele>273.8</ele>
        <time>2019-01-20T11:12:50Z</time>
      </trkpt>
      <trkpt lat="43.50976" lon="6.30717">
        <ele>273</ele>
        <time>2019-01-20T11:15:43Z</time>
      </trkpt>
      <trkpt lat="43.50966" lon="6.30722">
        <ele>272.9</ele>
        <time>2019-01-20T11:15:49Z</time>
      </trkpt>
      <trkpt lat="43.50969" lon="6.30709">
        <ele>273.1</ele>
        <time>2019-01-20T11:16:43Z</time>
      </trkpt>
      <trkpt lat="43.5096" lon="6.30712">
        <ele>272.9</ele>
        <time>2019-01-20T11:17:07Z</time>
      </trkpt>
      <trkpt lat="43.50966" lon="6.30721">
        <ele>272.8</ele>
        <time>2019-01-20T11:17:24Z</time>
      </trkpt>
      <trkpt lat="43.50962" lon="6.30733">
        <ele>273.6</ele>
        <time>2019-01-20T11:18:35Z</time>
      </trkpt>
      <trkpt lat="43.50954" lon="6.30741">
        <ele>271.8</ele>
        <time>2019-01-20T11:18:45Z</time>
      </trkpt>
      <trkpt lat="43.50948" lon="6.30753">
        <ele>269.1</ele>
        <time>2019-01-20T11:18:57Z</time>
      </trkpt>
      <trkpt lat="43.50952" lon="6.30764">
        <ele>266.9</ele>
        <time>2019-01-20T11:19:11Z</time>
      </trkpt>
      <trkpt lat="43.50944" lon="6.30759">
        <ele>266.3</ele>
        <time>2019-01-20T11:19:25Z</time>
      </trkpt>
      <trkpt lat="43.50953" lon="6.30765">
        <ele>266.3</ele>
        <time>2019-01-20T11:19:36Z</time>
      </trkpt>
      <trkpt lat="43.5096" lon="6.30773">
        <ele>267</ele>
        <time>2019-01-20T11:19:42Z</time>
      </trkpt>
      <trkpt lat="43.50968" lon="6.30781">
        <ele>267.8</ele>
        <time>2019-01-20T11:19:48Z</time>
      </trkpt>
      <trkpt lat="43.50974" lon="6.3079">
        <ele>268.6</ele>
        <time>2019-01-20T11:19:58Z</time>
      </trkpt>
      <trkpt lat="43.50984" lon="6.30792">
        <ele>269.1</ele>
        <time>2019-01-20T11:20:04Z</time>
      </trkpt>
      <trkpt lat="43.50993" lon="6.30794">
        <ele>269.7</ele>
        <time>2019-01-20T11:20:10Z</time>
      </trkpt>
      <trkpt lat="43.51002" lon="6.30796">
        <ele>270.2</ele>
        <time>2019-01-20T11:20:15Z</time>
      </trkpt>
      <trkpt lat="43.5101" lon="6.30802">
        <ele>271.8</ele>
        <time>2019-01-20T11:20:26Z</time>
      </trkpt>
      <trkpt lat="43.51019" lon="6.30807">
        <ele>272.5</ele>
        <time>2019-01-20T11:20:33Z</time>
      </trkpt>
      <trkpt lat="43.51028" lon="6.30811">
        <ele>272.8</ele>
        <time>2019-01-20T11:20:38Z</time>
      </trkpt>
      <trkpt lat="43.51036" lon="6.30816">
        <ele>273.2</ele>
        <time>2019-01-20T11:20:45Z</time>
      </trkpt>
      <trkpt lat="43.51045" lon="6.30822">
        <ele>274</ele>
        <time>2019-01-20T11:20:54Z</time>
      </trkpt>
      <trkpt lat="43.51052" lon="6.30832">
        <ele>275.1</ele>
        <time>2019-01-20T11:21:05Z</time>
      </trkpt>
      <trkpt lat="43.51057" lon="6.30842">
        <ele>276.3</ele>
        <time>2019-01-20T11:21:14Z</time>
      </trkpt>
      <trkpt lat="43.51061" lon="6.30854">
        <ele>277.5</ele>
        <time>2019-01-20T11:21:24Z</time>
      </trkpt>
      <trkpt lat="43.51066" lon="6.30865">
        <ele>278.4</ele>
        <time>2019-01-20T11:21:33Z</time>
      </trkpt>
      <trkpt lat="43.51065" lon="6.30878">
        <ele>279.2</ele>
        <time>2019-01-20T11:21:42Z</time>
      </trkpt>
      <trkpt lat="43.5106" lon="6.3089">
        <ele>280</ele>
        <time>2019-01-20T11:21:52Z</time>
      </trkpt>
      <trkpt lat="43.5106" lon="6.30903">
        <ele>280.4</ele>
        <time>2019-01-20T11:22:01Z</time>
      </trkpt>
      <trkpt lat="43.51055" lon="6.30914">
        <ele>280.9</ele>
        <time>2019-01-20T11:22:11Z</time>
      </trkpt>
      <trkpt lat="43.51051" lon="6.30925">
        <ele>281.7</ele>
        <time>2019-01-20T11:22:25Z</time>
      </trkpt>
      <trkpt lat="43.5105" lon="6.30938">
        <ele>282.6</ele>
        <time>2019-01-20T11:22:36Z</time>
      </trkpt>
      <trkpt lat="43.51049" lon="6.30952">
        <ele>283</ele>
        <time>2019-01-20T11:22:45Z</time>
      </trkpt>
      <trkpt lat="43.51051" lon="6.30965">
        <ele>283.4</ele>
        <time>2019-01-20T11:22:56Z</time>
      </trkpt>
      <trkpt lat="43.51058" lon="6.30975">
        <ele>283.9</ele>
        <time>2019-01-20T11:23:05Z</time>
      </trkpt>
      <trkpt lat="43.51062" lon="6.30987">
        <ele>284.9</ele>
        <time>2019-01-20T11:23:18Z</time>
      </trkpt>
      <trkpt lat="43.51056" lon="6.30998">
        <ele>286.7</ele>
        <time>2019-01-20T11:23:38Z</time>
      </trkpt>
      <trkpt lat="43.51051" lon="6.3101">
        <ele>287.3</ele>
        <time>2019-01-20T11:23:49Z</time>
      </trkpt>
      <trkpt lat="43.51052" lon="6.30997">
        <ele>287.2</ele>
        <time>2019-01-20T11:24:21Z</time>
      </trkpt>
      <trkpt lat="43.51057" lon="6.31006">
        <ele>286.8</ele>
        <time>2019-01-20T11:24:44Z</time>
      </trkpt>
      <trkpt lat="43.51056" lon="6.30993">
        <ele>287.3</ele>
        <time>2019-01-20T11:25:15Z</time>
      </trkpt>
      <trkpt lat="43.51053" lon="6.30981">
        <ele>287.5</ele>
        <time>2019-01-20T11:25:27Z</time>
      </trkpt>
      <trkpt lat="43.51045" lon="6.30973">
        <ele>287.6</ele>
        <time>2019-01-20T11:25:35Z</time>
      </trkpt>
      <trkpt lat="43.51038" lon="6.30964">
        <ele>288.1</ele>
        <time>2019-01-20T11:25:46Z</time>
      </trkpt>
      <trkpt lat="43.51034" lon="6.30976">
        <ele>289.3</ele>
        <time>2019-01-20T11:26:10Z</time>
      </trkpt>
      <trkpt lat="43.51033" lon="6.3099">
        <ele>289.6</ele>
        <time>2019-01-20T11:26:21Z</time>
      </trkpt>
      <trkpt lat="43.5103" lon="6.31002">
        <ele>289.9</ele>
        <time>2019-01-20T11:26:30Z</time>
      </trkpt>
      <trkpt lat="43.51032" lon="6.31014">
        <ele>290.3</ele>
        <time>2019-01-20T11:26:39Z</time>
      </trkpt>
      <trkpt lat="43.51027" lon="6.31025">
        <ele>290.7</ele>
        <time>2019-01-20T11:26:48Z</time>
      </trkpt>
      <trkpt lat="43.51023" lon="6.31037">
        <ele>291.8</ele>
        <time>2019-01-20T11:26:57Z</time>
      </trkpt>
      <trkpt lat="43.51016" lon="6.31046">
        <ele>292.6</ele>
        <time>2019-01-20T11:27:08Z</time>
      </trkpt>
      <trkpt lat="43.51012" lon="6.31058">
        <ele>293</ele>
        <time>2019-01-20T11:27:19Z</time>
      </trkpt>
      <trkpt lat="43.51011" lon="6.3107">
        <ele>293.7</ele>
        <time>2019-01-20T11:27:28Z</time>
      </trkpt>
      <trkpt lat="43.51006" lon="6.3108">
        <ele>294.3</ele>
        <time>2019-01-20T11:27:36Z</time>
      </trkpt>
      <trkpt lat="43.51007" lon="6.31093">
        <ele>294.6</ele>
        <time>2019-01-20T11:27:44Z</time>
      </trkpt>
      <trkpt lat="43.5101" lon="6.31106">
        <ele>295</ele>
        <time>2019-01-20T11:27:51Z</time>
      </trkpt>
      <trkpt lat="43.51013" lon="6.31118">
        <ele>295.3</ele>
        <time>2019-01-20T11:27:59Z</time>
      </trkpt>
      <trkpt lat="43.51017" lon="6.31129">
        <ele>295.6</ele>
        <time>2019-01-20T11:28:07Z</time>
      </trkpt>
      <trkpt lat="43.5102" lon="6.31142">
        <ele>296.1</ele>
        <time>2019-01-20T11:28:18Z</time>
      </trkpt>
      <trkpt lat="43.51023" lon="6.31156">
        <ele>296.4</ele>
        <time>2019-01-20T11:28:26Z</time>
      </trkpt>
      <trkpt lat="43.51026" lon="6.31168">
        <ele>296.6</ele>
        <time>2019-01-20T11:28:35Z</time>
      </trkpt>
      <trkpt lat="43.51031" lon="6.3118">
        <ele>296.8</ele>
        <time>2019-01-20T11:28:44Z</time>
      </trkpt>
      <trkpt lat="43.51033" lon="6.31192">
        <ele>296.9</ele>
        <time>2019-01-20T11:28:54Z</time>
      </trkpt>
      <trkpt lat="43.51034" lon="6.31206">
        <ele>297</ele>
        <time>2019-01-20T11:29:05Z</time>
      </trkpt>
      <trkpt lat="43.51036" lon="6.31218">
        <ele>296.9</ele>
        <time>2019-01-20T11:29:14Z</time>
      </trkpt>
      <trkpt lat="43.51034" lon="6.31231">
        <ele>296.4</ele>
        <time>2019-01-20T11:29:23Z</time>
      </trkpt>
      <trkpt lat="43.51028" lon="6.31242">
        <ele>296.3</ele>
        <time>2019-01-20T11:29:34Z</time>
      </trkpt>
      <trkpt lat="43.5103" lon="6.31255">
        <ele>296.3</ele>
        <time>2019-01-20T11:29:43Z</time>
      </trkpt>
      <trkpt lat="43.51028" lon="6.31267">
        <ele>296.4</ele>
        <time>2019-01-20T11:29:52Z</time>
      </trkpt>
      <trkpt lat="43.51024" lon="6.31279">
        <ele>296.3</ele>
        <time>2019-01-20T11:30:00Z</time>
      </trkpt>
      <trkpt lat="43.51017" lon="6.31288">
        <ele>296.2</ele>
        <time>2019-01-20T11:30:12Z</time>
      </trkpt>
      <trkpt lat="43.51014" lon="6.313">
        <ele>296.1</ele>
        <time>2019-01-20T11:30:42Z</time>
      </trkpt>
      <trkpt lat="43.51009" lon="6.31311">
        <ele>296.1</ele>
        <time>2019-01-20T11:30:51Z</time>
      </trkpt>
      <trkpt lat="43.51004" lon="6.31323">
        <ele>296.1</ele>
        <time>2019-01-20T11:31:04Z</time>
      </trkpt>
      <trkpt lat="43.51001" lon="6.31335">
        <ele>296.1</ele>
        <time>2019-01-20T11:31:13Z</time>
      </trkpt>
      <trkpt lat="43.50994" lon="6.31345">
        <ele>296.1</ele>
        <time>2019-01-20T11:31:21Z</time>
      </trkpt>
      <trkpt lat="43.50992" lon="6.31359">
        <ele>296.2</ele>
        <time>2019-01-20T11:31:31Z</time>
      </trkpt>
      <trkpt lat="43.50988" lon="6.31371">
        <ele>296.1</ele>
        <time>2019-01-20T11:31:41Z</time>
      </trkpt>
      <trkpt lat="43.50983" lon="6.31383">
        <ele>295.9</ele>
        <time>2019-01-20T11:31:49Z</time>
      </trkpt>
      <trkpt lat="43.50979" lon="6.31394">
        <ele>296</ele>
        <time>2019-01-20T11:31:59Z</time>
      </trkpt>
      <trkpt lat="43.50973" lon="6.31405">
        <ele>296</ele>
        <time>2019-01-20T11:32:09Z</time>
      </trkpt>
      <trkpt lat="43.50968" lon="6.31416">
        <ele>296.1</ele>
        <time>2019-01-20T11:32:17Z</time>
      </trkpt>
      <trkpt lat="43.50962" lon="6.31424">
        <ele>296.4</ele>
        <time>2019-01-20T11:32:25Z</time>
      </trkpt>
      <trkpt lat="43.50957" lon="6.31435">
        <ele>296.4</ele>
        <time>2019-01-20T11:32:35Z</time>
      </trkpt>
      <trkpt lat="43.50948" lon="6.3144">
        <ele>296.4</ele>
        <time>2019-01-20T11:32:43Z</time>
      </trkpt>
      <trkpt lat="43.50947" lon="6.31452">
        <ele>296.4</ele>
        <time>2019-01-20T11:32:54Z</time>
      </trkpt>
      <trkpt lat="43.50951" lon="6.31465">
        <ele>296.6</ele>
        <time>2019-01-20T11:33:16Z</time>
      </trkpt>
      <trkpt lat="43.50956" lon="6.31477">
        <ele>296.8</ele>
        <time>2019-01-20T11:33:26Z</time>
      </trkpt>
      <trkpt lat="43.5096" lon="6.3149">
        <ele>297</ele>
        <time>2019-01-20T11:33:36Z</time>
      </trkpt>
      <trkpt lat="43.50964" lon="6.31502">
        <ele>297</ele>
        <time>2019-01-20T11:33:44Z</time>
      </trkpt>
      <trkpt lat="43.50968" lon="6.31515">
        <ele>297.1</ele>
        <time>2019-01-20T11:33:57Z</time>
      </trkpt>
      <trkpt lat="43.50972" lon="6.31526">
        <ele>297.2</ele>
        <time>2019-01-20T11:34:06Z</time>
      </trkpt>
      <trkpt lat="43.50973" lon="6.3154">
        <ele>297.2</ele>
        <time>2019-01-20T11:34:18Z</time>
      </trkpt>
      <trkpt lat="43.50977" lon="6.31552">
        <ele>297.5</ele>
        <time>2019-01-20T11:34:31Z</time>
      </trkpt>
      <trkpt lat="43.50981" lon="6.31563">
        <ele>297.6</ele>
        <time>2019-01-20T11:34:43Z</time>
      </trkpt>
      <trkpt lat="43.50982" lon="6.31576">
        <ele>297.8</ele>
        <time>2019-01-20T11:34:55Z</time>
      </trkpt>
      <trkpt lat="43.50984" lon="6.31589">
        <ele>298.2</ele>
        <time>2019-01-20T11:35:06Z</time>
      </trkpt>
      <trkpt lat="43.50981" lon="6.31601">
        <ele>298.8</ele>
        <time>2019-01-20T11:35:19Z</time>
      </trkpt>
      <trkpt lat="43.50985" lon="6.31614">
        <ele>299.7</ele>
        <time>2019-01-20T11:35:32Z</time>
      </trkpt>
      <trkpt lat="43.50989" lon="6.31625">
        <ele>300.5</ele>
        <time>2019-01-20T11:35:41Z</time>
      </trkpt>
      <trkpt lat="43.5099" lon="6.31638">
        <ele>301.6</ele>
        <time>2019-01-20T11:35:53Z</time>
      </trkpt>
      <trkpt lat="43.50989" lon="6.3165">
        <ele>302.1</ele>
        <time>2019-01-20T11:36:04Z</time>
      </trkpt>
      <trkpt lat="43.50994" lon="6.31662">
        <ele>302.9</ele>
        <time>2019-01-20T11:36:16Z</time>
      </trkpt>
      <trkpt lat="43.50993" lon="6.31674">
        <ele>303.4</ele>
        <time>2019-01-20T11:36:25Z</time>
      </trkpt>
      <trkpt lat="43.50997" lon="6.31685">
        <ele>303.8</ele>
        <time>2019-01-20T11:36:33Z</time>
      </trkpt>
      <trkpt lat="43.51001" lon="6.31697">
        <ele>304.3</ele>
        <time>2019-01-20T11:36:42Z</time>
      </trkpt>
      <trkpt lat="43.51001" lon="6.31711">
        <ele>305.1</ele>
        <time>2019-01-20T11:36:54Z</time>
      </trkpt>
      <trkpt lat="43.51002" lon="6.31724">
        <ele>305.7</ele>
        <time>2019-01-20T11:37:06Z</time>
      </trkpt>
      <trkpt lat="43.51002" lon="6.31737">
        <ele>306.4</ele>
        <time>2019-01-20T11:37:15Z</time>
      </trkpt>
      <trkpt lat="43.51002" lon="6.3175">
        <ele>307.5</ele>
        <time>2019-01-20T11:37:27Z</time>
      </trkpt>
      <trkpt lat="43.51004" lon="6.31762">
        <ele>308</ele>
        <time>2019-01-20T11:37:36Z</time>
      </trkpt>
      <trkpt lat="43.51003" lon="6.31775">
        <ele>308.2</ele>
        <time>2019-01-20T11:37:46Z</time>
      </trkpt>
      <trkpt lat="43.51002" lon="6.31787">
        <ele>308.5</ele>
        <time>2019-01-20T11:37:55Z</time>
      </trkpt>
      <trkpt lat="43.50999" lon="6.318">
        <ele>309</ele>
        <time>2019-01-20T11:38:04Z</time>
      </trkpt>
      <trkpt lat="43.50998" lon="6.31814">
        <ele>309.3</ele>
        <time>2019-01-20T11:38:11Z</time>
      </trkpt>
      <trkpt lat="43.50999" lon="6.31827">
        <ele>309.5</ele>
        <time>2019-01-20T11:38:19Z</time>
      </trkpt>
      <trkpt lat="43.50996" lon="6.31839">
        <ele>309.9</ele>
        <time>2019-01-20T11:38:29Z</time>
      </trkpt>
      <trkpt lat="43.50997" lon="6.31852">
        <ele>309.9</ele>
        <time>2019-01-20T11:38:38Z</time>
      </trkpt>
      <trkpt lat="43.50998" lon="6.31865">
        <ele>309.9</ele>
        <time>2019-01-20T11:38:48Z</time>
      </trkpt>
      <trkpt lat="43.50993" lon="6.31876">
        <ele>310</ele>
        <time>2019-01-20T11:38:56Z</time>
      </trkpt>
      <trkpt lat="43.50991" lon="6.31888">
        <ele>310</ele>
        <time>2019-01-20T11:39:04Z</time>
      </trkpt>
      <trkpt lat="43.50988" lon="6.31901">
        <ele>310</ele>
        <time>2019-01-20T11:39:12Z</time>
      </trkpt>
      <trkpt lat="43.50982" lon="6.31911">
        <ele>309.8</ele>
        <time>2019-01-20T11:39:19Z</time>
      </trkpt>
      <trkpt lat="43.50984" lon="6.31924">
        <ele>309.4</ele>
        <time>2019-01-20T11:40:42Z</time>
      </trkpt>
      <trkpt lat="43.50988" lon="6.31935">
        <ele>309.4</ele>
        <time>2019-01-20T11:40:52Z</time>
      </trkpt>
      <trkpt lat="43.50993" lon="6.31947">
        <ele>309.3</ele>
        <time>2019-01-20T11:41:03Z</time>
      </trkpt>
      <trkpt lat="43.50994" lon="6.31959">
        <ele>309.2</ele>
        <time>2019-01-20T11:41:10Z</time>
      </trkpt>
      <trkpt lat="43.50999" lon="6.3197">
        <ele>309.1</ele>
        <time>2019-01-20T11:41:20Z</time>
      </trkpt>
      <trkpt lat="43.51003" lon="6.31981">
        <ele>309.1</ele>
        <time>2019-01-20T11:41:27Z</time>
      </trkpt>
      <trkpt lat="43.5101" lon="6.3199">
        <ele>309.3</ele>
        <time>2019-01-20T11:41:36Z</time>
      </trkpt>
      <trkpt lat="43.51016" lon="6.32">
        <ele>309.6</ele>
        <time>2019-01-20T11:41:44Z</time>
      </trkpt>
      <trkpt lat="43.51022" lon="6.3201">
        <ele>309.8</ele>
        <time>2019-01-20T11:41:52Z</time>
      </trkpt>
      <trkpt lat="43.51024" lon="6.32023">
        <ele>310.3</ele>
        <time>2019-01-20T11:42:02Z</time>
      </trkpt>
      <trkpt lat="43.51026" lon="6.32037">
        <ele>310.8</ele>
        <time>2019-01-20T11:42:10Z</time>
      </trkpt>
      <trkpt lat="43.5103" lon="6.32048">
        <ele>311.7</ele>
        <time>2019-01-20T11:42:20Z</time>
      </trkpt>
      <trkpt lat="43.51033" lon="6.3206">
        <ele>312.2</ele>
        <time>2019-01-20T11:42:28Z</time>
      </trkpt>
      <trkpt lat="43.51039" lon="6.32071">
        <ele>312.5</ele>
        <time>2019-01-20T11:42:37Z</time>
      </trkpt>
      <trkpt lat="43.51045" lon="6.32082">
        <ele>312.7</ele>
        <time>2019-01-20T11:42:44Z</time>
      </trkpt>
      <trkpt lat="43.5105" lon="6.32092">
        <ele>312.8</ele>
        <time>2019-01-20T11:42:54Z</time>
      </trkpt>
      <trkpt lat="43.51057" lon="6.321">
        <ele>312.8</ele>
        <time>2019-01-20T11:43:01Z</time>
      </trkpt>
      <trkpt lat="43.51062" lon="6.32111">
        <ele>312.8</ele>
        <time>2019-01-20T11:43:11Z</time>
      </trkpt>
      <trkpt lat="43.51065" lon="6.32123">
        <ele>312.9</ele>
        <time>2019-01-20T11:43:20Z</time>
      </trkpt>
      <trkpt lat="43.51067" lon="6.32136">
        <ele>312.7</ele>
        <time>2019-01-20T11:43:28Z</time>
      </trkpt>
      <trkpt lat="43.51071" lon="6.32148">
        <ele>312.5</ele>
        <time>2019-01-20T11:43:36Z</time>
      </trkpt>
      <trkpt lat="43.51077" lon="6.32158">
        <ele>312.4</ele>
        <time>2019-01-20T11:43:44Z</time>
      </trkpt>
      <trkpt lat="43.51082" lon="6.32169">
        <ele>312.2</ele>
        <time>2019-01-20T11:43:53Z</time>
      </trkpt>
      <trkpt lat="43.5109" lon="6.32179">
        <ele>311.9</ele>
        <time>2019-01-20T11:44:03Z</time>
      </trkpt>
      <trkpt lat="43.51095" lon="6.32189">
        <ele>311</ele>
        <time>2019-01-20T11:44:22Z</time>
      </trkpt>
      <trkpt lat="43.51104" lon="6.32189">
        <ele>310.3</ele>
        <time>2019-01-20T11:44:36Z</time>
      </trkpt>
      <trkpt lat="43.51113" lon="6.32185">
        <ele>310</ele>
        <time>2019-01-20T11:44:43Z</time>
      </trkpt>
      <trkpt lat="43.51122" lon="6.32182">
        <ele>309.7</ele>
        <time>2019-01-20T11:44:53Z</time>
      </trkpt>
      <trkpt lat="43.51131" lon="6.32181">
        <ele>309.6</ele>
        <time>2019-01-20T11:45:07Z</time>
      </trkpt>
      <trkpt lat="43.51141" lon="6.32179">
        <ele>310.2</ele>
        <time>2019-01-20T11:45:17Z</time>
      </trkpt>
      <trkpt lat="43.5115" lon="6.32178">
        <ele>310.6</ele>
        <time>2019-01-20T11:45:34Z</time>
      </trkpt>
      <trkpt lat="43.51159" lon="6.32172">
        <ele>311.6</ele>
        <time>2019-01-20T11:45:58Z</time>
      </trkpt>
      <trkpt lat="43.51168" lon="6.32173">
        <ele>312.3</ele>
        <time>2019-01-20T11:46:52Z</time>
      </trkpt>
      <trkpt lat="43.51177" lon="6.32172">
        <ele>311.8</ele>
        <time>2019-01-20T11:49:14Z</time>
      </trkpt>
      <trkpt lat="43.51186" lon="6.32171">
        <ele>313.3</ele>
        <time>2019-01-20T11:49:34Z</time>
      </trkpt>
      <trkpt lat="43.51196" lon="6.3217">
        <ele>314.3</ele>
        <time>2019-01-20T11:49:46Z</time>
      </trkpt>
      <trkpt lat="43.51205" lon="6.32166">
        <ele>315.3</ele>
        <time>2019-01-20T11:49:57Z</time>
      </trkpt>
      <trkpt lat="43.51214" lon="6.32168">
        <ele>316.5</ele>
        <time>2019-01-20T11:50:09Z</time>
      </trkpt>
      <trkpt lat="43.51223" lon="6.32165">
        <ele>317.7</ele>
        <time>2019-01-20T11:50:23Z</time>
      </trkpt>
      <trkpt lat="43.51232" lon="6.32165">
        <ele>318.4</ele>
        <time>2019-01-20T11:50:31Z</time>
      </trkpt>
      <trkpt lat="43.51242" lon="6.32166">
        <ele>319.3</ele>
        <time>2019-01-20T11:50:42Z</time>
      </trkpt>
      <trkpt lat="43.51252" lon="6.32164">
        <ele>319.8</ele>
        <time>2019-01-20T11:50:51Z</time>
      </trkpt>
      <trkpt lat="43.51261" lon="6.3216">
        <ele>321</ele>
        <time>2019-01-20T11:51:05Z</time>
      </trkpt>
      <trkpt lat="43.51271" lon="6.32158">
        <ele>321.9</ele>
        <time>2019-01-20T11:51:17Z</time>
      </trkpt>
      <trkpt lat="43.51279" lon="6.32153">
        <ele>323.2</ele>
        <time>2019-01-20T11:51:35Z</time>
      </trkpt>
      <trkpt lat="43.51281" lon="6.32165">
        <ele>324</ele>
        <time>2019-01-20T11:52:29Z</time>
      </trkpt>
      <trkpt lat="43.51281" lon="6.32179">
        <ele>324</ele>
        <time>2019-01-20T11:52:39Z</time>
      </trkpt>
      <trkpt lat="43.51284" lon="6.3219">
        <ele>323.9</ele>
        <time>2019-01-20T11:52:49Z</time>
      </trkpt>
      <trkpt lat="43.51286" lon="6.32203">
        <ele>323.4</ele>
        <time>2019-01-20T11:52:58Z</time>
      </trkpt>
      <trkpt lat="43.51285" lon="6.32216">
        <ele>322.4</ele>
        <time>2019-01-20T11:53:08Z</time>
      </trkpt>
      <trkpt lat="43.51291" lon="6.32228">
        <ele>321.8</ele>
        <time>2019-01-20T11:53:18Z</time>
      </trkpt>
      <trkpt lat="43.51293" lon="6.3224">
        <ele>321.4</ele>
        <time>2019-01-20T11:53:27Z</time>
      </trkpt>
      <trkpt lat="43.51295" lon="6.32253">
        <ele>321.2</ele>
        <time>2019-01-20T11:53:35Z</time>
      </trkpt>
      <trkpt lat="43.51299" lon="6.32266">
        <ele>321</ele>
        <time>2019-01-20T11:53:44Z</time>
      </trkpt>
      <trkpt lat="43.51301" lon="6.3228">
        <ele>320.9</ele>
        <time>2019-01-20T11:53:53Z</time>
      </trkpt>
      <trkpt lat="43.51303" lon="6.32292">
        <ele>320.8</ele>
        <time>2019-01-20T11:54:01Z</time>
      </trkpt>
      <trkpt lat="43.51307" lon="6.32306">
        <ele>320.7</ele>
        <time>2019-01-20T11:54:09Z</time>
      </trkpt>
      <trkpt lat="43.51305" lon="6.32318">
        <ele>320.6</ele>
        <time>2019-01-20T11:54:18Z</time>
      </trkpt>
      <trkpt lat="43.51305" lon="6.32331">
        <ele>320.5</ele>
        <time>2019-01-20T11:54:26Z</time>
      </trkpt>
      <trkpt lat="43.51308" lon="6.32343">
        <ele>320.3</ele>
        <time>2019-01-20T11:54:34Z</time>
      </trkpt>
      <trkpt lat="43.5131" lon="6.32356">
        <ele>320</ele>
        <time>2019-01-20T11:54:42Z</time>
      </trkpt>
      <trkpt lat="43.5131" lon="6.3237">
        <ele>319.6</ele>
        <time>2019-01-20T11:54:51Z</time>
      </trkpt>
      <trkpt lat="43.51312" lon="6.32383">
        <ele>319.2</ele>
        <time>2019-01-20T11:54:59Z</time>
      </trkpt>
      <trkpt lat="43.51316" lon="6.32396">
        <ele>318.8</ele>
        <time>2019-01-20T11:55:09Z</time>
      </trkpt>
      <trkpt lat="43.51318" lon="6.32408">
        <ele>318.6</ele>
        <time>2019-01-20T11:55:17Z</time>
      </trkpt>
      <trkpt lat="43.51323" lon="6.3242">
        <ele>318.3</ele>
        <time>2019-01-20T11:55:25Z</time>
      </trkpt>
      <trkpt lat="43.51323" lon="6.32434">
        <ele>318.1</ele>
        <time>2019-01-20T11:55:34Z</time>
      </trkpt>
      <trkpt lat="43.51326" lon="6.32446">
        <ele>318</ele>
        <time>2019-01-20T11:55:42Z</time>
      </trkpt>
      <trkpt lat="43.51331" lon="6.32456">
        <ele>318</ele>
        <time>2019-01-20T11:55:51Z</time>
      </trkpt>
      <trkpt lat="43.51331" lon="6.3247">
        <ele>317.9</ele>
        <time>2019-01-20T11:55:59Z</time>
      </trkpt>
      <trkpt lat="43.51332" lon="6.32483">
        <ele>318</ele>
        <time>2019-01-20T11:56:07Z</time>
      </trkpt>
      <trkpt lat="43.51336" lon="6.32494">
        <ele>318.3</ele>
        <time>2019-01-20T11:56:15Z</time>
      </trkpt>
      <trkpt lat="43.51338" lon="6.32507">
        <ele>318.9</ele>
        <time>2019-01-20T11:56:25Z</time>
      </trkpt>
      <trkpt lat="43.51342" lon="6.32518">
        <ele>319.4</ele>
        <time>2019-01-20T11:56:34Z</time>
      </trkpt>
      <trkpt lat="43.51349" lon="6.32527">
        <ele>320</ele>
        <time>2019-01-20T11:56:47Z</time>
      </trkpt>
      <trkpt lat="43.51358" lon="6.32533">
        <ele>320.6</ele>
        <time>2019-01-20T11:56:58Z</time>
      </trkpt>
      <trkpt lat="43.51368" lon="6.32535">
        <ele>321.1</ele>
        <time>2019-01-20T11:57:08Z</time>
      </trkpt>
      <trkpt lat="43.51377" lon="6.32537">
        <ele>321.5</ele>
        <time>2019-01-20T11:57:19Z</time>
      </trkpt>
      <trkpt lat="43.51386" lon="6.32539">
        <ele>322.1</ele>
        <time>2019-01-20T11:57:29Z</time>
      </trkpt>
      <trkpt lat="43.51395" lon="6.32543">
        <ele>322.6</ele>
        <time>2019-01-20T11:57:37Z</time>
      </trkpt>
      <trkpt lat="43.51404" lon="6.32547">
        <ele>323</ele>
        <time>2019-01-20T11:57:44Z</time>
      </trkpt>
      <trkpt lat="43.51415" lon="6.32551">
        <ele>323.4</ele>
        <time>2019-01-20T11:57:52Z</time>
      </trkpt>
      <trkpt lat="43.51424" lon="6.32552">
        <ele>324.1</ele>
        <time>2019-01-20T11:58:03Z</time>
      </trkpt>
      <trkpt lat="43.51433" lon="6.32552">
        <ele>324.5</ele>
        <time>2019-01-20T11:58:11Z</time>
      </trkpt>
      <trkpt lat="43.51442" lon="6.32559">
        <ele>325</ele>
        <time>2019-01-20T11:58:19Z</time>
      </trkpt>
      <trkpt lat="43.51451" lon="6.32562">
        <ele>325.9</ele>
        <time>2019-01-20T11:58:28Z</time>
      </trkpt>
      <trkpt lat="43.51458" lon="6.3257">
        <ele>326.5</ele>
        <time>2019-01-20T11:58:37Z</time>
      </trkpt>
      <trkpt lat="43.51466" lon="6.32564">
        <ele>327</ele>
        <time>2019-01-20T11:58:54Z</time>
      </trkpt>
      <trkpt lat="43.51476" lon="6.3256">
        <ele>328.3</ele>
        <time>2019-01-20T11:59:05Z</time>
      </trkpt>
      <trkpt lat="43.51485" lon="6.32562">
        <ele>329.4</ele>
        <time>2019-01-20T11:59:17Z</time>
      </trkpt>
      <trkpt lat="43.51494" lon="6.32559">
        <ele>330.1</ele>
        <time>2019-01-20T11:59:26Z</time>
      </trkpt>
      <trkpt lat="43.51503" lon="6.32554">
        <ele>330.8</ele>
        <time>2019-01-20T11:59:34Z</time>
      </trkpt>
      <trkpt lat="43.51512" lon="6.32547">
        <ele>331.6</ele>
        <time>2019-01-20T11:59:43Z</time>
      </trkpt>
      <trkpt lat="43.51522" lon="6.32544">
        <ele>332.5</ele>
        <time>2019-01-20T11:59:54Z</time>
      </trkpt>
      <trkpt lat="43.51531" lon="6.32542">
        <ele>333</ele>
        <time>2019-01-20T12:00:03Z</time>
      </trkpt>
      <trkpt lat="43.5154" lon="6.32537">
        <ele>333</ele>
        <time>2019-01-20T12:00:13Z</time>
      </trkpt>
      <trkpt lat="43.51551" lon="6.32533">
        <ele>335</ele>
        <time>2019-01-20T12:00:25Z</time>
      </trkpt>
      <trkpt lat="43.5156" lon="6.32536">
        <ele>335.3</ele>
        <time>2019-01-20T12:00:34Z</time>
      </trkpt>
      <trkpt lat="43.51568" lon="6.32543">
        <ele>335.9</ele>
        <time>2019-01-20T12:00:45Z</time>
      </trkpt>
      <trkpt lat="43.51579" lon="6.32543">
        <ele>336.5</ele>
        <time>2019-01-20T12:00:56Z</time>
      </trkpt>
      <trkpt lat="43.51588" lon="6.32544">
        <ele>336.9</ele>
        <time>2019-01-20T12:01:03Z</time>
      </trkpt>
      <trkpt lat="43.51598" lon="6.32544">
        <ele>337.3</ele>
        <time>2019-01-20T12:01:11Z</time>
      </trkpt>
      <trkpt lat="43.51606" lon="6.32549">
        <ele>337.7</ele>
        <time>2019-01-20T12:01:18Z</time>
      </trkpt>
      <trkpt lat="43.51615" lon="6.32546">
        <ele>338</ele>
        <time>2019-01-20T12:01:26Z</time>
      </trkpt>
      <trkpt lat="43.51623" lon="6.32538">
        <ele>338</ele>
        <time>2019-01-20T12:01:39Z</time>
      </trkpt>
      <trkpt lat="43.51632" lon="6.32532">
        <ele>338.4</ele>
        <time>2019-01-20T12:01:47Z</time>
      </trkpt>
      <trkpt lat="43.51642" lon="6.32533">
        <ele>338.3</ele>
        <time>2019-01-20T12:02:02Z</time>
      </trkpt>
      <trkpt lat="43.51633" lon="6.32533">
        <ele>338.5</ele>
        <time>2019-01-20T12:02:27Z</time>
      </trkpt>
      <trkpt lat="43.51624" lon="6.32538">
        <ele>338.5</ele>
        <time>2019-01-20T12:02:43Z</time>
      </trkpt>
      <trkpt lat="43.51615" lon="6.32535">
        <ele>338.6</ele>
        <time>2019-01-20T12:03:05Z</time>
      </trkpt>
      <trkpt lat="43.51607" lon="6.32528">
        <ele>338</ele>
        <time>2019-01-20T12:03:31Z</time>
      </trkpt>
      <trkpt lat="43.51617" lon="6.32529">
        <ele>337.1</ele>
        <time>2019-01-20T12:03:55Z</time>
      </trkpt>
      <trkpt lat="43.51624" lon="6.32538">
        <ele>336.7</ele>
        <time>2019-01-20T12:04:16Z</time>
      </trkpt>
      <trkpt lat="43.51632" lon="6.32531">
        <ele>336.1</ele>
        <time>2019-01-20T12:04:26Z</time>
      </trkpt>
      <trkpt lat="43.51637" lon="6.32518">
        <ele>335.8</ele>
        <time>2019-01-20T12:04:32Z</time>
      </trkpt>
      <trkpt lat="43.51641" lon="6.32507">
        <ele>335.5</ele>
        <time>2019-01-20T12:04:45Z</time>
      </trkpt>
      <trkpt lat="43.51645" lon="6.32495">
        <ele>334.8</ele>
        <time>2019-01-20T12:04:54Z</time>
      </trkpt>
      <trkpt lat="43.51651" lon="6.32486">
        <ele>334.3</ele>
        <time>2019-01-20T12:05:01Z</time>
      </trkpt>
      <trkpt lat="43.51658" lon="6.32478">
        <ele>333.9</ele>
        <time>2019-01-20T12:05:23Z</time>
      </trkpt>
      <trkpt lat="43.51657" lon="6.32465">
        <ele>334</ele>
        <time>2019-01-20T12:05:30Z</time>
      </trkpt>
      <trkpt lat="43.51656" lon="6.32452">
        <ele>334.1</ele>
        <time>2019-01-20T12:05:37Z</time>
      </trkpt>
      <trkpt lat="43.51653" lon="6.3244">
        <ele>334</ele>
        <time>2019-01-20T12:05:45Z</time>
      </trkpt>
      <trkpt lat="43.5165" lon="6.32426">
        <ele>333</ele>
        <time>2019-01-20T12:05:53Z</time>
      </trkpt>
      <trkpt lat="43.51659" lon="6.32423">
        <ele>334.3</ele>
        <time>2019-01-20T12:06:14Z</time>
      </trkpt>
      <trkpt lat="43.51668" lon="6.32422">
        <ele>335.2</ele>
        <time>2019-01-20T12:06:27Z</time>
      </trkpt>
      <trkpt lat="43.51675" lon="6.32415">
        <ele>335.8</ele>
        <time>2019-01-20T12:06:39Z</time>
      </trkpt>
      <trkpt lat="43.51684" lon="6.32415">
        <ele>336.2</ele>
        <time>2019-01-20T12:06:56Z</time>
      </trkpt>
      <trkpt lat="43.51692" lon="6.32423">
        <ele>337</ele>
        <time>2019-01-20T12:07:10Z</time>
      </trkpt>
      <trkpt lat="43.51699" lon="6.32431">
        <ele>338.4</ele>
        <time>2019-01-20T12:07:20Z</time>
      </trkpt>
      <trkpt lat="43.51707" lon="6.32437">
        <ele>339.5</ele>
        <time>2019-01-20T12:07:34Z</time>
      </trkpt>
      <trkpt lat="43.51713" lon="6.32447">
        <ele>340.8</ele>
        <time>2019-01-20T12:07:53Z</time>
      </trkpt>
      <trkpt lat="43.51722" lon="6.3245">
        <ele>341.8</ele>
        <time>2019-01-20T12:08:03Z</time>
      </trkpt>
      <trkpt lat="43.5173" lon="6.32441">
        <ele>342.5</ele>
        <time>2019-01-20T12:08:12Z</time>
      </trkpt>
      <trkpt lat="43.51734" lon="6.32429">
        <ele>342</ele>
        <time>2019-01-20T12:08:20Z</time>
      </trkpt>
      <trkpt lat="43.5174" lon="6.3242">
        <ele>342.9</ele>
        <time>2019-01-20T12:08:30Z</time>
      </trkpt>
      <trkpt lat="43.51746" lon="6.32409">
        <ele>342.9</ele>
        <time>2019-01-20T12:08:42Z</time>
      </trkpt>
      <trkpt lat="43.51754" lon="6.32402">
        <ele>342.8</ele>
        <time>2019-01-20T12:08:50Z</time>
      </trkpt>
      <trkpt lat="43.51761" lon="6.32394">
        <ele>342.5</ele>
        <time>2019-01-20T12:08:59Z</time>
      </trkpt>
      <trkpt lat="43.51764" lon="6.32382">
        <ele>342.1</ele>
        <time>2019-01-20T12:09:09Z</time>
      </trkpt>
      <trkpt lat="43.51774" lon="6.3238">
        <ele>342.1</ele>
        <time>2019-01-20T12:09:26Z</time>
      </trkpt>
      <trkpt lat="43.51783" lon="6.3238">
        <ele>342.2</ele>
        <time>2019-01-20T12:09:37Z</time>
      </trkpt>
      <trkpt lat="43.51791" lon="6.32375">
        <ele>342.6</ele>
        <time>2019-01-20T12:10:13Z</time>
      </trkpt>
      <trkpt lat="43.51796" lon="6.32364">
        <ele>342.8</ele>
        <time>2019-01-20T12:10:27Z</time>
      </trkpt>
      <trkpt lat="43.51804" lon="6.3237">
        <ele>342.7</ele>
        <time>2019-01-20T12:19:56Z</time>
      </trkpt>
      <trkpt lat="43.51809" lon="6.32359">
        <ele>342.7</ele>
        <time>2019-01-20T12:20:54Z</time>
      </trkpt>
      <trkpt lat="43.518" lon="6.32364">
        <ele>342.5</ele>
        <time>2019-01-20T12:21:10Z</time>
      </trkpt>
      <trkpt lat="43.51793" lon="6.32371">
        <ele>342.5</ele>
        <time>2019-01-20T12:27:00Z</time>
      </trkpt>
      <trkpt lat="43.51791" lon="6.32359">
        <ele>342.9</ele>
        <time>2019-01-20T12:28:45Z</time>
      </trkpt>
      <trkpt lat="43.51795" lon="6.3237">
        <ele>343</ele>
        <time>2019-01-20T12:29:55Z</time>
      </trkpt>
      <trkpt lat="43.518" lon="6.3236">
        <ele>342.7</ele>
        <time>2019-01-20T12:30:51Z</time>
      </trkpt>
      <trkpt lat="43.51794" lon="6.3237">
        <ele>342.8</ele>
        <time>2019-01-20T12:31:23Z</time>
      </trkpt>
      <trkpt lat="43.51795" lon="6.32358">
        <ele>343.6</ele>
        <time>2019-01-20T12:41:27Z</time>
      </trkpt>
      <trkpt lat="43.51796" lon="6.32371">
        <ele>345.5</ele>
        <time>2019-01-20T12:50:27Z</time>
      </trkpt>
      <trkpt lat="43.51798" lon="6.32358">
        <ele>345.8</ele>
        <time>2019-01-20T12:53:13Z</time>
      </trkpt>
      <trkpt lat="43.51792" lon="6.32349">
        <ele>346</ele>
        <time>2019-01-20T12:56:34Z</time>
      </trkpt>
      <trkpt lat="43.518" lon="6.32355">
        <ele>346.7</ele>
        <time>2019-01-20T12:59:44Z</time>
      </trkpt>
      <trkpt lat="43.51794" lon="6.32365">
        <ele>346.8</ele>
        <time>2019-01-20T13:02:55Z</time>
      </trkpt>
      <trkpt lat="43.51794" lon="6.32352">
        <ele>346.7</ele>
        <time>2019-01-20T13:03:06Z</time>
      </trkpt>
      <trkpt lat="43.51789" lon="6.32342">
        <ele>347.1</ele>
        <time>2019-01-20T13:03:24Z</time>
      </trkpt>
      <trkpt lat="43.5178" lon="6.3234">
        <ele>347</ele>
        <time>2019-01-20T13:03:34Z</time>
      </trkpt>
      <trkpt lat="43.51772" lon="6.32334">
        <ele>346.7</ele>
        <time>2019-01-20T13:03:45Z</time>
      </trkpt>
      <trkpt lat="43.51763" lon="6.32327">
        <ele>346.6</ele>
        <time>2019-01-20T13:03:59Z</time>
      </trkpt>
      <trkpt lat="43.51755" lon="6.3232">
        <ele>346.3</ele>
        <time>2019-01-20T13:04:10Z</time>
      </trkpt>
      <trkpt lat="43.51747" lon="6.32313">
        <ele>346</ele>
        <time>2019-01-20T13:04:22Z</time>
      </trkpt>
      <trkpt lat="43.51738" lon="6.32307">
        <ele>345.7</ele>
        <time>2019-01-20T13:04:32Z</time>
      </trkpt>
      <trkpt lat="43.51732" lon="6.32299">
        <ele>345.4</ele>
        <time>2019-01-20T13:04:41Z</time>
      </trkpt>
      <trkpt lat="43.51726" lon="6.32288">
        <ele>345</ele>
        <time>2019-01-20T13:04:50Z</time>
      </trkpt>
      <trkpt lat="43.51721" lon="6.32277">
        <ele>344.5</ele>
        <time>2019-01-20T13:05:02Z</time>
      </trkpt>
      <trkpt lat="43.51711" lon="6.3227">
        <ele>344.1</ele>
        <time>2019-01-20T13:05:13Z</time>
      </trkpt>
      <trkpt lat="43.51708" lon="6.32257">
        <ele>343.6</ele>
        <time>2019-01-20T13:05:25Z</time>
      </trkpt>
      <trkpt lat="43.51705" lon="6.32244">
        <ele>342.7</ele>
        <time>2019-01-20T13:05:36Z</time>
      </trkpt>
      <trkpt lat="43.51699" lon="6.32235">
        <ele>341.5</ele>
        <time>2019-01-20T13:05:45Z</time>
      </trkpt>
      <trkpt lat="43.51697" lon="6.32222">
        <ele>340</ele>
        <time>2019-01-20T13:05:53Z</time>
      </trkpt>
      <trkpt lat="43.51692" lon="6.3221">
        <ele>340.2</ele>
        <time>2019-01-20T13:06:04Z</time>
      </trkpt>
      <trkpt lat="43.51686" lon="6.32198">
        <ele>339.6</ele>
        <time>2019-01-20T13:06:13Z</time>
      </trkpt>
      <trkpt lat="43.51685" lon="6.32185">
        <ele>339.1</ele>
        <time>2019-01-20T13:06:23Z</time>
      </trkpt>
      <trkpt lat="43.51682" lon="6.32172">
        <ele>338.9</ele>
        <time>2019-01-20T13:06:32Z</time>
      </trkpt>
      <trkpt lat="43.51681" lon="6.32159">
        <ele>338.6</ele>
        <time>2019-01-20T13:06:40Z</time>
      </trkpt>
      <trkpt lat="43.51684" lon="6.32147">
        <ele>338.3</ele>
        <time>2019-01-20T13:06:48Z</time>
      </trkpt>
      <trkpt lat="43.5168" lon="6.32135">
        <ele>337.4</ele>
        <time>2019-01-20T13:07:00Z</time>
      </trkpt>
      <trkpt lat="43.51678" lon="6.32123">
        <ele>337.1</ele>
        <time>2019-01-20T13:07:09Z</time>
      </trkpt>
      <trkpt lat="43.51679" lon="6.3211">
        <ele>336.7</ele>
        <time>2019-01-20T13:07:16Z</time>
      </trkpt>
      <trkpt lat="43.51682" lon="6.32097">
        <ele>336.3</ele>
        <time>2019-01-20T13:07:26Z</time>
      </trkpt>
      <trkpt lat="43.51685" lon="6.32085">
        <ele>335.7</ele>
        <time>2019-01-20T13:07:35Z</time>
      </trkpt>
      <trkpt lat="43.51685" lon="6.32072">
        <ele>335.4</ele>
        <time>2019-01-20T13:07:44Z</time>
      </trkpt>
      <trkpt lat="43.51689" lon="6.3206">
        <ele>335</ele>
        <time>2019-01-20T13:07:54Z</time>
      </trkpt>
      <trkpt lat="43.5169" lon="6.32047">
        <ele>334.7</ele>
        <time>2019-01-20T13:08:02Z</time>
      </trkpt>
      <trkpt lat="43.5169" lon="6.32034">
        <ele>334.1</ele>
        <time>2019-01-20T13:08:13Z</time>
      </trkpt>
      <trkpt lat="43.51692" lon="6.3202">
        <ele>333.5</ele>
        <time>2019-01-20T13:08:20Z</time>
      </trkpt>
      <trkpt lat="43.5169" lon="6.32007">
        <ele>332.8</ele>
        <time>2019-01-20T13:08:29Z</time>
      </trkpt>
      <trkpt lat="43.51692" lon="6.31994">
        <ele>331.9</ele>
        <time>2019-01-20T13:08:39Z</time>
      </trkpt>
      <trkpt lat="43.51692" lon="6.3198">
        <ele>331</ele>
        <time>2019-01-20T13:08:48Z</time>
      </trkpt>
      <trkpt lat="43.51696" lon="6.31968">
        <ele>330.2</ele>
        <time>2019-01-20T13:08:55Z</time>
      </trkpt>
      <trkpt lat="43.51694" lon="6.31956">
        <ele>329.2</ele>
        <time>2019-01-20T13:09:04Z</time>
      </trkpt>
      <trkpt lat="43.51696" lon="6.31944">
        <ele>327.8</ele>
        <time>2019-01-20T13:09:17Z</time>
      </trkpt>
      <trkpt lat="43.51698" lon="6.31929">
        <ele>326.7</ele>
        <time>2019-01-20T13:09:26Z</time>
      </trkpt>
      <trkpt lat="43.51702" lon="6.31918">
        <ele>325.9</ele>
        <time>2019-01-20T13:09:32Z</time>
      </trkpt>
      <trkpt lat="43.51707" lon="6.31908">
        <ele>324.8</ele>
        <time>2019-01-20T13:09:41Z</time>
      </trkpt>
      <trkpt lat="43.51711" lon="6.31895">
        <ele>324.1</ele>
        <time>2019-01-20T13:09:49Z</time>
      </trkpt>
      <trkpt lat="43.51709" lon="6.31882">
        <ele>323.3</ele>
        <time>2019-01-20T13:09:57Z</time>
      </trkpt>
      <trkpt lat="43.51715" lon="6.31872">
        <ele>322.6</ele>
        <time>2019-01-20T13:10:05Z</time>
      </trkpt>
      <trkpt lat="43.51718" lon="6.31859">
        <ele>321.9</ele>
        <time>2019-01-20T13:10:14Z</time>
      </trkpt>
      <trkpt lat="43.51717" lon="6.31847">
        <ele>320.9</ele>
        <time>2019-01-20T13:10:21Z</time>
      </trkpt>
      <trkpt lat="43.51718" lon="6.31834">
        <ele>320.1</ele>
        <time>2019-01-20T13:10:29Z</time>
      </trkpt>
      <trkpt lat="43.51723" lon="6.31823">
        <ele>319.2</ele>
        <time>2019-01-20T13:10:37Z</time>
      </trkpt>
      <trkpt lat="43.51722" lon="6.3181">
        <ele>318.4</ele>
        <time>2019-01-20T13:10:45Z</time>
      </trkpt>
      <trkpt lat="43.51723" lon="6.31797">
        <ele>317.6</ele>
        <time>2019-01-20T13:10:54Z</time>
      </trkpt>
      <trkpt lat="43.51724" lon="6.31784">
        <ele>317.1</ele>
        <time>2019-01-20T13:11:03Z</time>
      </trkpt>
      <trkpt lat="43.51723" lon="6.31772">
        <ele>316.7</ele>
        <time>2019-01-20T13:11:12Z</time>
      </trkpt>
      <trkpt lat="43.51725" lon="6.31759">
        <ele>316</ele>
        <time>2019-01-20T13:11:21Z</time>
      </trkpt>
      <trkpt lat="43.51726" lon="6.31746">
        <ele>315.5</ele>
        <time>2019-01-20T13:11:29Z</time>
      </trkpt>
      <trkpt lat="43.51726" lon="6.31733">
        <ele>315.1</ele>
        <time>2019-01-20T13:11:38Z</time>
      </trkpt>
      <trkpt lat="43.51729" lon="6.31721">
        <ele>314.8</ele>
        <time>2019-01-20T13:11:45Z</time>
      </trkpt>
      <trkpt lat="43.51727" lon="6.31708">
        <ele>314.5</ele>
        <time>2019-01-20T13:11:52Z</time>
      </trkpt>
      <trkpt lat="43.51727" lon="6.31695">
        <ele>314.3</ele>
        <time>2019-01-20T13:12:01Z</time>
      </trkpt>
      <trkpt lat="43.51729" lon="6.3168">
        <ele>314.2</ele>
        <time>2019-01-20T13:12:09Z</time>
      </trkpt>
      <trkpt lat="43.51725" lon="6.31669">
        <ele>313.9</ele>
        <time>2019-01-20T13:12:18Z</time>
      </trkpt>
      <trkpt lat="43.51724" lon="6.31657">
        <ele>313.3</ele>
        <time>2019-01-20T13:12:27Z</time>
      </trkpt>
      <trkpt lat="43.51729" lon="6.31667">
        <ele>311.6</ele>
        <time>2019-01-20T13:13:08Z</time>
      </trkpt>
      <trkpt lat="43.51737" lon="6.31674">
        <ele>311.8</ele>
        <time>2019-01-20T13:13:18Z</time>
      </trkpt>
      <trkpt lat="43.51746" lon="6.31675">
        <ele>312.3</ele>
        <time>2019-01-20T13:13:31Z</time>
      </trkpt>
      <trkpt lat="43.51756" lon="6.31678">
        <ele>312.8</ele>
        <time>2019-01-20T13:13:42Z</time>
      </trkpt>
      <trkpt lat="43.51766" lon="6.31681">
        <ele>313.2</ele>
        <time>2019-01-20T13:13:53Z</time>
      </trkpt>
      <trkpt lat="43.51775" lon="6.31684">
        <ele>313.3</ele>
        <time>2019-01-20T13:13:59Z</time>
      </trkpt>
      <trkpt lat="43.51785" lon="6.31684">
        <ele>313.7</ele>
        <time>2019-01-20T13:14:09Z</time>
      </trkpt>
      <trkpt lat="43.51794" lon="6.31688">
        <ele>314.3</ele>
        <time>2019-01-20T13:14:20Z</time>
      </trkpt>
      <trkpt lat="43.51803" lon="6.3169">
        <ele>314.8</ele>
        <time>2019-01-20T13:14:30Z</time>
      </trkpt>
      <trkpt lat="43.51812" lon="6.31692">
        <ele>316.4</ele>
        <time>2019-01-20T13:14:44Z</time>
      </trkpt>
      <trkpt lat="43.51821" lon="6.31687">
        <ele>318</ele>
        <time>2019-01-20T13:14:55Z</time>
      </trkpt>
      <trkpt lat="43.5183" lon="6.31683">
        <ele>318.8</ele>
        <time>2019-01-20T13:15:03Z</time>
      </trkpt>
      <trkpt lat="43.5184" lon="6.31679">
        <ele>319.8</ele>
        <time>2019-01-20T13:15:13Z</time>
      </trkpt>
      <trkpt lat="43.51846" lon="6.3167">
        <ele>320.1</ele>
        <time>2019-01-20T13:15:30Z</time>
      </trkpt>
      <trkpt lat="43.51851" lon="6.31659">
        <ele>319.7</ele>
        <time>2019-01-20T13:15:48Z</time>
      </trkpt>
      <trkpt lat="43.51858" lon="6.31649">
        <ele>320.5</ele>
        <time>2019-01-20T13:16:01Z</time>
      </trkpt>
      <trkpt lat="43.51866" lon="6.31643">
        <ele>321.4</ele>
        <time>2019-01-20T13:16:11Z</time>
      </trkpt>
      <trkpt lat="43.51873" lon="6.31634">
        <ele>324.9</ele>
        <time>2019-01-20T13:16:42Z</time>
      </trkpt>
      <trkpt lat="43.51881" lon="6.31628">
        <ele>327.7</ele>
        <time>2019-01-20T13:17:04Z</time>
      </trkpt>
      <trkpt lat="43.51889" lon="6.31621">
        <ele>328.6</ele>
        <time>2019-01-20T13:17:13Z</time>
      </trkpt>
      <trkpt lat="43.51893" lon="6.31609">
        <ele>329.8</ele>
        <time>2019-01-20T13:17:25Z</time>
      </trkpt>
      <trkpt lat="43.51896" lon="6.31597">
        <ele>332</ele>
        <time>2019-01-20T13:17:57Z</time>
      </trkpt>
      <trkpt lat="43.51904" lon="6.3159">
        <ele>334.3</ele>
        <time>2019-01-20T13:18:16Z</time>
      </trkpt>
      <trkpt lat="43.51907" lon="6.31577">
        <ele>335.8</ele>
        <time>2019-01-20T13:18:32Z</time>
      </trkpt>
      <trkpt lat="43.51911" lon="6.31565">
        <ele>336.3</ele>
        <time>2019-01-20T13:18:40Z</time>
      </trkpt>
      <trkpt lat="43.51913" lon="6.31552">
        <ele>336.7</ele>
        <time>2019-01-20T13:18:50Z</time>
      </trkpt>
      <trkpt lat="43.51915" lon="6.31539">
        <ele>337.1</ele>
        <time>2019-01-20T13:19:06Z</time>
      </trkpt>
      <trkpt lat="43.51919" lon="6.31528">
        <ele>337.2</ele>
        <time>2019-01-20T13:19:17Z</time>
      </trkpt>
      <trkpt lat="43.51912" lon="6.31519">
        <ele>337</ele>
        <time>2019-01-20T13:20:03Z</time>
      </trkpt>
      <trkpt lat="43.51915" lon="6.31506">
        <ele>337.9</ele>
        <time>2019-01-20T13:28:35Z</time>
      </trkpt>
      <trkpt lat="43.5192" lon="6.31495">
        <ele>338</ele>
        <time>2019-01-20T13:28:44Z</time>
      </trkpt>
      <trkpt lat="43.51926" lon="6.31486">
        <ele>337.9</ele>
        <time>2019-01-20T13:28:54Z</time>
      </trkpt>
      <trkpt lat="43.51929" lon="6.31474">
        <ele>337.8</ele>
        <time>2019-01-20T13:29:08Z</time>
      </trkpt>
      <trkpt lat="43.51933" lon="6.31462">
        <ele>337.4</ele>
        <time>2019-01-20T13:29:27Z</time>
      </trkpt>
      <trkpt lat="43.51938" lon="6.31472">
        <ele>337.5</ele>
        <time>2019-01-20T13:30:07Z</time>
      </trkpt>
      <trkpt lat="43.51943" lon="6.31483">
        <ele>338.3</ele>
        <time>2019-01-20T13:30:24Z</time>
      </trkpt>
      <trkpt lat="43.5195" lon="6.31493">
        <ele>339.3</ele>
        <time>2019-01-20T13:30:37Z</time>
      </trkpt>
      <trkpt lat="43.51953" lon="6.31505">
        <ele>339.4</ele>
        <time>2019-01-20T13:30:48Z</time>
      </trkpt>
      <trkpt lat="43.5196" lon="6.31514">
        <ele>339.4</ele>
        <time>2019-01-20T13:30:59Z</time>
      </trkpt>
      <trkpt lat="43.51967" lon="6.31522">
        <ele>339.1</ele>
        <time>2019-01-20T13:31:08Z</time>
      </trkpt>
      <trkpt lat="43.51973" lon="6.31532">
        <ele>338.7</ele>
        <time>2019-01-20T13:31:17Z</time>
      </trkpt>
      <trkpt lat="43.51981" lon="6.31539">
        <ele>338.3</ele>
        <time>2019-01-20T13:31:29Z</time>
      </trkpt>
      <trkpt lat="43.51988" lon="6.31549">
        <ele>338</ele>
        <time>2019-01-20T13:31:40Z</time>
      </trkpt>
      <trkpt lat="43.51997" lon="6.31553">
        <ele>337.9</ele>
        <time>2019-01-20T13:31:51Z</time>
      </trkpt>
      <trkpt lat="43.52006" lon="6.31556">
        <ele>337.7</ele>
        <time>2019-01-20T13:32:04Z</time>
      </trkpt>
      <trkpt lat="43.52015" lon="6.31561">
        <ele>337.6</ele>
        <time>2019-01-20T13:32:17Z</time>
      </trkpt>
      <trkpt lat="43.52024" lon="6.31564">
        <ele>337.6</ele>
        <time>2019-01-20T13:32:27Z</time>
      </trkpt>
      <trkpt lat="43.52033" lon="6.31567">
        <ele>337.2</ele>
        <time>2019-01-20T13:32:37Z</time>
      </trkpt>
      <trkpt lat="43.52042" lon="6.31563">
        <ele>337</ele>
        <time>2019-01-20T13:32:45Z</time>
      </trkpt>
      <trkpt lat="43.52051" lon="6.3156">
        <ele>336.6</ele>
        <time>2019-01-20T13:32:56Z</time>
      </trkpt>
      <trkpt lat="43.5206" lon="6.31556">
        <ele>336</ele>
        <time>2019-01-20T13:33:06Z</time>
      </trkpt>
      <trkpt lat="43.52067" lon="6.31548">
        <ele>335.6</ele>
        <time>2019-01-20T13:33:13Z</time>
      </trkpt>
      <trkpt lat="43.52073" lon="6.31539">
        <ele>334.9</ele>
        <time>2019-01-20T13:33:29Z</time>
      </trkpt>
      <trkpt lat="43.52077" lon="6.31527">
        <ele>334.7</ele>
        <time>2019-01-20T13:33:38Z</time>
      </trkpt>
      <trkpt lat="43.52081" lon="6.31515">
        <ele>334.7</ele>
        <time>2019-01-20T13:33:48Z</time>
      </trkpt>
      <trkpt lat="43.52084" lon="6.31504">
        <ele>334.8</ele>
        <time>2019-01-20T13:33:56Z</time>
      </trkpt>
      <trkpt lat="43.52082" lon="6.31491">
        <ele>334.8</ele>
        <time>2019-01-20T13:34:05Z</time>
      </trkpt>
      <trkpt lat="43.5208" lon="6.31478">
        <ele>334.7</ele>
        <time>2019-01-20T13:34:15Z</time>
      </trkpt>
      <trkpt lat="43.52084" lon="6.31466">
        <ele>334.7</ele>
        <time>2019-01-20T13:34:23Z</time>
      </trkpt>
      <trkpt lat="43.52086" lon="6.31452">
        <ele>334.8</ele>
        <time>2019-01-20T13:34:35Z</time>
      </trkpt>
      <trkpt lat="43.5209" lon="6.31439">
        <ele>334.9</ele>
        <time>2019-01-20T13:34:44Z</time>
      </trkpt>
      <trkpt lat="43.52093" lon="6.31427">
        <ele>335</ele>
        <time>2019-01-20T13:34:53Z</time>
      </trkpt>
      <trkpt lat="43.52096" lon="6.31415">
        <ele>335</ele>
        <time>2019-01-20T13:35:03Z</time>
      </trkpt>
      <trkpt lat="43.52104" lon="6.31409">
        <ele>334.8</ele>
        <time>2019-01-20T13:35:14Z</time>
      </trkpt>
      <trkpt lat="43.52113" lon="6.31403">
        <ele>334.7</ele>
        <time>2019-01-20T13:35:23Z</time>
      </trkpt>
      <trkpt lat="43.52123" lon="6.31401">
        <ele>334.6</ele>
        <time>2019-01-20T13:35:32Z</time>
      </trkpt>
      <trkpt lat="43.52132" lon="6.31401">
        <ele>334.4</ele>
        <time>2019-01-20T13:35:41Z</time>
      </trkpt>
      <trkpt lat="43.52141" lon="6.31398">
        <ele>334</ele>
        <time>2019-01-20T13:35:49Z</time>
      </trkpt>
      <trkpt lat="43.52149" lon="6.3139">
        <ele>333.8</ele>
        <time>2019-01-20T13:35:56Z</time>
      </trkpt>
      <trkpt lat="43.52155" lon="6.31379">
        <ele>333.6</ele>
        <time>2019-01-20T13:36:04Z</time>
      </trkpt>
      <trkpt lat="43.52155" lon="6.31366">
        <ele>333.3</ele>
        <time>2019-01-20T13:36:19Z</time>
      </trkpt>
      <trkpt lat="43.52148" lon="6.31357">
        <ele>333.1</ele>
        <time>2019-01-20T13:36:34Z</time>
      </trkpt>
      <trkpt lat="43.52138" lon="6.31352">
        <ele>332.5</ele>
        <time>2019-01-20T13:36:47Z</time>
      </trkpt>
      <trkpt lat="43.52129" lon="6.31352">
        <ele>331.9</ele>
        <time>2019-01-20T13:36:54Z</time>
      </trkpt>
      <trkpt lat="43.52124" lon="6.31362">
        <ele>331.1</ele>
        <time>2019-01-20T13:37:14Z</time>
      </trkpt>
      <trkpt lat="43.52117" lon="6.31371">
        <ele>331.4</ele>
        <time>2019-01-20T13:37:40Z</time>
      </trkpt>
      <trkpt lat="43.52124" lon="6.31363">
        <ele>331.6</ele>
        <time>2019-01-20T13:38:09Z</time>
      </trkpt>
      <trkpt lat="43.52123" lon="6.3135">
        <ele>330.8</ele>
        <time>2019-01-20T13:39:57Z</time>
      </trkpt>
      <trkpt lat="43.52115" lon="6.31342">
        <ele>330.7</ele>
        <time>2019-01-20T13:40:10Z</time>
      </trkpt>
      <trkpt lat="43.52108" lon="6.31334">
        <ele>330.2</ele>
        <time>2019-01-20T13:40:23Z</time>
      </trkpt>
      <trkpt lat="43.52099" lon="6.31328">
        <ele>330.1</ele>
        <time>2019-01-20T13:40:32Z</time>
      </trkpt>
      <trkpt lat="43.52093" lon="6.3132">
        <ele>329.9</ele>
        <time>2019-01-20T13:40:39Z</time>
      </trkpt>
      <trkpt lat="43.52086" lon="6.31311">
        <ele>329.7</ele>
        <time>2019-01-20T13:40:48Z</time>
      </trkpt>
      <trkpt lat="43.52079" lon="6.31303">
        <ele>329.5</ele>
        <time>2019-01-20T13:40:56Z</time>
      </trkpt>
      <trkpt lat="43.52072" lon="6.31295">
        <ele>329.2</ele>
        <time>2019-01-20T13:41:04Z</time>
      </trkpt>
      <trkpt lat="43.52066" lon="6.31286">
        <ele>328.5</ele>
        <time>2019-01-20T13:41:13Z</time>
      </trkpt>
      <trkpt lat="43.5206" lon="6.31275">
        <ele>328</ele>
        <time>2019-01-20T13:41:22Z</time>
      </trkpt>
      <trkpt lat="43.52055" lon="6.31264">
        <ele>327.4</ele>
        <time>2019-01-20T13:41:33Z</time>
      </trkpt>
      <trkpt lat="43.52048" lon="6.31255">
        <ele>326.8</ele>
        <time>2019-01-20T13:41:42Z</time>
      </trkpt>
      <trkpt lat="43.52044" lon="6.31242">
        <ele>326.1</ele>
        <time>2019-01-20T13:41:52Z</time>
      </trkpt>
      <trkpt lat="43.52039" lon="6.31231">
        <ele>325.6</ele>
        <time>2019-01-20T13:42:02Z</time>
      </trkpt>
      <trkpt lat="43.5203" lon="6.31232">
        <ele>324.9</ele>
        <time>2019-01-20T13:42:14Z</time>
      </trkpt>
      <trkpt lat="43.52021" lon="6.31238">
        <ele>324.1</ele>
        <time>2019-01-20T13:42:24Z</time>
      </trkpt>
      <trkpt lat="43.52012" lon="6.31241">
        <ele>323.2</ele>
        <time>2019-01-20T13:42:32Z</time>
      </trkpt>
      <trkpt lat="43.52003" lon="6.31248">
        <ele>322.1</ele>
        <time>2019-01-20T13:42:43Z</time>
      </trkpt>
      <trkpt lat="43.51995" lon="6.31254">
        <ele>321.5</ele>
        <time>2019-01-20T13:42:55Z</time>
      </trkpt>
      <trkpt lat="43.51986" lon="6.31254">
        <ele>321.3</ele>
        <time>2019-01-20T13:43:13Z</time>
      </trkpt>
      <trkpt lat="43.51978" lon="6.3126">
        <ele>321</ele>
        <time>2019-01-20T13:43:34Z</time>
      </trkpt>
      <trkpt lat="43.51971" lon="6.31268">
        <ele>320.2</ele>
        <time>2019-01-20T13:43:47Z</time>
      </trkpt>
      <trkpt lat="43.51962" lon="6.31269">
        <ele>319.4</ele>
        <time>2019-01-20T13:44:29Z</time>
      </trkpt>
      <trkpt lat="43.51961" lon="6.31281">
        <ele>319.4</ele>
        <time>2019-01-20T13:44:58Z</time>
      </trkpt>
      <trkpt lat="43.51969" lon="6.31286">
        <ele>319.6</ele>
        <time>2019-01-20T13:45:49Z</time>
      </trkpt>
      <trkpt lat="43.51979" lon="6.3128">
        <ele>319.3</ele>
        <time>2019-01-20T13:46:36Z</time>
      </trkpt>
      <trkpt lat="43.51969" lon="6.31282">
        <ele>318</ele>
        <time>2019-01-20T13:47:15Z</time>
      </trkpt>
      <trkpt lat="43.51978" lon="6.31278">
        <ele>318.2</ele>
        <time>2019-01-20T13:47:53Z</time>
      </trkpt>
      <trkpt lat="43.51971" lon="6.31269">
        <ele>317.4</ele>
        <time>2019-01-20T13:48:22Z</time>
      </trkpt>
      <trkpt lat="43.51966" lon="6.31258">
        <ele>316.8</ele>
        <time>2019-01-20T13:48:34Z</time>
      </trkpt>
      <trkpt lat="43.51962" lon="6.31247">
        <ele>316</ele>
        <time>2019-01-20T13:48:43Z</time>
      </trkpt>
      <trkpt lat="43.51961" lon="6.31233">
        <ele>315.7</ele>
        <time>2019-01-20T13:48:57Z</time>
      </trkpt>
      <trkpt lat="43.51952" lon="6.31227">
        <ele>315.5</ele>
        <time>2019-01-20T13:49:11Z</time>
      </trkpt>
      <trkpt lat="43.51943" lon="6.31223">
        <ele>315.4</ele>
        <time>2019-01-20T13:49:27Z</time>
      </trkpt>
      <trkpt lat="43.51937" lon="6.31214">
        <ele>314.8</ele>
        <time>2019-01-20T13:50:12Z</time>
      </trkpt>
      <trkpt lat="43.51928" lon="6.31214">
        <ele>314.1</ele>
        <time>2019-01-20T13:50:24Z</time>
      </trkpt>
      <trkpt lat="43.51919" lon="6.31213">
        <ele>313.8</ele>
        <time>2019-01-20T13:50:36Z</time>
      </trkpt>
      <trkpt lat="43.5191" lon="6.31215">
        <ele>313.7</ele>
        <time>2019-01-20T13:50:48Z</time>
      </trkpt>
      <trkpt lat="43.51901" lon="6.31217">
        <ele>313.7</ele>
        <time>2019-01-20T13:51:01Z</time>
      </trkpt>
      <trkpt lat="43.51891" lon="6.31215">
        <ele>313.1</ele>
        <time>2019-01-20T13:51:15Z</time>
      </trkpt>
      <trkpt lat="43.51882" lon="6.31215">
        <ele>312.6</ele>
        <time>2019-01-20T13:51:24Z</time>
      </trkpt>
      <trkpt lat="43.51873" lon="6.31217">
        <ele>312.3</ele>
        <time>2019-01-20T13:51:32Z</time>
      </trkpt>
      <trkpt lat="43.51863" lon="6.31217">
        <ele>311.9</ele>
        <time>2019-01-20T13:51:41Z</time>
      </trkpt>
      <trkpt lat="43.51853" lon="6.31215">
        <ele>311.5</ele>
        <time>2019-01-20T13:51:50Z</time>
      </trkpt>
      <trkpt lat="43.51843" lon="6.31212">
        <ele>311</ele>
        <time>2019-01-20T13:52:00Z</time>
      </trkpt>
      <trkpt lat="43.51834" lon="6.31209">
        <ele>310.8</ele>
        <time>2019-01-20T13:52:07Z</time>
      </trkpt>
      <trkpt lat="43.51825" lon="6.31206">
        <ele>310.5</ele>
        <time>2019-01-20T13:52:16Z</time>
      </trkpt>
      <trkpt lat="43.51824" lon="6.31194">
        <ele>309.4</ele>
        <time>2019-01-20T13:52:48Z</time>
      </trkpt>
      <trkpt lat="43.51824" lon="6.31181">
        <ele>309.2</ele>
        <time>2019-01-20T13:53:00Z</time>
      </trkpt>
      <trkpt lat="43.51828" lon="6.31168">
        <ele>309</ele>
        <time>2019-01-20T13:53:13Z</time>
      </trkpt>
      <trkpt lat="43.51832" lon="6.31157">
        <ele>308.8</ele>
        <time>2019-01-20T13:53:24Z</time>
      </trkpt>
      <trkpt lat="43.51836" lon="6.31145">
        <ele>308.7</ele>
        <time>2019-01-20T13:53:34Z</time>
      </trkpt>
      <trkpt lat="43.5184" lon="6.31133">
        <ele>308.7</ele>
        <time>2019-01-20T13:53:43Z</time>
      </trkpt>
      <trkpt lat="43.51844" lon="6.31122">
        <ele>308.7</ele>
        <time>2019-01-20T13:53:54Z</time>
      </trkpt>
      <trkpt lat="43.51847" lon="6.31109">
        <ele>308.9</ele>
        <time>2019-01-20T13:54:03Z</time>
      </trkpt>
      <trkpt lat="43.51851" lon="6.31097">
        <ele>308.9</ele>
        <time>2019-01-20T13:54:14Z</time>
      </trkpt>
      <trkpt lat="43.51854" lon="6.31086">
        <ele>308.6</ele>
        <time>2019-01-20T13:54:36Z</time>
      </trkpt>
      <trkpt lat="43.51859" lon="6.31073">
        <ele>308.2</ele>
        <time>2019-01-20T13:54:52Z</time>
      </trkpt>
      <trkpt lat="43.51863" lon="6.3106">
        <ele>307.7</ele>
        <time>2019-01-20T13:55:01Z</time>
      </trkpt>
      <trkpt lat="43.51868" lon="6.3105">
        <ele>307.5</ele>
        <time>2019-01-20T13:55:10Z</time>
      </trkpt>
      <trkpt lat="43.51873" lon="6.31039">
        <ele>307.3</ele>
        <time>2019-01-20T13:55:17Z</time>
      </trkpt>
      <trkpt lat="43.51874" lon="6.31025">
        <ele>307.2</ele>
        <time>2019-01-20T13:55:27Z</time>
      </trkpt>
      <trkpt lat="43.5188" lon="6.31015">
        <ele>307.3</ele>
        <time>2019-01-20T13:55:33Z</time>
      </trkpt>
      <trkpt lat="43.51873" lon="6.31005">
        <ele>307.3</ele>
        <time>2019-01-20T13:55:43Z</time>
      </trkpt>
      <trkpt lat="43.51864" lon="6.31002">
        <ele>307.2</ele>
        <time>2019-01-20T13:55:52Z</time>
      </trkpt>
      <trkpt lat="43.51855" lon="6.30997">
        <ele>306.9</ele>
        <time>2019-01-20T13:56:02Z</time>
      </trkpt>
      <trkpt lat="43.51845" lon="6.30996">
        <ele>306.5</ele>
        <time>2019-01-20T13:56:10Z</time>
      </trkpt>
      <trkpt lat="43.51841" lon="6.30984">
        <ele>305.6</ele>
        <time>2019-01-20T13:56:21Z</time>
      </trkpt>
      <trkpt lat="43.51833" lon="6.30976">
        <ele>305.1</ele>
        <time>2019-01-20T13:56:30Z</time>
      </trkpt>
      <trkpt lat="43.51826" lon="6.30967">
        <ele>304</ele>
        <time>2019-01-20T13:56:42Z</time>
      </trkpt>
      <trkpt lat="43.5183" lon="6.30955">
        <ele>302.2</ele>
        <time>2019-01-20T13:58:35Z</time>
      </trkpt>
      <trkpt lat="43.51839" lon="6.30953">
        <ele>302.2</ele>
        <time>2019-01-20T13:58:49Z</time>
      </trkpt>
      <trkpt lat="43.51832" lon="6.3096">
        <ele>302</ele>
        <time>2019-01-20T14:00:01Z</time>
      </trkpt>
      <trkpt lat="43.51828" lon="6.30949">
        <ele>302</ele>
        <time>2019-01-20T14:02:03Z</time>
      </trkpt>
      <trkpt lat="43.51828" lon="6.30936">
        <ele>302.1</ele>
        <time>2019-01-20T14:02:13Z</time>
      </trkpt>
      <trkpt lat="43.51835" lon="6.30925">
        <ele>301.9</ele>
        <time>2019-01-20T14:02:23Z</time>
      </trkpt>
      <trkpt lat="43.51838" lon="6.30913">
        <ele>301.8</ele>
        <time>2019-01-20T14:02:33Z</time>
      </trkpt>
      <trkpt lat="43.51842" lon="6.30902">
        <ele>301.8</ele>
        <time>2019-01-20T14:02:42Z</time>
      </trkpt>
      <trkpt lat="43.51846" lon="6.3089">
        <ele>301.8</ele>
        <time>2019-01-20T14:02:51Z</time>
      </trkpt>
      <trkpt lat="43.51848" lon="6.30877">
        <ele>301.8</ele>
        <time>2019-01-20T14:03:00Z</time>
      </trkpt>
      <trkpt lat="43.51849" lon="6.30865">
        <ele>301.7</ele>
        <time>2019-01-20T14:03:22Z</time>
      </trkpt>
      <trkpt lat="43.51855" lon="6.30854">
        <ele>301.7</ele>
        <time>2019-01-20T14:03:29Z</time>
      </trkpt>
      <trkpt lat="43.51858" lon="6.30842">
        <ele>301.7</ele>
        <time>2019-01-20T14:03:37Z</time>
      </trkpt>
      <trkpt lat="43.51862" lon="6.30831">
        <ele>301.4</ele>
        <time>2019-01-20T14:03:46Z</time>
      </trkpt>
      <trkpt lat="43.51867" lon="6.3082">
        <ele>301.3</ele>
        <time>2019-01-20T14:03:54Z</time>
      </trkpt>
      <trkpt lat="43.51872" lon="6.30809">
        <ele>301.4</ele>
        <time>2019-01-20T14:04:01Z</time>
      </trkpt>
      <trkpt lat="43.51878" lon="6.30797">
        <ele>301.5</ele>
        <time>2019-01-20T14:04:08Z</time>
      </trkpt>
      <trkpt lat="43.51881" lon="6.30785">
        <ele>301.8</ele>
        <time>2019-01-20T14:04:17Z</time>
      </trkpt>
      <trkpt lat="43.51882" lon="6.30771">
        <ele>302</ele>
        <time>2019-01-20T14:04:25Z</time>
      </trkpt>
      <trkpt lat="43.51884" lon="6.30758">
        <ele>302.4</ele>
        <time>2019-01-20T14:04:34Z</time>
      </trkpt>
      <trkpt lat="43.51883" lon="6.30745">
        <ele>302.6</ele>
        <time>2019-01-20T14:04:44Z</time>
      </trkpt>
      <trkpt lat="43.51883" lon="6.30732">
        <ele>302.5</ele>
        <time>2019-01-20T14:04:53Z</time>
      </trkpt>
      <trkpt lat="43.51882" lon="6.30719">
        <ele>302.5</ele>
        <time>2019-01-20T14:05:00Z</time>
      </trkpt>
      <trkpt lat="43.51883" lon="6.30706">
        <ele>302.3</ele>
        <time>2019-01-20T14:05:10Z</time>
      </trkpt>
      <trkpt lat="43.51887" lon="6.30693">
        <ele>302</ele>
        <time>2019-01-20T14:05:19Z</time>
      </trkpt>
      <trkpt lat="43.5189" lon="6.30682">
        <ele>301.9</ele>
        <time>2019-01-20T14:05:27Z</time>
      </trkpt>
      <trkpt lat="43.51893" lon="6.30669">
        <ele>301.8</ele>
        <time>2019-01-20T14:05:36Z</time>
      </trkpt>
      <trkpt lat="43.51896" lon="6.30656">
        <ele>301.7</ele>
        <time>2019-01-20T14:05:46Z</time>
      </trkpt>
      <trkpt lat="43.519" lon="6.30645">
        <ele>301.6</ele>
        <time>2019-01-20T14:05:53Z</time>
      </trkpt>
      <trkpt lat="43.51902" lon="6.30632">
        <ele>301.7</ele>
        <time>2019-01-20T14:06:01Z</time>
      </trkpt>
      <trkpt lat="43.51902" lon="6.30619">
        <ele>301.6</ele>
        <time>2019-01-20T14:06:11Z</time>
      </trkpt>
      <trkpt lat="43.51901" lon="6.30607">
        <ele>301.4</ele>
        <time>2019-01-20T14:06:19Z</time>
      </trkpt>
      <trkpt lat="43.519" lon="6.30594">
        <ele>301.1</ele>
        <time>2019-01-20T14:06:27Z</time>
      </trkpt>
      <trkpt lat="43.519" lon="6.30581">
        <ele>300.6</ele>
        <time>2019-01-20T14:06:36Z</time>
      </trkpt>
      <trkpt lat="43.51901" lon="6.30568">
        <ele>299.9</ele>
        <time>2019-01-20T14:06:44Z</time>
      </trkpt>
      <trkpt lat="43.51902" lon="6.30555">
        <ele>299.4</ele>
        <time>2019-01-20T14:06:55Z</time>
      </trkpt>
      <trkpt lat="43.51902" lon="6.30541">
        <ele>298.8</ele>
        <time>2019-01-20T14:07:06Z</time>
      </trkpt>
      <trkpt lat="43.51901" lon="6.30529">
        <ele>298.3</ele>
        <time>2019-01-20T14:07:14Z</time>
      </trkpt>
      <trkpt lat="43.51901" lon="6.30517">
        <ele>297.8</ele>
        <time>2019-01-20T14:07:22Z</time>
      </trkpt>
      <trkpt lat="43.51904" lon="6.30504">
        <ele>297</ele>
        <time>2019-01-20T14:07:31Z</time>
      </trkpt>
      <trkpt lat="43.51907" lon="6.30491">
        <ele>296.5</ele>
        <time>2019-01-20T14:07:40Z</time>
      </trkpt>
      <trkpt lat="43.51904" lon="6.30479">
        <ele>295.7</ele>
        <time>2019-01-20T14:07:49Z</time>
      </trkpt>
      <trkpt lat="43.51907" lon="6.30467">
        <ele>295.1</ele>
        <time>2019-01-20T14:08:00Z</time>
      </trkpt>
      <trkpt lat="43.51912" lon="6.30456">
        <ele>294.9</ele>
        <time>2019-01-20T14:08:08Z</time>
      </trkpt>
      <trkpt lat="43.51914" lon="6.30443">
        <ele>294</ele>
        <time>2019-01-20T14:08:18Z</time>
      </trkpt>
      <trkpt lat="43.51916" lon="6.30429">
        <ele>293.3</ele>
        <time>2019-01-20T14:08:30Z</time>
      </trkpt>
      <trkpt lat="43.51921" lon="6.30418">
        <ele>292.3</ele>
        <time>2019-01-20T14:08:42Z</time>
      </trkpt>
      <trkpt lat="43.51926" lon="6.30407">
        <ele>291.5</ele>
        <time>2019-01-20T14:08:54Z</time>
      </trkpt>
      <trkpt lat="43.51932" lon="6.30397">
        <ele>290.8</ele>
        <time>2019-01-20T14:09:04Z</time>
      </trkpt>
      <trkpt lat="43.51938" lon="6.30387">
        <ele>290.1</ele>
        <time>2019-01-20T14:09:13Z</time>
      </trkpt>
      <trkpt lat="43.51942" lon="6.30375">
        <ele>289.5</ele>
        <time>2019-01-20T14:09:23Z</time>
      </trkpt>
      <trkpt lat="43.51948" lon="6.30364">
        <ele>288.9</ele>
        <time>2019-01-20T14:09:32Z</time>
      </trkpt>
      <trkpt lat="43.51952" lon="6.30353">
        <ele>288.4</ele>
        <time>2019-01-20T14:09:42Z</time>
      </trkpt>
      <trkpt lat="43.51955" lon="6.30341">
        <ele>288.1</ele>
        <time>2019-01-20T14:09:53Z</time>
      </trkpt>
      <trkpt lat="43.51959" lon="6.30328">
        <ele>287.9</ele>
        <time>2019-01-20T14:10:01Z</time>
      </trkpt>
      <trkpt lat="43.51964" lon="6.30317">
        <ele>287.5</ele>
        <time>2019-01-20T14:10:11Z</time>
      </trkpt>
      <trkpt lat="43.51965" lon="6.30304">
        <ele>287</ele>
        <time>2019-01-20T14:10:24Z</time>
      </trkpt>
      <trkpt lat="43.51972" lon="6.30296">
        <ele>286.6</ele>
        <time>2019-01-20T14:10:34Z</time>
      </trkpt>
      <trkpt lat="43.51979" lon="6.30285">
        <ele>286.1</ele>
        <time>2019-01-20T14:10:44Z</time>
      </trkpt>
      <trkpt lat="43.51985" lon="6.30276">
        <ele>285.6</ele>
        <time>2019-01-20T14:10:52Z</time>
      </trkpt>
      <trkpt lat="43.51993" lon="6.30268">
        <ele>285.3</ele>
        <time>2019-01-20T14:11:01Z</time>
      </trkpt>
      <trkpt lat="43.52001" lon="6.30261">
        <ele>285</ele>
        <time>2019-01-20T14:11:13Z</time>
      </trkpt>
      <trkpt lat="43.52011" lon="6.30257">
        <ele>284.9</ele>
        <time>2019-01-20T14:11:21Z</time>
      </trkpt>
      <trkpt lat="43.5202" lon="6.30253">
        <ele>284.8</ele>
        <time>2019-01-20T14:12:16Z</time>
      </trkpt>
      <trkpt lat="43.52026" lon="6.30243">
        <ele>284.7</ele>
        <time>2019-01-20T14:12:31Z</time>
      </trkpt>
      <trkpt lat="43.52025" lon="6.3023">
        <ele>284.2</ele>
        <time>2019-01-20T14:12:42Z</time>
      </trkpt>
      <trkpt lat="43.52025" lon="6.30217">
        <ele>283.7</ele>
        <time>2019-01-20T14:12:50Z</time>
      </trkpt>
      <trkpt lat="43.52028" lon="6.30204">
        <ele>283</ele>
        <time>2019-01-20T14:13:00Z</time>
      </trkpt>
      <trkpt lat="43.52027" lon="6.30191">
        <ele>282.4</ele>
        <time>2019-01-20T14:13:10Z</time>
      </trkpt>
      <trkpt lat="43.5203" lon="6.30179">
        <ele>281.7</ele>
        <time>2019-01-20T14:13:20Z</time>
      </trkpt>
      <trkpt lat="43.52031" lon="6.30166">
        <ele>280.9</ele>
        <time>2019-01-20T14:13:32Z</time>
      </trkpt>
      <trkpt lat="43.52034" lon="6.30154">
        <ele>280.1</ele>
        <time>2019-01-20T14:13:44Z</time>
      </trkpt>
      <trkpt lat="43.52036" lon="6.30142">
        <ele>279.6</ele>
        <time>2019-01-20T14:13:56Z</time>
      </trkpt>
      <trkpt lat="43.52038" lon="6.30128">
        <ele>279.1</ele>
        <time>2019-01-20T14:14:07Z</time>
      </trkpt>
      <trkpt lat="43.52039" lon="6.30115">
        <ele>278.6</ele>
        <time>2019-01-20T14:14:18Z</time>
      </trkpt>
      <trkpt lat="43.52041" lon="6.30103">
        <ele>277</ele>
        <time>2019-01-20T14:14:34Z</time>
      </trkpt>
      <trkpt lat="43.5204" lon="6.3009">
        <ele>274.7</ele>
        <time>2019-01-20T14:15:04Z</time>
      </trkpt>
      <trkpt lat="43.52043" lon="6.30078">
        <ele>272.5</ele>
        <time>2019-01-20T14:15:38Z</time>
      </trkpt>
      <trkpt lat="43.52042" lon="6.30066">
        <ele>272.9</ele>
        <time>2019-01-20T14:16:05Z</time>
      </trkpt>
      <trkpt lat="43.52038" lon="6.30054">
        <ele>273.3</ele>
        <time>2019-01-20T14:16:43Z</time>
      </trkpt>
      <trkpt lat="43.52031" lon="6.30047">
        <ele>273.4</ele>
        <time>2019-01-20T14:16:52Z</time>
      </trkpt>
      <trkpt lat="43.52023" lon="6.30039">
        <ele>273.4</ele>
        <time>2019-01-20T14:17:00Z</time>
      </trkpt>
      <trkpt lat="43.52015" lon="6.30033">
        <ele>273.4</ele>
        <time>2019-01-20T14:17:10Z</time>
      </trkpt>
      <trkpt lat="43.52007" lon="6.30027">
        <ele>273.2</ele>
        <time>2019-01-20T14:17:20Z</time>
      </trkpt>
      <trkpt lat="43.51999" lon="6.3002">
        <ele>273.3</ele>
        <time>2019-01-20T14:17:30Z</time>
      </trkpt>
      <trkpt lat="43.5199" lon="6.30016">
        <ele>273.3</ele>
        <time>2019-01-20T14:17:38Z</time>
      </trkpt>
      <trkpt lat="43.51983" lon="6.30006">
        <ele>273.2</ele>
        <time>2019-01-20T14:17:48Z</time>
      </trkpt>
      <trkpt lat="43.51973" lon="6.30006">
        <ele>273.3</ele>
        <time>2019-01-20T14:17:56Z</time>
      </trkpt>
      <trkpt lat="43.51967" lon="6.29997">
        <ele>273.4</ele>
        <time>2019-01-20T14:18:06Z</time>
      </trkpt>
      <trkpt lat="43.51957" lon="6.29993">
        <ele>273.7</ele>
        <time>2019-01-20T14:18:14Z</time>
      </trkpt>
      <trkpt lat="43.51949" lon="6.29987">
        <ele>274.2</ele>
        <time>2019-01-20T14:18:22Z</time>
      </trkpt>
      <trkpt lat="43.51942" lon="6.29981">
        <ele>274.4</ele>
        <time>2019-01-20T14:18:30Z</time>
      </trkpt>
      <trkpt lat="43.51931" lon="6.29978">
        <ele>274.6</ele>
        <time>2019-01-20T14:18:38Z</time>
      </trkpt>
      <trkpt lat="43.51922" lon="6.29973">
        <ele>274.7</ele>
        <time>2019-01-20T14:18:46Z</time>
      </trkpt>
      <trkpt lat="43.51913" lon="6.2997">
        <ele>274.8</ele>
        <time>2019-01-20T14:18:53Z</time>
      </trkpt>
      <trkpt lat="43.51903" lon="6.29966">
        <ele>274.8</ele>
        <time>2019-01-20T14:19:00Z</time>
      </trkpt>
      <trkpt lat="43.51892" lon="6.29965">
        <ele>274.8</ele>
        <time>2019-01-20T14:19:09Z</time>
      </trkpt>
      <trkpt lat="43.51883" lon="6.29963">
        <ele>274.9</ele>
        <time>2019-01-20T14:19:20Z</time>
      </trkpt>
      <trkpt lat="43.51874" lon="6.29962">
        <ele>275</ele>
        <time>2019-01-20T14:19:27Z</time>
      </trkpt>
      <trkpt lat="43.51864" lon="6.29961">
        <ele>275.2</ele>
        <time>2019-01-20T14:19:33Z</time>
      </trkpt>
      <trkpt lat="43.51855" lon="6.2996">
        <ele>275.4</ele>
        <time>2019-01-20T14:19:41Z</time>
      </trkpt>
      <trkpt lat="43.51845" lon="6.29956">
        <ele>275.5</ele>
        <time>2019-01-20T14:19:50Z</time>
      </trkpt>
      <trkpt lat="43.51836" lon="6.29954">
        <ele>275.3</ele>
        <time>2019-01-20T14:20:00Z</time>
      </trkpt>
      <trkpt lat="43.51828" lon="6.29948">
        <ele>273.9</ele>
        <time>2019-01-20T14:20:17Z</time>
      </trkpt>
      <trkpt lat="43.51818" lon="6.29949">
        <ele>272.4</ele>
        <time>2019-01-20T14:20:28Z</time>
      </trkpt>
      <trkpt lat="43.51808" lon="6.29951">
        <ele>271.1</ele>
        <time>2019-01-20T14:20:38Z</time>
      </trkpt>
      <trkpt lat="43.51799" lon="6.29951">
        <ele>270.2</ele>
        <time>2019-01-20T14:20:46Z</time>
      </trkpt>
      <trkpt lat="43.51791" lon="6.29948">
        <ele>269.5</ele>
        <time>2019-01-20T14:20:54Z</time>
      </trkpt>
      <trkpt lat="43.51782" lon="6.29943">
        <ele>268.6</ele>
        <time>2019-01-20T14:21:02Z</time>
      </trkpt>
      <trkpt lat="43.51772" lon="6.29941">
        <ele>267.6</ele>
        <time>2019-01-20T14:21:13Z</time>
      </trkpt>
      <trkpt lat="43.51763" lon="6.29938">
        <ele>266.9</ele>
        <time>2019-01-20T14:21:20Z</time>
      </trkpt>
      <trkpt lat="43.51755" lon="6.29931">
        <ele>266</ele>
        <time>2019-01-20T14:21:29Z</time>
      </trkpt>
      <trkpt lat="43.51744" lon="6.29927">
        <ele>265.4</ele>
        <time>2019-01-20T14:21:38Z</time>
      </trkpt>
      <trkpt lat="43.51735" lon="6.29924">
        <ele>265</ele>
        <time>2019-01-20T14:21:45Z</time>
      </trkpt>
      <trkpt lat="43.51727" lon="6.29917">
        <ele>264.5</ele>
        <time>2019-01-20T14:21:53Z</time>
      </trkpt>
      <trkpt lat="43.51719" lon="6.2991">
        <ele>263.3</ele>
        <time>2019-01-20T14:22:07Z</time>
      </trkpt>
      <trkpt lat="43.5171" lon="6.29909">
        <ele>262.7</ele>
        <time>2019-01-20T14:22:15Z</time>
      </trkpt>
      <trkpt lat="43.51699" lon="6.2991">
        <ele>262.3</ele>
        <time>2019-01-20T14:22:24Z</time>
      </trkpt>
      <trkpt lat="43.51691" lon="6.29905">
        <ele>262.3</ele>
        <time>2019-01-20T14:22:34Z</time>
      </trkpt>
      <trkpt lat="43.51682" lon="6.299">
        <ele>262.3</ele>
        <time>2019-01-20T14:22:41Z</time>
      </trkpt>
      <trkpt lat="43.51674" lon="6.29894">
        <ele>262.3</ele>
        <time>2019-01-20T14:22:50Z</time>
      </trkpt>
      <trkpt lat="43.51665" lon="6.29889">
        <ele>262.3</ele>
        <time>2019-01-20T14:22:59Z</time>
      </trkpt>
      <trkpt lat="43.51657" lon="6.29881">
        <ele>262.3</ele>
        <time>2019-01-20T14:23:08Z</time>
      </trkpt>
      <trkpt lat="43.51649" lon="6.29871">
        <ele>262.3</ele>
        <time>2019-01-20T14:23:17Z</time>
      </trkpt>
      <trkpt lat="43.51642" lon="6.29863">
        <ele>261.9</ele>
        <time>2019-01-20T14:23:27Z</time>
      </trkpt>
      <trkpt lat="43.51634" lon="6.29856">
        <ele>261.5</ele>
        <time>2019-01-20T14:23:37Z</time>
      </trkpt>
      <trkpt lat="43.51626" lon="6.2985">
        <ele>260.6</ele>
        <time>2019-01-20T14:23:53Z</time>
      </trkpt>
      <trkpt lat="43.5162" lon="6.2984">
        <ele>259.9</ele>
        <time>2019-01-20T14:24:57Z</time>
      </trkpt>
      <trkpt lat="43.51612" lon="6.29846">
        <ele>259.8</ele>
        <time>2019-01-20T14:25:29Z</time>
      </trkpt>
      <trkpt lat="43.51605" lon="6.29854">
        <ele>259.4</ele>
        <time>2019-01-20T14:28:08Z</time>
      </trkpt>
      <trkpt lat="43.51611" lon="6.29845">
        <ele>259.3</ele>
        <time>2019-01-20T14:31:17Z</time>
      </trkpt>
      <trkpt lat="43.51602" lon="6.29845">
        <ele>260.1</ele>
        <time>2019-01-20T14:33:36Z</time>
      </trkpt>
      <trkpt lat="43.51611" lon="6.29847">
        <ele>259.9</ele>
        <time>2019-01-20T14:36:18Z</time>
      </trkpt>
      <trkpt lat="43.51613" lon="6.29839">
        <ele>259.5</ele>
        <time>2019-01-20T14:37:29Z</time>
      </trkpt>
    </trkseg>
  </trk>
</gpx>